Warning: Javascript must be enabled to use all the features on this page!


Page Loading - Please Wait...

Click to hideNews Bulletins
! We're replacing this page with a Next Generation Monitoring Location Page.
We're modernizing Water Data for the Nation delivery. Find out what this means for you. This page will be discontinued Jan.1, 2023.

USGS 01011000 Allagash River near Allagash, Maine

PROVISIONAL DATA SUBJECT TO REVISION

Click to hidestation-specific text
Station operated in cooperation with the Maine Emergency Management Agency and the Maine River Flow Advisory Commission.
Period of Record - Discharge: July 1910 to November 1910, May to November 1911, September 1931 to current year. Monthly discharges only for some periods prior to November 1911, published in WSP 1301.

The National Weather Service flood stage for this site is 15.0 ft. (Forecast)

Current shift-adjusted rating in tab-delimited format.
These are updated daily and can change often! If you use these ratings it is important that you update often so that you have the most current version.
What is a shift-adjusted rating?
This station managed by the Augusta ME Field Office.

Available Parameters Available Period
  
2010-10-01  2021-10-16
2021-10-04  2021-10-16
2021-10-04  2021-10-16
2021-10-05  2021-10-16
1987-12-02  2021-10-16
2007-10-01  2021-10-16







 (31)
 

  -- or --

 


 

Summary of all available data for this site
Instantaneous-data availability statement






Date / Time




Gage
height,
feet,



Temper-
ature,
water,
deg C,




Dis-
charge,
ft3/s,
05/01/2012 00:00 EDT6.48A  6.3A  7,490A  
05/01/2012 00:15 EDT6.47A  6.2A  7,460A  
05/01/2012 00:30 EDT6.47A  6.2A  7,460A  
05/01/2012 00:45 EDT6.47A  6.1A  7,460A  
05/01/2012 01:00 EDT6.46A  6.1A  7,440A  
05/01/2012 01:15 EDT6.44A  6.0A  7,390A  
05/01/2012 01:30 EDT6.45A  6.0A  7,410A  
05/01/2012 01:45 EDT6.45A  6.0A  7,410A  
05/01/2012 02:00 EDT6.43A  5.9A  7,360A  
05/01/2012 02:15 EDT6.43A  5.9A  7,360A  
05/01/2012 02:30 EDT6.42A  5.8A  7,340A  
05/01/2012 02:45 EDT6.42A  5.8A  7,340A  
05/01/2012 03:00 EDT6.42A  5.8A  7,340A  
05/01/2012 03:15 EDT6.43A  5.7A  7,360A  
05/01/2012 03:30 EDT6.40A  5.7A  7,290A  
05/01/2012 03:45 EDT6.40A  5.7A  7,290A  
05/01/2012 04:00 EDT6.40A  5.6A  7,290A  
05/01/2012 04:15 EDT6.39A  5.6A  7,260A  
05/01/2012 04:30 EDT6.40A  5.6A  7,290A  
05/01/2012 04:45 EDT6.39A  5.5A  7,260A  
05/01/2012 05:00 EDT6.37A  5.5A  7,210A  
05/01/2012 05:15 EDT6.38A  5.4A  7,240A  
05/01/2012 05:30 EDT6.37A  5.4A  7,210A  
05/01/2012 05:45 EDT6.37A  5.4A  7,210A  
05/01/2012 06:00 EDT6.36A  5.3A  7,190A  
05/01/2012 06:15 EDT6.35A  5.3A  7,160A  
05/01/2012 06:30 EDT6.34A  5.3A  7,140A  
05/01/2012 06:45 EDT6.33A  5.3A  7,110A  
05/01/2012 07:00 EDT6.34A  5.3A  7,140A  
05/01/2012 07:15 EDT6.32A  5.3A  7,090A  
05/01/2012 07:30 EDT6.33A  5.3A  7,110A  
05/01/2012 07:45 EDT6.31A  5.3A  7,060A  
05/01/2012 08:00 EDT6.32A  5.3A  7,090A  
05/01/2012 08:15 EDT6.30A  5.4A  7,040A  
05/01/2012 08:30 EDT6.29A  5.4A  7,010A  
05/01/2012 08:45 EDT6.30A  5.4A  7,040A  
05/01/2012 09:00 EDT6.31A  5.4A  7,060A  
05/01/2012 09:15 EDT6.28A  5.5A  6,990A  
05/01/2012 09:30 EDT6.30A  5.5A  7,040A  
05/01/2012 09:45 EDT6.26A  5.5A  6,940A  
05/01/2012 10:00 EDT6.28A  5.6A  6,990A  
05/01/2012 10:15 EDT6.27A  5.6A  6,960A  
05/01/2012 10:30 EDT6.26A  5.6A  6,940A  
05/01/2012 10:45 EDT6.26A  5.7A  6,940A  
05/01/2012 11:00 EDT6.27A  5.7A  6,960A  
05/01/2012 11:15 EDT6.25A  5.7A  6,920A  
05/01/2012 11:30 EDT6.23A  5.8A  6,870A  
05/01/2012 11:45 EDT6.23A  5.9A  6,870A  
05/01/2012 12:00 EDT6.24A  5.9A  6,890A  
05/01/2012 12:15 EDT6.20A  5.9A  6,790A  
05/01/2012 12:30 EDT6.22A  6.0A  6,840A  
05/01/2012 12:45 EDT6.23A  6.0A  6,870A  
05/01/2012 13:00 EDT6.21A  6.1A  6,820A  
05/01/2012 13:15 EDT6.21A  6.1A  6,820A  
05/01/2012 13:30 EDT6.20A  6.1A  6,790A  
05/01/2012 13:45 EDT6.19A  6.2A  6,770A  
05/01/2012 14:00 EDT6.20A  6.2A  6,790A  
05/01/2012 14:15 EDT6.20A  6.3A  6,790A  
05/01/2012 14:30 EDT6.19A  6.4A  6,770A  
05/01/2012 14:45 EDT6.19A  6.4A  6,770A  
05/01/2012 15:00 EDT6.18A  6.4A  6,750A  
05/01/2012 15:15 EDT6.15A  6.4A  6,670A  
05/01/2012 15:30 EDT6.17A  6.4A  6,720A  
05/01/2012 15:45 EDT6.15A  6.4A  6,670A  
05/01/2012 16:00 EDT6.15A  6.4A  6,670A  
05/01/2012 16:15 EDT6.14A  6.4A  6,650A  
05/01/2012 16:30 EDT6.15A  6.4A  6,670A  
05/01/2012 16:45 EDT6.15A  6.4A  6,670A  
05/01/2012 17:00 EDT6.14A  6.4A  6,650A  
05/01/2012 17:15 EDT6.14A  6.4A  6,650A  
05/01/2012 17:30 EDT6.12A  6.5A  6,600A  
05/01/2012 17:45 EDT6.11A  6.5A  6,580A  
05/01/2012 18:00 EDT6.11A  6.5A  6,580A  
05/01/2012 18:15 EDT6.10A  6.5A  6,550A  
05/01/2012 18:30 EDT6.11A  6.5A  6,580A  
05/01/2012 18:45 EDT6.11A  6.4A  6,580A  
05/01/2012 19:00 EDT6.09A  6.4A  6,530A  
05/01/2012 19:15 EDT6.10A  6.4A  6,550A  
05/01/2012 19:30 EDT6.09A  6.4A  6,530A  
05/01/2012 19:45 EDT6.08A  6.4A  6,510A  
05/01/2012 20:00 EDT6.07A  6.4A  6,480A  
05/01/2012 20:15 EDT6.06A  6.4A  6,460A  
05/01/2012 20:30 EDT6.06A  6.4A  6,460A  
05/01/2012 20:45 EDT6.06A  6.3A  6,460A  
05/01/2012 21:00 EDT6.06A  6.3A  6,460A  
05/01/2012 21:15 EDT6.04A  6.3A  6,410A  
05/01/2012 21:30 EDT6.05A  6.3A  6,430A  
05/01/2012 21:45 EDT6.04A  6.3A  6,410A  
05/01/2012 22:00 EDT6.02A  6.3A  6,360A  
05/01/2012 22:15 EDT6.03A  6.3A  6,390A  
05/01/2012 22:30 EDT6.03A  6.2A  6,390A  
05/01/2012 22:45 EDT6.03A  6.2A  6,390A  
05/01/2012 23:00 EDT6.03A  6.2A  6,390A  
05/01/2012 23:15 EDT6.02A  6.2A  6,360A  
05/01/2012 23:30 EDT6.01A  6.1A  6,340A  
05/01/2012 23:45 EDT6.01A  6.1A  6,340A  
05/02/2012 00:00 EDT6.01A  6.1A  6,340A  
05/02/2012 00:15 EDT5.99A  6.1A  6,290A  
05/02/2012 00:30 EDT5.99A  6.1A  6,290A  
05/02/2012 00:45 EDT5.99A  6.0A  6,290A  
05/02/2012 01:00 EDT5.98A  6.0A  6,270A  
05/02/2012 01:15 EDT5.96A  6.0A  6,220A  
05/02/2012 01:30 EDT5.99A  6.0A  6,290A  
05/02/2012 01:45 EDT5.97A  6.0A  6,250A  
05/02/2012 02:00 EDT5.97A  5.9A  6,250A  
05/02/2012 02:15 EDT5.96A  5.9A  6,220A  
05/02/2012 02:30 EDT5.96A  5.9A  6,220A  
05/02/2012 02:45 EDT5.93A  5.9A  6,150A  
05/02/2012 03:00 EDT5.94A  5.9A  6,180A  
05/02/2012 03:15 EDT5.93A  5.9A  6,150A  
05/02/2012 03:30 EDT5.93A  5.9A  6,150A  
05/02/2012 03:45 EDT5.92A  5.9A  6,130A  
05/02/2012 04:00 EDT5.91A  5.9A  6,110A  
05/02/2012 04:15 EDT5.92A  5.8A  6,130A  
05/02/2012 04:30 EDT5.92A  5.8A  6,130A  
05/02/2012 04:45 EDT5.92A  5.8A  6,130A  
05/02/2012 05:00 EDT5.89A  5.8A  6,060A  
05/02/2012 05:15 EDT5.89A  5.8A  6,060A  
05/02/2012 05:30 EDT5.89A  5.8A  6,060A  
05/02/2012 05:45 EDT5.89A  5.8A  6,060A  
05/02/2012 06:00 EDT5.89A  5.8A  6,060A  
05/02/2012 06:15 EDT5.88A  5.8A  6,040A  
05/02/2012 06:30 EDT5.88A  5.8A  6,040A  
05/02/2012 06:45 EDT5.87A  5.8A  6,020A  
05/02/2012 07:00 EDT5.88A  5.8A  6,040A  
05/02/2012 07:15 EDT5.87A  5.8A  6,020A  
05/02/2012 07:30 EDT5.86A  5.8A  5,990A  
05/02/2012 07:45 EDT5.85A  5.8A  5,970A  
05/02/2012 08:00 EDT5.85A  5.8A  5,970A  
05/02/2012 08:15 EDT5.85A  5.8A  5,970A  
05/02/2012 08:30 EDT5.83A  5.8A  5,920A  
05/02/2012 08:45 EDT5.83A  5.9A  5,920A  
05/02/2012 09:00 EDT5.83A  5.9A  5,920A  
05/02/2012 09:15 EDT5.82A  5.9A  5,900A  
05/02/2012 09:30 EDT5.82A  6.0A  5,900A  
05/02/2012 09:45 EDT5.81A  6.0A  5,880A  
05/02/2012 10:00 EDT5.81A  6.0A  5,880A  
05/02/2012 10:15 EDT5.81A  6.1A  5,880A  
05/02/2012 10:30 EDT5.80A  6.1A  5,860A  
05/02/2012 10:45 EDT5.81A  6.2A  5,880A  
05/02/2012 11:00 EDT5.79A  6.3A  5,830A  
05/02/2012 11:15 EDT5.79A  6.3A  5,830A  
05/02/2012 11:30 EDT5.77A  6.3A  5,790A  
05/02/2012 11:45 EDT5.78A  6.4A  5,810A  
05/02/2012 12:00 EDT5.77A  6.5A  5,790A  
05/02/2012 12:15 EDT5.76A  6.6A  5,770A  
05/02/2012 12:30 EDT5.75A  6.6A  5,740A  
05/02/2012 12:45 EDT5.76A  6.6A  5,770A  
05/02/2012 13:00 EDT5.75A  6.6A  5,740A  
05/02/2012 13:15 EDT5.73A  6.7A  5,700A  
05/02/2012 13:30 EDT5.74A  6.7A  5,720A  
05/02/2012 13:45 EDT5.74A  6.7A  5,720A  
05/02/2012 14:00 EDT5.74A  6.8A  5,720A  
05/02/2012 14:15 EDT5.73A  6.8A  5,700A  
05/02/2012 14:30 EDT5.70A  6.8A  5,630A  
05/02/2012 14:45 EDT5.70A  6.8A  5,630A  
05/02/2012 15:00 EDT5.71A  6.8A  5,650A  
05/02/2012 15:15 EDT5.70A  6.9A  5,630A  
05/02/2012 15:30 EDT5.68A  6.9A  5,590A  
05/02/2012 15:45 EDT5.69A  6.9A  5,610A  
05/02/2012 16:00 EDT5.68A  6.9A  5,590A  
05/02/2012 16:15 EDT5.68A  6.9A  5,590A  
05/02/2012 16:30 EDT5.68A  6.9A  5,590A  
05/02/2012 16:45 EDT5.68A  6.9A  5,590A  
05/02/2012 17:00 EDT5.67A  6.9A  5,560A  
05/02/2012 17:15 EDT5.67A  7.0A  5,560A  
05/02/2012 17:30 EDT5.67A  7.0A  5,560A  
05/02/2012 17:45 EDT5.66A  7.0A  5,540A  
05/02/2012 18:00 EDT5.64A  7.0A  5,500A  
05/02/2012 18:15 EDT5.65A  7.0A  5,520A  
05/02/2012 18:30 EDT5.64A  6.9A  5,500A  
05/02/2012 18:45 EDT5.64A  6.9A  5,500A  
05/02/2012 19:00 EDT5.63A  6.9A  5,480A  
05/02/2012 19:15 EDT5.62A  6.9A  5,450A  
05/02/2012 19:30 EDT5.62A  6.9A  5,450A  
05/02/2012 19:45 EDT5.62A  6.9A  5,450A  
05/02/2012 20:00 EDT5.60A  6.8A  5,410A  
05/02/2012 20:15 EDT5.61A  6.8A  5,430A  
05/02/2012 20:30 EDT5.60A  6.8A  5,410A  
05/02/2012 20:45 EDT5.59A  6.7A  5,390A  
05/02/2012 21:00 EDT5.58A  6.7A  5,370A  
05/02/2012 21:15 EDT5.58A  6.7A  5,370A  
05/02/2012 21:30 EDT5.58A  6.7A  5,370A  
05/02/2012 21:45 EDT5.58A  6.7A  5,370A  
05/02/2012 22:00 EDT5.57A  6.6A  5,340A  
05/02/2012 22:15 EDT5.57A  6.6A  5,340A  
05/02/2012 22:30 EDT5.55A  6.6A  5,300A  
05/02/2012 22:45 EDT5.55A  6.6A  5,300A  
05/02/2012 23:00 EDT5.55A  6.6A  5,300A  
05/02/2012 23:15 EDT5.55A  6.5A  5,300A  
05/02/2012 23:30 EDT5.54A  6.5A  5,280A  
05/02/2012 23:45 EDT5.53A  6.5A  5,260A  
05/03/2012 00:00 EDT5.52A  6.5A  5,240A  
05/03/2012 00:15 EDT5.53A  6.5A  5,260A  
05/03/2012 00:30 EDT5.52A  6.5A  5,240A  
05/03/2012 00:45 EDT5.52A  6.4A  5,240A  
05/03/2012 01:00 EDT5.52A  6.4A  5,240A  
05/03/2012 01:15 EDT5.51A  6.4A  5,210A  
05/03/2012 01:30 EDT5.51A  6.4A  5,210A  
05/03/2012 01:45 EDT5.50A  6.4A  5,190A  
05/03/2012 02:00 EDT5.49A  6.3A  5,170A  
05/03/2012 02:15 EDT5.49A  6.3A  5,170A  
05/03/2012 02:30 EDT5.48A  6.3A  5,150A  
05/03/2012 02:45 EDT5.49A  6.3A  5,170A  
05/03/2012 03:00 EDT5.49A  6.3A  5,170A  
05/03/2012 03:15 EDT5.47A  6.3A  5,130A  
05/03/2012 03:30 EDT5.47A  6.2A  5,130A  
05/03/2012 03:45 EDT5.46A  6.2A  5,110A  
05/03/2012 04:00 EDT5.46A  6.2A  5,110A  
05/03/2012 04:15 EDT5.45A  6.2A  5,090A  
05/03/2012 04:30 EDT5.45A  6.1A  5,090A  
05/03/2012 04:45 EDT5.45A  6.1A  5,090A  
05/03/2012 05:00 EDT5.44A  6.1A  5,060A  
05/03/2012 05:15 EDT5.44A  6.0A  5,060A  
05/03/2012 05:30 EDT5.43A  6.0A  5,040A  
05/03/2012 05:45 EDT5.43A  6.0A  5,040A  
05/03/2012 06:00 EDT5.43A  6.0A  5,040A  
05/03/2012 06:15 EDT5.42A  6.0A  5,020A  
05/03/2012 06:30 EDT5.42A  6.0A  5,020A  
05/03/2012 06:45 EDT5.42A  6.0A  5,020A  
05/03/2012 07:00 EDT5.41A  6.0A  5,000A  
05/03/2012 07:15 EDT5.40A  6.0A  4,980A  
05/03/2012 07:30 EDT5.40A  6.0A  4,980A  
05/03/2012 07:45 EDT5.40A  6.0A  4,980A  
05/03/2012 08:00 EDT5.39A  6.0A  4,960A  
05/03/2012 08:15 EDT5.40A  6.0A  4,980A  
05/03/2012 08:30 EDT5.38A  6.0A  4,940A  
05/03/2012 08:45 EDT5.38A  6.1A  4,940A  
05/03/2012 09:00 EDT5.38A  6.1A  4,940A  
05/03/2012 09:15 EDT5.37A  6.2A  4,920A  
05/03/2012 09:30 EDT5.36A  6.3A  4,890A  
05/03/2012 09:45 EDT5.36A  6.4A  4,890A  
05/03/2012 10:00 EDT5.36A  6.5A  4,890A  
05/03/2012 10:15 EDT5.36A  6.6A  4,890A  
05/03/2012 10:30 EDT5.35A  6.7A  4,870A  
05/03/2012 10:45 EDT5.35A  6.8A  4,870A  
05/03/2012 11:00 EDT5.34A  6.9A  4,850A  
05/03/2012 11:15 EDT5.33A  6.9A  4,830A  
05/03/2012 11:30 EDT5.33A  7.0A  4,830A  
05/03/2012 11:45 EDT5.33A  7.1A  4,830A  
05/03/2012 12:00 EDT5.32A  7.1A  4,810A  
05/03/2012 12:15 EDT5.32A  7.3A  4,810A  
05/03/2012 12:30 EDT5.33A  7.4A  4,830A  
05/03/2012 12:45 EDT5.32A  7.6A  4,810A  
05/03/2012 13:00 EDT5.31A  7.7A  4,790A  
05/03/2012 13:15 EDT5.31A  7.9A  4,790A  
05/03/2012 13:30 EDT5.32A  8.0A  4,810A  
05/03/2012 13:45 EDT5.29A  8.1A  4,750A  
05/03/2012 14:00 EDT5.30A  8.1A  4,770A  
05/03/2012 14:15 EDT5.30A  8.2A  4,770A  
05/03/2012 14:30 EDT5.29A  8.3A  4,750A  
05/03/2012 14:45 EDT5.29A  8.3A  4,750A  
05/03/2012 15:00 EDT5.28A  8.4A  4,730A  
05/03/2012 15:15 EDT5.28A  8.5A  4,730A  
05/03/2012 15:30 EDT5.27A  8.5A  4,710A  
05/03/2012 15:45 EDT5.27A  8.6A  4,710A  
05/03/2012 16:00 EDT5.26A  8.6A  4,690A  
05/03/2012 16:15 EDT5.26A  8.6A  4,690A  
05/03/2012 16:30 EDT5.26A  8.7A  4,690A  
05/03/2012 16:45 EDT5.26A  8.7A  4,690A  
05/03/2012 17:00 EDT5.25A  8.7A  4,670A  
05/03/2012 17:15 EDT5.25A  8.7A  4,670A  
05/03/2012 17:30 EDT5.24A  8.7A  4,650A  
05/03/2012 17:45 EDT5.25A  8.7A  4,670A  
05/03/2012 18:00 EDT5.23A  8.7A  4,630A  
05/03/2012 18:15 EDT5.24A  8.7A  4,650A  
05/03/2012 18:30 EDT5.22A  8.7A  4,610A  
05/03/2012 18:45 EDT5.22A  8.6A  4,610A  
05/03/2012 19:00 EDT5.22A  8.6A  4,610A  
05/03/2012 19:15 EDT5.22A  8.6A  4,610A  
05/03/2012 19:30 EDT5.21A  8.5A  4,580A  
05/03/2012 19:45 EDT5.21A  8.5A  4,580A  
05/03/2012 20:00 EDT5.21A  8.4A  4,580A  
05/03/2012 20:15 EDT5.20A  8.4A  4,560A  
05/03/2012 20:30 EDT5.20A  8.4A  4,560A  
05/03/2012 20:45 EDT5.20A  8.3A  4,560A  
05/03/2012 21:00 EDT5.19A  8.3A  4,540A  
05/03/2012 21:15 EDT5.20A  8.2A  4,560A  
05/03/2012 21:30 EDT5.18A  8.2A  4,520A  
05/03/2012 21:45 EDT5.18A  8.2A  4,520A  
05/03/2012 22:00 EDT5.19A  8.1A  4,540A  
05/03/2012 22:15 EDT5.18A  8.1A  4,520A  
05/03/2012 22:30 EDT5.16A  8.1A  4,480A  
05/03/2012 22:45 EDT5.18A  8.0A  4,520A  
05/03/2012 23:00 EDT5.18A  8.0A  4,520A  
05/03/2012 23:15 EDT5.17A  8.0A  4,500A  
05/03/2012 23:30 EDT5.16A  8.0A  4,480A  
05/03/2012 23:45 EDT5.16A  7.9A  4,480A  
05/04/2012 00:00 EDT5.16A  7.9A  4,480A  
05/04/2012 00:15 EDT5.16A  7.9A  4,480A  
05/04/2012 00:30 EDT5.16A  7.8A  4,480A  
05/04/2012 00:45 EDT5.15A  7.8A  4,460A  
05/04/2012 01:00 EDT5.15A  7.7A  4,460A  
05/04/2012 01:15 EDT5.15A  7.7A  4,460A  
05/04/2012 01:30 EDT5.14A  7.7A  4,440A  
05/04/2012 01:45 EDT5.14A  7.6A  4,440A  
05/04/2012 02:00 EDT5.14A  7.6A  4,440A  
05/04/2012 02:15 EDT5.12A  7.5A  4,400A  
05/04/2012 02:30 EDT5.12A  7.5A  4,400A  
05/04/2012 02:45 EDT5.13A  7.4A  4,420A  
05/04/2012 03:00 EDT5.13A  7.4A  4,420A  
05/04/2012 03:15 EDT5.12A  7.3A  4,400A  
05/04/2012 03:30 EDT5.12A  7.3A  4,400A  
05/04/2012 03:45 EDT5.11A  7.2A  4,380A  
05/04/2012 04:00 EDT5.12A  7.2A  4,400A  
05/04/2012 04:15 EDT5.10A  7.1A  4,360A  
05/04/2012 04:30 EDT5.10A  7.1A  4,360A  
05/04/2012 04:45 EDT5.10A  7.1A  4,360A  
05/04/2012 05:00 EDT5.09A  7.0A  4,340A  
05/04/2012 05:15 EDT5.09A  7.0A  4,340A  
05/04/2012 05:30 EDT5.09A  7.0A  4,340A  
05/04/2012 05:45 EDT5.08A  7.0A  4,320A  
05/04/2012 06:00 EDT5.09A  7.0A  4,340A  
05/04/2012 06:15 EDT5.08A  6.9A  4,320A  
05/04/2012 06:30 EDT5.09A  6.9A  4,340A  
05/04/2012 06:45 EDT5.08A  6.9A  4,320A  
05/04/2012 07:00 EDT5.07A  6.9A  4,300A  
05/04/2012 07:15 EDT5.07A  7.0A  4,300A  
05/04/2012 07:30 EDT5.06A  7.0A  4,280A  
05/04/2012 07:45 EDT5.05A  7.0A  4,260A  
05/04/2012 08:00 EDT5.06A  7.1A  4,280A  
05/04/2012 08:15 EDT5.05A  7.1A  4,260A  
05/04/2012 08:30 EDT5.06A  7.2A  4,280A  
05/04/2012 08:45 EDT5.05A  7.2A  4,260A  
05/04/2012 09:00 EDT5.05A  7.3A  4,260A  
05/04/2012 09:15 EDT5.05A  7.4A  4,260A  
05/04/2012 09:30 EDT5.04A  7.4A  4,240A  
05/04/2012 09:45 EDT5.04A  7.5A  4,240A  
05/04/2012 10:00 EDT5.05A  7.5A  4,260A  
05/04/2012 10:15 EDT5.04A  7.6A  4,240A  
05/04/2012 10:30 EDT5.04A  7.7A  4,240A  
05/04/2012 10:45 EDT5.03A  7.8A  4,220A  
05/04/2012 11:00 EDT5.03A  7.8A  4,220A  
05/04/2012 11:15 EDT5.03A  7.9A  4,220A  
05/04/2012 11:30 EDT5.02A  8.0A  4,200A  
05/04/2012 11:45 EDT5.02A  8.0A  4,200A  
05/04/2012 12:00 EDT5.02A  8.1A  4,200A  
05/04/2012 12:15 EDT5.03A  8.1A  4,220A  
05/04/2012 12:30 EDT5.02A  8.2A  4,200A  
05/04/2012 12:45 EDT5.01A  8.2A  4,190A  
05/04/2012 13:00 EDT5.01A  8.3A  4,190A  
05/04/2012 13:15 EDT5.00A  8.3A  4,170A  
05/04/2012 13:30 EDT5.00A  8.4A  4,170A  
05/04/2012 13:45 EDT5.01A  8.5A  4,190A  
05/04/2012 14:00 EDT5.00A  8.5A  4,170A  
05/04/2012 14:15 EDT5.00A  8.6A  4,170A  
05/04/2012 14:30 EDT4.99A  8.6A  4,150A  
05/04/2012 14:45 EDT4.99A  8.7A  4,150A  
05/04/2012 15:00 EDT5.00A  8.8A  4,170A  
05/04/2012 15:15 EDT4.99A  8.9A  4,150A  
05/04/2012 15:30 EDT4.98A  8.9A  4,130A  
05/04/2012 15:45 EDT4.98A  9.0A  4,130A  
05/04/2012 16:00 EDT4.98A  9.1A  4,130A  
05/04/2012 16:15 EDT4.98A  9.1A  4,130A  
05/04/2012 16:30 EDT4.97A  9.2A  4,110A  
05/04/2012 16:45 EDT4.97A  9.2A  4,110A  
05/04/2012 17:00 EDT4.97A  9.2A  4,110A  
05/04/2012 17:15 EDT4.96A  9.3A  4,090A  
05/04/2012 17:30 EDT4.97A  9.3A  4,110A  
05/04/2012 17:45 EDT4.96A  9.3A  4,090A  
05/04/2012 18:00 EDT4.96A  9.3A  4,090A  
05/04/2012 18:15 EDT4.95A  9.3A  4,070A  
05/04/2012 18:30 EDT4.94A  9.3A  4,050A  
05/04/2012 18:45 EDT4.96A  9.3A  4,090A  
05/04/2012 19:00 EDT4.94A  9.3A  4,050A  
05/04/2012 19:15 EDT4.95A  9.3A  4,070A  
05/04/2012 19:30 EDT4.95A  9.4A  4,070A  
05/04/2012 19:45 EDT4.96A  9.4A  4,090A  
05/04/2012 20:00 EDT4.94A  9.3A  4,050A  
05/04/2012 20:15 EDT4.95A  9.3A  4,070A  
05/04/2012 20:30 EDT4.94A  9.3A  4,050A  
05/04/2012 20:45 EDT4.94A  9.3A  4,050A  
05/04/2012 21:00 EDT4.93A  9.3A  4,030A  
05/04/2012 21:15 EDT4.94A  9.3A  4,050A  
05/04/2012 21:30 EDT4.93A  9.3A  4,030A  
05/04/2012 21:45 EDT4.94A  9.3A  4,050A  
05/04/2012 22:00 EDT4.94A  9.3A  4,050A  
05/04/2012 22:15 EDT4.94A  9.3A  4,050A  
05/04/2012 22:30 EDT4.93A  9.3A  4,030A  
05/04/2012 22:45 EDT4.93A  9.3A  4,030A  
05/04/2012 23:00 EDT4.93A  9.3A  4,030A  
05/04/2012 23:15 EDT4.91A  9.3A  3,990A  
05/04/2012 23:30 EDT4.91A  9.3A  3,990A  
05/04/2012 23:45 EDT4.90A  9.2A  3,970A  
05/05/2012 00:00 EDT4.92A  9.2A  4,010A  
05/05/2012 00:15 EDT4.91A  9.2A  3,990A  
05/05/2012 00:30 EDT4.91A  9.2A  3,990A  
05/05/2012 00:45 EDT4.89A  9.1A  3,950A  
05/05/2012 01:00 EDT4.91A  9.1A  3,990A  
05/05/2012 01:15 EDT4.91A  9.1A  3,990A  
05/05/2012 01:30 EDT4.90A  9.1A  3,970A  
05/05/2012 01:45 EDT4.91A  9.0A  3,990A  
05/05/2012 02:00 EDT4.90A  9.0A  3,970A  
05/05/2012 02:15 EDT4.90A  9.0A  3,970A  
05/05/2012 02:30 EDT4.89A  9.0A  3,950A  
05/05/2012 02:45 EDT4.89A  8.9A  3,950A  
05/05/2012 03:00 EDT4.89A  8.9A  3,950A  
05/05/2012 03:15 EDT4.90A  8.9A  3,970A  
05/05/2012 03:30 EDT4.89A  8.8A  3,950A  
05/05/2012 03:45 EDT4.88A  8.8A  3,930A  
05/05/2012 04:00 EDT4.88A  8.7A  3,930A  
05/05/2012 04:15 EDT4.88A  8.7A  3,930A  
05/05/2012 04:30 EDT4.89A  8.7A  3,950A  
05/05/2012 04:45 EDT4.89A  8.6A  3,950A  
05/05/2012 05:00 EDT4.89A  8.6A  3,950A  
05/05/2012 05:15 EDT4.88A  8.5A  3,930A  
05/05/2012 05:30 EDT4.89A  8.5A  3,950A  
05/05/2012 05:45 EDT4.88A  8.5A  3,930A  
05/05/2012 06:00 EDT4.87A  8.4A  3,910A  
05/05/2012 06:15 EDT4.88A  8.4A  3,930A  
05/05/2012 06:30 EDT4.89A  8.4A  3,950A  
05/05/2012 06:45 EDT4.89A  8.3A  3,950A  
05/05/2012 07:00 EDT4.87A  8.3A  3,910A  
05/05/2012 07:15 EDT4.88A  8.3A  3,930A  
05/05/2012 07:30 EDT4.88A  8.3A  3,930A  
05/05/2012 07:45 EDT4.87A  8.3A  3,910A  
05/05/2012 08:00 EDT4.87A  8.3A  3,910A  
05/05/2012 08:15 EDT4.87A  8.2A  3,910A  
05/05/2012 08:30 EDT4.87A  8.2A  3,910A  
05/05/2012 08:45 EDT4.87A  8.2A  3,910A  
05/05/2012 09:00 EDT4.87A  8.2A  3,910A  
05/05/2012 09:15 EDT4.86A  8.2A  3,900A  
05/05/2012 09:30 EDT4.87A  8.2A  3,910A  
05/05/2012 09:45 EDT4.86A  8.3A  3,900A  
05/05/2012 10:00 EDT4.85A  8.3A  3,880A  
05/05/2012 10:15 EDT4.86A  8.3A  3,900A  
05/05/2012 10:30 EDT4.85A  8.4A  3,880A  
05/05/2012 10:45 EDT4.86A  8.4A  3,900A  
05/05/2012 11:00 EDT4.86A  8.4A  3,900A  
05/05/2012 11:15 EDT4.86A  8.5A  3,900A  
05/05/2012 11:30 EDT4.85A  8.6A  3,880A  
05/05/2012 11:45 EDT4.86A  8.7A  3,900A  
05/05/2012 12:00 EDT4.85A  8.8A  3,880A  
05/05/2012 12:15 EDT4.85A  8.9A  3,880A  
05/05/2012 12:30 EDT4.84A  9.1A  3,860A  
05/05/2012 12:45 EDT4.85A  9.2A  3,880A  
05/05/2012 13:00 EDT4.85A  9.3A  3,880A  
05/05/2012 13:15 EDT4.85A  9.4A  3,880A  
05/05/2012 13:30 EDT4.86A  9.5A  3,900A  
05/05/2012 13:45 EDT4.84A  9.6A  3,860A  
05/05/2012 14:00 EDT4.84A  9.7A  3,860A  
05/05/2012 14:15 EDT4.85A  9.8A  3,880A  
05/05/2012 14:30 EDT4.84A  10.0A  3,860A  
05/05/2012 14:45 EDT4.84A  10.1A  3,860A  
05/05/2012 15:00 EDT4.84A  10.2A  3,860A  
05/05/2012 15:15 EDT4.84A  10.2A  3,860A  
05/05/2012 15:30 EDT4.83A  10.3A  3,840A  
05/05/2012 15:45 EDT4.84A  10.3A  3,860A  
05/05/2012 16:00 EDT4.83A  10.3A  3,840A  
05/05/2012 16:15 EDT4.83A  10.3A  3,840A  
05/05/2012 16:30 EDT4.83A  10.3A  3,840A  
05/05/2012 16:45 EDT4.83A  10.3A  3,840A  
05/05/2012 17:00 EDT4.83A  10.3A  3,840A  
05/05/2012 17:15 EDT4.82A  10.2A  3,820A  
05/05/2012 17:30 EDT4.82A  10.2A  3,820A  
05/05/2012 17:45 EDT4.82A  10.2A  3,820A  
05/05/2012 18:00 EDT4.82A  10.2A  3,820A  
05/05/2012 18:15 EDT4.82A  10.2A  3,820A  
05/05/2012 18:30 EDT4.82A  10.2A  3,820A  
05/05/2012 18:45 EDT4.82A  10.2A  3,820A  
05/05/2012 19:00 EDT4.82A  10.1A  3,820A  
05/05/2012 19:15 EDT4.82A  10.1A  3,820A  
05/05/2012 19:30 EDT4.81A  10.1A  3,800A  
05/05/2012 19:45 EDT4.81A  10.1A  3,800A  
05/05/2012 20:00 EDT4.81A  10.0A  3,800A  
05/05/2012 20:15 EDT4.82A  10.0A  3,820A  
05/05/2012 20:30 EDT4.81A  10.0A  3,800A  
05/05/2012 20:45 EDT4.80A  9.9A  3,780A  
05/05/2012 21:00 EDT4.80A  9.9A  3,780A  
05/05/2012 21:15 EDT4.80A  9.9A  3,780A  
05/05/2012 21:30 EDT4.80A  9.9A  3,780A  
05/05/2012 21:45 EDT4.79A  9.9A  3,760A  
05/05/2012 22:00 EDT4.79A  9.9A  3,760A  
05/05/2012 22:15 EDT4.77A  9.8A  3,730A  
05/05/2012 22:30 EDT4.79A  9.8A  3,760A  
05/05/2012 22:45 EDT4.79A  9.7A  3,760A  
05/05/2012 23:00 EDT4.78A  9.7A  3,750A  
05/05/2012 23:15 EDT4.78A  9.6A  3,750A  
05/05/2012 23:30 EDT4.79A  9.6A  3,760A  
05/05/2012 23:45 EDT4.79A  9.5A  3,760A  
05/06/2012 00:00 EDT4.78A  9.5A  3,750A  
05/06/2012 00:15 EDT4.77A  9.4A  3,730A  
05/06/2012 00:30 EDT4.78A  9.4A  3,750A  
05/06/2012 00:45 EDT4.77A  9.3A  3,730A  
05/06/2012 01:00 EDT4.77A  9.2A  3,730A  
05/06/2012 01:15 EDT4.76A  9.2A  3,710A  
05/06/2012 01:30 EDT4.77A  9.1A  3,730A  
05/06/2012 01:45 EDT4.76A  9.0A  3,710A  
05/06/2012 02:00 EDT4.77A  9.0A  3,730A  
05/06/2012 02:15 EDT4.77A  8.9A  3,730A  
05/06/2012 02:30 EDT4.77A  8.8A  3,730A  
05/06/2012 02:45 EDT4.75A  8.8A  3,690A  
05/06/2012 03:00 EDT4.76A  8.7A  3,710A  
05/06/2012 03:15 EDT4.75A  8.6A  3,690A  
05/06/2012 03:30 EDT4.75A  8.5A  3,690A  
05/06/2012 03:45 EDT4.75A  8.4A  3,690A  
05/06/2012 04:00 EDT4.74A  8.4A  3,670A  
05/06/2012 04:15 EDT4.74A  8.3A  3,670A  
05/06/2012 04:30 EDT4.75A  8.2A  3,690A  
05/06/2012 04:45 EDT4.75A  8.2A  3,690A  
05/06/2012 05:00 EDT4.75A  8.1A  3,690A  
05/06/2012 05:15 EDT4.74A  8.0A  3,670A  
05/06/2012 05:30 EDT4.75A  8.0A  3,690A  
05/06/2012 05:45 EDT4.73A  7.9A  3,650A  
05/06/2012 06:00 EDT4.74A  7.9A  3,670A  
05/06/2012 06:15 EDT4.74A  7.9A  3,670A  
05/06/2012 06:30 EDT4.74A  7.8A  3,670A  
05/06/2012 06:45 EDT4.72A  7.8A  3,630A  
05/06/2012 07:00 EDT4.73A  7.8A  3,650A  
05/06/2012 07:15 EDT4.73A  7.8A  3,650A  
05/06/2012 07:30 EDT4.73A  7.9A  3,650A  
05/06/2012 07:45 EDT4.73A  7.9A  3,650A  
05/06/2012 08:00 EDT4.73A  8.0A  3,650A  
05/06/2012 08:15 EDT4.72A  8.0A  3,630A  
05/06/2012 08:30 EDT4.73A  8.0A  3,650A  
05/06/2012 08:45 EDT4.71A  8.0A  3,620A  
05/06/2012 09:00 EDT4.71A  8.0A  3,620A  
05/06/2012 09:15 EDT4.69A  8.0A  3,580A  
05/06/2012 09:30 EDT4.70A  8.0A  3,600A  
05/06/2012 09:45 EDT4.71A  8.0A  3,620A  
05/06/2012 10:00 EDT4.70A  8.0A  3,600A  
05/06/2012 10:15 EDT4.70A  8.1A  3,600A  
05/06/2012 10:30 EDT4.69A  8.1A  3,580A  
05/06/2012 10:45 EDT4.70A  8.2A  3,600A  
05/06/2012 11:00 EDT4.69A  8.3A  3,580A  
05/06/2012 11:15 EDT4.68A  8.3A  3,560A  
05/06/2012 11:30 EDT4.69A  8.4A  3,580A  
05/06/2012 11:45 EDT4.69A  8.5A  3,580A  
05/06/2012 12:00 EDT4.68A  8.6A  3,560A  
05/06/2012 12:15 EDT4.68A  8.7A  3,560A  
05/06/2012 12:30 EDT4.68A  8.9A  3,560A  
05/06/2012 12:45 EDT4.68A  9.0A  3,560A  
05/06/2012 13:00 EDT4.68A  9.1A  3,560A  
05/06/2012 13:15 EDT4.68A  9.2A  3,560A  
05/06/2012 13:30 EDT4.67A  9.2A  3,540A  
05/06/2012 13:45 EDT4.67A  9.3A  3,540A  
05/06/2012 14:00 EDT4.67A  9.5A  3,540A  
05/06/2012 14:15 EDT4.67A  9.5A  3,540A  
05/06/2012 14:30 EDT4.67A  9.6A  3,540A  
05/06/2012 14:45 EDT4.66A  9.7A  3,520A  
05/06/2012 15:00 EDT4.66A  9.8A  3,520A  
05/06/2012 15:15 EDT4.66A  9.8A  3,520A  
05/06/2012 15:30 EDT4.66A  9.9A  3,520A  
05/06/2012 15:45 EDT4.66A  9.9A  3,520A  
05/06/2012 16:00 EDT4.65A  10.0A  3,510A  
05/06/2012 16:15 EDT4.65A  10.0A  3,510A  
05/06/2012 16:30 EDT4.65A  10.0A  3,510A  
05/06/2012 16:45 EDT4.64A  9.9A  3,490A  
05/06/2012 17:00 EDT4.63A  9.9A  3,470A  
05/06/2012 17:15 EDT4.64A  9.9A  3,490A  
05/06/2012 17:30 EDT4.63A  9.8A  3,470A  
05/06/2012 17:45 EDT4.63A  9.8A  3,470A  
05/06/2012 18:00 EDT4.63A  9.8A  3,470A  
05/06/2012 18:15 EDT4.63A  9.8A  3,470A  
05/06/2012 18:30 EDT4.62A  9.8A  3,450A  
05/06/2012 18:45 EDT4.61A  9.8A  3,430A  
05/06/2012 19:00 EDT4.63A  9.8A  3,470A  
05/06/2012 19:15 EDT4.62A  9.7A  3,450A  
05/06/2012 19:30 EDT4.61A  9.7A  3,430A  
05/06/2012 19:45 EDT4.61A  9.7A  3,430A  
05/06/2012 20:00 EDT4.61A  9.7A  3,430A  
05/06/2012 20:15 EDT4.60A  9.6A  3,420A  
05/06/2012 20:30 EDT4.60A  9.6A  3,420A  
05/06/2012 20:45 EDT4.62A  9.6A  3,450A  
05/06/2012 21:00 EDT4.60A  9.5A  3,420A  
05/06/2012 21:15 EDT4.60A  9.5A  3,420A  
05/06/2012 21:30 EDT4.60A  9.5A  3,420A  
05/06/2012 21:45 EDT4.60A  9.5A  3,420A  
05/06/2012 22:00 EDT4.58A  9.4A  3,380A  
05/06/2012 22:15 EDT4.59A  9.4A  3,400A  
05/06/2012 22:30 EDT4.58A  9.4A  3,380A  
05/06/2012 22:45 EDT4.59A  9.4A  3,400A  
05/06/2012 23:00 EDT4.58A  9.3A  3,380A  
05/06/2012 23:15 EDT4.58A  9.3A  3,380A  
05/06/2012 23:30 EDT4.58A  9.3A  3,380A  
05/06/2012 23:45 EDT4.58A  9.2A  3,380A  
05/07/2012 00:00 EDT4.58A  9.2A  3,380A  
05/07/2012 00:15 EDT4.56A  9.1A  3,350A  
05/07/2012 00:30 EDT4.57A  9.1A  3,360A  
05/07/2012 00:45 EDT4.55A  9.0A  3,330A  
05/07/2012 01:00 EDT4.57A  9.0A  3,360A  
05/07/2012 01:15 EDT4.55A  9.0A  3,330A  
05/07/2012 01:30 EDT4.55A  8.9A  3,330A  
05/07/2012 01:45 EDT4.55A  8.8A  3,330A  
05/07/2012 02:00 EDT4.54A  8.8A  3,310A  
05/07/2012 02:15 EDT4.55A  8.7A  3,330A  
05/07/2012 02:30 EDT4.54A  8.7A  3,310A  
05/07/2012 02:45 EDT4.55A  8.6A  3,330A  
05/07/2012 03:00 EDT4.54A  8.6A  3,310A  
05/07/2012 03:15 EDT4.54A  8.5A  3,310A  
05/07/2012 03:30 EDT4.52A  8.4A  3,270A  
05/07/2012 03:45 EDT4.54A  8.4A  3,310A  
05/07/2012 04:00 EDT4.53A  8.3A  3,290A  
05/07/2012 04:15 EDT4.53A  8.2A  3,290A  
05/07/2012 04:30 EDT4.53A  8.2A  3,290A  
05/07/2012 04:45 EDT4.53A  8.1A  3,290A  
05/07/2012 05:00 EDT4.52A  8.1A  3,270A  
05/07/2012 05:15 EDT4.51A  8.0A  3,260A  
05/07/2012 05:30 EDT4.52A  7.9A  3,270A  
05/07/2012 05:45 EDT4.51A  7.9A  3,260A  
05/07/2012 06:00 EDT4.50A  7.9A  3,240A  
05/07/2012 06:15 EDT4.50A  7.8A  3,240A  
05/07/2012 06:30 EDT4.50A  7.8A  3,240A  
05/07/2012 06:45 EDT4.50A  7.8A  3,240A  
05/07/2012 07:00 EDT4.50A  7.8A  3,240A  
05/07/2012 07:15 EDT4.49A  7.8A  3,220A  
05/07/2012 07:30 EDT4.49A  7.8A  3,220A  
05/07/2012 07:45 EDT4.48A  7.9A  3,200A  
05/07/2012 08:00 EDT4.48A  7.9A  3,200A  
05/07/2012 08:15 EDT4.49A  8.0A  3,220A  
05/07/2012 08:30 EDT4.47A  8.1A  3,190A  
05/07/2012 08:45 EDT4.48A  8.1A  3,200A  
05/07/2012 09:00 EDT4.47A  8.2A  3,190A  
05/07/2012 09:15 EDT4.46A  8.3A  3,170A  
05/07/2012 09:30 EDT4.46A  8.4A  3,170A  
05/07/2012 09:45 EDT4.46A  8.6A  3,170A  
05/07/2012 10:00 EDT4.47A  8.7A  3,190A  
05/07/2012 10:15 EDT4.47A  8.8A  3,190A  
05/07/2012 10:30 EDT4.46A  8.9A  3,170A  
05/07/2012 10:45 EDT4.45A  9.0A  3,150A  
05/07/2012 11:00 EDT4.45A  9.2A  3,150A  
05/07/2012 11:15 EDT4.45A  9.3A  3,150A  
05/07/2012 11:30 EDT4.45A  9.4A  3,150A  
05/07/2012 11:45 EDT4.45A  9.6A  3,150A  
05/07/2012 12:00 EDT4.44A  9.7A  3,140A  
05/07/2012 12:15 EDT4.45A  9.8A  3,150A  
05/07/2012 12:30 EDT4.44A  10.0A  3,140A  
05/07/2012 12:45 EDT4.44A  10.1A  3,140A  
05/07/2012 13:00 EDT4.42A  10.2A  3,100A  
05/07/2012 13:15 EDT4.44A  10.3A  3,140A  
05/07/2012 13:30 EDT4.43A  10.4A  3,120A  
05/07/2012 13:45 EDT4.42A  10.5A  3,100A  
05/07/2012 14:00 EDT4.43A  10.6A  3,120A  
05/07/2012 14:15 EDT4.41A  10.7A  3,080A  
05/07/2012 14:30 EDT4.42A  10.7A  3,100A  
05/07/2012 14:45 EDT4.42A  10.8A  3,100A  
05/07/2012 15:00 EDT4.42A  10.8A  3,100A  
05/07/2012 15:15 EDT4.41A  10.9A  3,080A  
05/07/2012 15:30 EDT4.42A  10.9A  3,100A  
05/07/2012 15:45 EDT4.39A  10.9A  3,050A  
05/07/2012 16:00 EDT4.41A  11.0A  3,080A  
05/07/2012 16:15 EDT4.41A  11.0A  3,080A  
05/07/2012 16:30 EDT4.40A  10.9A  3,070A  
05/07/2012 16:45 EDT4.39A  10.9A  3,050A  
05/07/2012 17:00 EDT4.39A  10.9A  3,050A  
05/07/2012 17:15 EDT4.39A  10.9A  3,050A  
05/07/2012 17:30 EDT4.38A  10.9A  3,030A  
05/07/2012 17:45 EDT4.38A  10.8A  3,030A  
05/07/2012 18:00 EDT4.38A  10.8A  3,030A  
05/07/2012 18:15 EDT4.38A  10.8A  3,030A  
05/07/2012 18:30 EDT4.37A  10.8A  3,020A  
05/07/2012 18:45 EDT4.38A  10.9A  3,030A  
05/07/2012 19:00 EDT4.38A  10.8A  3,030A  
05/07/2012 19:15 EDT4.38A  10.8A  3,030A  
05/07/2012 19:30 EDT4.38A  10.8A  3,030A  
05/07/2012 19:45 EDT4.37A  10.8A  3,020A  
05/07/2012 20:00 EDT4.36A  10.8A  3,000A  
05/07/2012 20:15 EDT4.37A  10.8A  3,020A  
05/07/2012 20:30 EDT4.37A  10.7A  3,020A  
05/07/2012 20:45 EDT4.37A  10.7A  3,020A  
05/07/2012 21:00 EDT4.37A  10.7A  3,020A  
05/07/2012 21:15 EDT4.36A  10.7A  3,000A  
05/07/2012 21:30 EDT4.36A  10.6A  3,000A  
05/07/2012 21:45 EDT4.36A  10.6A  3,000A  
05/07/2012 22:00 EDT4.35A  10.6A  2,980A  
05/07/2012 22:15 EDT4.35A  10.6A  2,980A  
05/07/2012 22:30 EDT4.34A  10.5A  2,960A  
05/07/2012 22:45 EDT4.35A  10.5A  2,980A  
05/07/2012 23:00 EDT4.35A  10.5A  2,980A  
05/07/2012 23:15 EDT4.34A  10.4A  2,960A  
05/07/2012 23:30 EDT4.34A  10.4A  2,960A  
05/07/2012 23:45 EDT4.33A  10.4A  2,950A  
05/08/2012 00:00 EDT4.33A  10.3A  2,950A  
05/08/2012 00:15 EDT4.32A  10.3A  2,930A  
05/08/2012 00:30 EDT4.33A  10.2A  2,950A  
05/08/2012 00:45 EDT4.33A  10.2A  2,950A  
05/08/2012 01:00 EDT4.33A  10.1A  2,950A  
05/08/2012 01:15 EDT4.32A  10.1A  2,930A  
05/08/2012 01:30 EDT4.32A  10.0A  2,930A  
05/08/2012 01:45 EDT4.31A  9.9A  2,910A  
05/08/2012 02:00 EDT4.32A  9.9A  2,930A  
05/08/2012 02:15 EDT4.30A  9.8A  2,900A  
05/08/2012 02:30 EDT4.31A  9.8A  2,910A  
05/08/2012 02:45 EDT4.31A  9.7A  2,910A  
05/08/2012 03:00 EDT4.30A  9.6A  2,900A  
05/08/2012 03:15 EDT4.29A  9.6A  2,880A  
05/08/2012 03:30 EDT4.30A  9.5A  2,900A  
05/08/2012 03:45 EDT4.30A  9.5A  2,900A  
05/08/2012 04:00 EDT4.30A  9.4A  2,900A  
05/08/2012 04:15 EDT4.28A  9.4A  2,860A  
05/08/2012 04:30 EDT4.28A  9.4A  2,860A  
05/08/2012 04:45 EDT4.28A  9.3A  2,860A  
05/08/2012 05:00 EDT4.28A  9.3A  2,860A  
05/08/2012 05:15 EDT4.28A  9.2A  2,860A  
05/08/2012 05:30 EDT4.28A  9.2A  2,860A  
05/08/2012 05:45 EDT4.27A  9.1A  2,850A  
05/08/2012 06:00 EDT4.27A  9.1A  2,850A  
05/08/2012 06:15 EDT4.28A  9.1A  2,860A  
05/08/2012 06:30 EDT4.28A  9.0A  2,860A  
05/08/2012 06:45 EDT4.27A  9.0A  2,850A  
05/08/2012 07:00 EDT4.26A  9.0A  2,830A  
05/08/2012 07:15 EDT4.26A  9.0A  2,830A  
05/08/2012 07:30 EDT4.26A  9.0A  2,830A  
05/08/2012 07:45 EDT4.26A  9.1A  2,830A  
05/08/2012 08:00 EDT4.26A  9.1A  2,830A  
05/08/2012 08:15 EDT4.26A  9.1A  2,830A  
05/08/2012 08:30 EDT4.26A  9.2A  2,830A  
05/08/2012 08:45 EDT4.25A  9.2A  2,810A  
05/08/2012 09:00 EDT4.26A  9.3A  2,830A  
05/08/2012 09:15 EDT4.25A  9.3A  2,810A  
05/08/2012 09:30 EDT4.25A  9.4A  2,810A  
05/08/2012 09:45 EDT4.24A  9.4A  2,800A  
05/08/2012 10:00 EDT4.24A  9.4A  2,800A  
05/08/2012 10:15 EDT4.24A  9.4A  2,800A  
05/08/2012 10:30 EDT4.23A  9.5A  2,780A  
05/08/2012 10:45 EDT4.24A  9.6A  2,800A  
05/08/2012 11:00 EDT4.22A  9.6A  2,770A  
05/08/2012 11:15 EDT4.24A  9.6A  2,800A  
05/08/2012 11:30 EDT4.23A  9.7A  2,780A  
05/08/2012 11:45 EDT4.23A  9.8A  2,780A  
05/08/2012 12:00 EDT4.22A  9.8A  2,770A  
05/08/2012 12:15 EDT4.22A  9.8A  2,770A  
05/08/2012 12:30 EDT4.23A  9.9A  2,780A  
05/08/2012 12:45 EDT4.22A  9.9A  2,770A  
05/08/2012 13:00 EDT4.21A  9.9A  2,750A  
05/08/2012 13:15 EDT4.20A  9.8A  2,730A  
05/08/2012 13:30 EDT4.20A  9.8A  2,730A  
05/08/2012 13:45 EDT4.21A  9.9A  2,750A  
05/08/2012 14:00 EDT4.21A  9.9A  2,750A  
05/08/2012 14:15 EDT4.22A  9.8A  2,770A  
05/08/2012 14:30 EDT4.20A  9.8A  2,730A  
05/08/2012 14:45 EDT4.19A  9.8A  2,720A  
05/08/2012 15:00 EDT4.20A  9.8A  2,730A  
05/08/2012 15:15 EDT4.19A  9.8A  2,720A  
05/08/2012 15:30 EDT4.21A  9.8A  2,750A  
05/08/2012 15:45 EDT4.19A  9.8A  2,720A  
05/08/2012 16:00 EDT4.19A  9.7A  2,720A  
05/08/2012 16:15 EDT4.20A  9.7A  2,730A  
05/08/2012 16:30 EDT4.20A  9.7A  2,730A  
05/08/2012 16:45 EDT4.19A  9.6A  2,720A  
05/08/2012 17:00 EDT4.19A  9.6A  2,720A  
05/08/2012 17:15 EDT4.19A  9.6A  2,720A  
05/08/2012 17:30 EDT4.21A  9.5A  2,750A  
05/08/2012 17:45 EDT4.20A  9.5A  2,730A  
05/08/2012 18:00 EDT4.20A  9.5A  2,730A  
05/08/2012 18:15 EDT4.20A  9.4A  2,730A  
05/08/2012 18:30 EDT4.20A  9.4A  2,730A  
05/08/2012 18:45 EDT4.20A  9.4A  2,730A  
05/08/2012 19:00 EDT4.20A  9.4A  2,730A  
05/08/2012 19:15 EDT4.21A  9.3A  2,750A  
05/08/2012 19:30 EDT4.20A  9.3A  2,730A  
05/08/2012 19:45 EDT4.20A  9.3A  2,730A  
05/08/2012 20:00 EDT4.19A  9.3A  2,720A  
05/08/2012 20:15 EDT4.20A  9.2A  2,730A  
05/08/2012 20:30 EDT4.21A  9.2A  2,750A  
05/08/2012 20:45 EDT4.21A  9.2A  2,750A  
05/08/2012 21:00 EDT4.21A  9.2A  2,750A  
05/08/2012 21:15 EDT4.21A  9.2A  2,750A  
05/08/2012 21:30 EDT4.20A  9.2A  2,730A  
05/08/2012 21:45 EDT4.20A  9.2A  2,730A  
05/08/2012 22:00 EDT4.20A  9.1A  2,730A  
05/08/2012 22:15 EDT4.19A  9.1A  2,720A  
05/08/2012 22:30 EDT4.19A  9.1A  2,720A  
05/08/2012 22:45 EDT4.20A  9.1A  2,730A  
05/08/2012 23:00 EDT4.19A  9.1A  2,720A  
05/08/2012 23:15 EDT4.19A  9.1A  2,720A  
05/08/2012 23:30 EDT4.19A  9.1A  2,720A  
05/08/2012 23:45 EDT4.18A  9.1A  2,700A  
05/09/2012 00:00 EDT4.18A  9.1A  2,700A  
05/09/2012 00:15 EDT4.20A  9.0A  2,730A  
05/09/2012 00:30 EDT4.20A  9.0A  2,730A  
05/09/2012 00:45 EDT4.19A  9.0A  2,720A  
05/09/2012 01:00 EDT4.20A  9.0A  2,730A  
05/09/2012 01:15 EDT4.20A  9.0A  2,730A  
05/09/2012 01:30 EDT4.20A  9.0A  2,730A  
05/09/2012 01:45 EDT4.20A  8.9A  2,730A  
05/09/2012 02:00 EDT4.20A  8.9A  2,730A  
05/09/2012 02:15 EDT4.19A  8.9A  2,720A  
05/09/2012 02:30 EDT4.20A  8.9A  2,730A  
05/09/2012 02:45 EDT4.20A  8.8A  2,730A  
05/09/2012 03:00 EDT4.19A  8.8A  2,720A  
05/09/2012 03:15 EDT4.19A  8.8A  2,720A  
05/09/2012 03:30 EDT4.20A  8.8A  2,730A  
05/09/2012 03:45 EDT4.19A  8.8A  2,720A  
05/09/2012 04:00 EDT4.20A  8.7A  2,730A  
05/09/2012 04:15 EDT4.20A  8.7A  2,730A  
05/09/2012 04:30 EDT4.20A  8.7A  2,730A  
05/09/2012 04:45 EDT4.21A  8.7A  2,750A  
05/09/2012 05:00 EDT4.20A  8.6A  2,730A  
05/09/2012 05:15 EDT4.20A  8.6A  2,730A  
05/09/2012 05:30 EDT4.19A  8.6A  2,720A  
05/09/2012 05:45 EDT4.21A  8.6A  2,750A  
05/09/2012 06:00 EDT4.21A  8.6A  2,750A  
05/09/2012 06:15 EDT4.21A  8.6A  2,750A  
05/09/2012 06:30 EDT4.21A  8.6A  2,750A  
05/09/2012 06:45 EDT4.21A  8.5A  2,750A  
05/09/2012 07:00 EDT4.21A  8.6A  2,750A  
05/09/2012 07:15 EDT4.21A  8.6A  2,750A  
05/09/2012 07:30 EDT4.22A  8.6A  2,770A  
05/09/2012 07:45 EDT4.20A  8.6A  2,730A  
05/09/2012 08:00 EDT4.20A  8.6A  2,730A  
05/09/2012 08:15 EDT4.20A  8.6A  2,730A  
05/09/2012 08:30 EDT4.21A  8.6A  2,750A  
05/09/2012 08:45 EDT4.22A  8.6A  2,770A  
05/09/2012 09:00 EDT4.22A  8.6A  2,770A  
05/09/2012 09:15 EDT4.22A  8.6A  2,770A  
05/09/2012 09:30 EDT4.22A  8.6A  2,770A  
05/09/2012 09:45 EDT4.23A  8.7A  2,780A  
05/09/2012 10:00 EDT4.22A  8.7A  2,770A  
05/09/2012 10:15 EDT4.22A  8.7A  2,770A  
05/09/2012 10:30 EDT4.22A  8.7A  2,770A  
05/09/2012 10:45 EDT4.22A  8.8A  2,770A  
05/09/2012 11:00 EDT4.21A  8.8A  2,750A  
05/09/2012 11:15 EDT4.22A  8.9A  2,770A  
05/09/2012 11:30 EDT4.22A  8.9A  2,770A  
05/09/2012 11:45 EDT4.23A  8.9A  2,780A  
05/09/2012 12:00 EDT4.22A  9.0A  2,770A  
05/09/2012 12:15 EDT4.22A  9.0A  2,770A  
05/09/2012 12:30 EDT4.22A  9.1A  2,770A  
05/09/2012 12:45 EDT4.23A  9.1A  2,780A  
05/09/2012 13:00 EDT4.22A  9.1A  2,770A  
05/09/2012 13:15 EDT4.23A  9.2A  2,780A  
05/09/2012 13:30 EDT4.23A  9.2A  2,780A  
05/09/2012 13:45 EDT4.23A  9.2A  2,780A  
05/09/2012 14:00 EDT4.23A  9.2A  2,780A  
05/09/2012 14:15 EDT4.22A  9.3A  2,770A  
05/09/2012 14:30 EDT4.23A  9.3A  2,780A  
05/09/2012 14:45 EDT4.22A  9.3A  2,770A  
05/09/2012 15:00 EDT4.22A  9.3A  2,770A  
05/09/2012 15:15 EDT4.23A  9.4A  2,780A  
05/09/2012 15:30 EDT4.23A  9.4A  2,780A  
05/09/2012 15:45 EDT4.23A  9.4A  2,780A  
05/09/2012 16:00 EDT4.23A  9.5A  2,780A  
05/09/2012 16:15 EDT4.23A  9.5A  2,780A  
05/09/2012 16:30 EDT4.23A  9.5A  2,780A  
05/09/2012 16:45 EDT4.22A  9.5A  2,770A  
05/09/2012 17:00 EDT4.23A  9.6A  2,780A  
05/09/2012 17:15 EDT4.22A  9.6A  2,770A  
05/09/2012 17:30 EDT4.21A  9.6A  2,750A  
05/09/2012 17:45 EDT4.23A  9.6A  2,780A  
05/09/2012 18:00 EDT4.23A  9.6A  2,780A  
05/09/2012 18:15 EDT4.22A  9.6A  2,770A  
05/09/2012 18:30 EDT4.23A  9.6A  2,780A  
05/09/2012 18:45 EDT4.23A  9.6A  2,780A  
05/09/2012 19:00 EDT4.23A  9.7A  2,780A  
05/09/2012 19:15 EDT4.22A  9.7A  2,770A  
05/09/2012 19:30 EDT4.22A  9.7A  2,770A  
05/09/2012 19:45 EDT4.22A  9.7A  2,770A  
05/09/2012 20:00 EDT4.22A  9.7A  2,770A  
05/09/2012 20:15 EDT4.22A  9.7A  2,770A  
05/09/2012 20:30 EDT4.21A  9.7A  2,750A  
05/09/2012 20:45 EDT4.21A  9.7A  2,750A  
05/09/2012 21:00 EDT4.22A  9.7A  2,770A  
05/09/2012 21:15 EDT4.22A  9.7A  2,770A  
05/09/2012 21:30 EDT4.22A  9.7A  2,770A  
05/09/2012 21:45 EDT4.22A  9.7A  2,770A  
05/09/2012 22:00 EDT4.22A  9.7A  2,770A  
05/09/2012 22:15 EDT4.23A  9.7A  2,780A  
05/09/2012 22:30 EDT4.22A  9.7A  2,770A  
05/09/2012 22:45 EDT4.22A  9.8A  2,770A  
05/09/2012 23:00 EDT4.22A  9.8A  2,770A  
05/09/2012 23:15 EDT4.23A  9.8A  2,780A  
05/09/2012 23:30 EDT4.23A  9.8A  2,780A  
05/09/2012 23:45 EDT4.23A  9.8A  2,780A  
05/10/2012 00:00 EDT4.23A  9.8A  2,780A  
05/10/2012 00:15 EDT4.22A  9.8A  2,770A  
05/10/2012 00:30 EDT4.22A  9.8A  2,770A  
05/10/2012 00:45 EDT4.22A  9.8A  2,770A  
05/10/2012 01:00 EDT4.23A  9.8A  2,780A  
05/10/2012 01:15 EDT4.24A  9.8A  2,800A  
05/10/2012 01:30 EDT4.22A  9.8A  2,770A  
05/10/2012 01:45 EDT4.23A  9.9A  2,780A  
05/10/2012 02:00 EDT4.24A  9.9A  2,800A  
05/10/2012 02:15 EDT4.22A  9.9A  2,770A  
05/10/2012 02:30 EDT4.23A  9.9A  2,780A  
05/10/2012 02:45 EDT4.22A  9.9A  2,770A  
05/10/2012 03:00 EDT4.22A  9.9A  2,770A  
05/10/2012 03:15 EDT4.22A  9.9A  2,770A  
05/10/2012 03:30 EDT4.22A  9.9A  2,770A  
05/10/2012 03:45 EDT4.22A  9.9A  2,770A  
05/10/2012 04:00 EDT4.23A  9.8A  2,780A  
05/10/2012 04:15 EDT4.22A  9.8A  2,770A  
05/10/2012 04:30 EDT4.23A  9.8A  2,780A  
05/10/2012 04:45 EDT4.22A  9.8A  2,770A  
05/10/2012 05:00 EDT4.22A  9.8A  2,770A  
05/10/2012 05:15 EDT4.23A  9.8A  2,780A  
05/10/2012 05:30 EDT4.22A  9.7A  2,770A  
05/10/2012 05:45 EDT4.23A  9.7A  2,780A  
05/10/2012 06:00 EDT4.23A  9.7A  2,780A  
05/10/2012 06:15 EDT4.23A  9.7A  2,780A  
05/10/2012 06:30 EDT4.23A  9.7A  2,780A  
05/10/2012 06:45 EDT4.23A  9.7A  2,780A  
05/10/2012 07:00 EDT4.22A  9.7A  2,770A  
05/10/2012 07:15 EDT4.22A  9.6A  2,770A  
05/10/2012 07:30 EDT4.23A  9.6A  2,780A  
05/10/2012 07:45 EDT4.22A  9.6A  2,770A  
05/10/2012 08:00 EDT4.23A  9.6A  2,780A  
05/10/2012 08:15 EDT4.23A  9.6A  2,780A  
05/10/2012 08:30 EDT4.23A  9.6A  2,780A  
05/10/2012 08:45 EDT4.24A  9.6A  2,800A  
05/10/2012 09:00 EDT4.24A  9.6A  2,800A  
05/10/2012 09:15 EDT4.23A  9.6A  2,780A  
05/10/2012 09:30 EDT4.23A  9.6A  2,780A  
05/10/2012 09:45 EDT4.24A  9.7A  2,800A  
05/10/2012 10:00 EDT4.26A  9.7A  2,830A  
05/10/2012 10:15 EDT4.25A  9.7A  2,810A  
05/10/2012 10:30 EDT4.26A  9.7A  2,830A  
05/10/2012 10:45 EDT4.27A  9.7A  2,850A  
05/10/2012 11:00 EDT4.26A  9.7A  2,830A  
05/10/2012 11:15 EDT4.26A  9.7A  2,830A  
05/10/2012 11:30 EDT4.27A  9.7A  2,850A  
05/10/2012 11:45 EDT4.27A  9.8A  2,850A  
05/10/2012 12:00 EDT4.27A  9.8A  2,850A  
05/10/2012 12:15 EDT4.28A  9.8A  2,860A  
05/10/2012 12:30 EDT4.29A  9.8A  2,880A  
05/10/2012 12:45 EDT4.29A  9.9A  2,880A  
05/10/2012 13:00 EDT4.30A  9.9A  2,900A  
05/10/2012 13:15 EDT4.30A  9.9A  2,900A  
05/10/2012 13:30 EDT4.31A  9.9A  2,910A  
05/10/2012 13:45 EDT4.31A  9.9A  2,910A  
05/10/2012 14:00 EDT4.33A  9.9A  2,950A  
05/10/2012 14:15 EDT4.33A  9.9A  2,950A  
05/10/2012 14:30 EDT4.33A  10.0A  2,950A  
05/10/2012 14:45 EDT4.34A  10.0A  2,960A  
05/10/2012 15:00 EDT4.35A  10.0A  2,980A  
05/10/2012 15:15 EDT4.36A  10.0A  3,000A  
05/10/2012 15:30 EDT4.37A  10.0A  3,020A  
05/10/2012 15:45 EDT4.38A  10.0A  3,030A  
05/10/2012 16:00 EDT4.39A  10.0A  3,050A  
05/10/2012 16:15 EDT4.40A  10.0A  3,070A  
05/10/2012 16:30 EDT4.40A  10.0A  3,070A  
05/10/2012 16:45 EDT4.42A  10.0A  3,100A  
05/10/2012 17:00 EDT4.42A  10.0A  3,100A  
05/10/2012 17:15 EDT4.43A  10.0A  3,120A  
05/10/2012 17:30 EDT4.44A  10.0A  3,140A  
05/10/2012 17:45 EDT4.46A  9.9A  3,170A  
05/10/2012 18:00 EDT4.47A  9.9A  3,190A  
05/10/2012 18:15 EDT4.48A  9.9A  3,200A  
05/10/2012 18:30 EDT4.48A  9.8A  3,200A  
05/10/2012 18:45 EDT4.50A  9.8A  3,240A  
05/10/2012 19:00 EDT4.51A  9.8A  3,260A  
05/10/2012 19:15 EDT4.51A  9.7A  3,260A  
05/10/2012 19:30 EDT4.53A  9.7A  3,290A  
05/10/2012 19:45 EDT4.54A  9.6A  3,310A  
05/10/2012 20:00 EDT4.56A  9.6A  3,350A  
05/10/2012 20:15 EDT4.57A  9.5A  3,360A  
05/10/2012 20:30 EDT4.58A  9.5A  3,380A  
05/10/2012 20:45 EDT4.60A  9.5A  3,420A  
05/10/2012 21:00 EDT4.61A  9.4A  3,430A  
05/10/2012 21:15 EDT4.62A  9.4A  3,450A  
05/10/2012 21:30 EDT4.64A  9.4A  3,490A  
05/10/2012 21:45 EDT4.64A  9.4A  3,490A  
05/10/2012 22:00 EDT4.66A  9.3A  3,520A  
05/10/2012 22:15 EDT4.67A  9.3A  3,540A  
05/10/2012 22:30 EDT4.69A  9.3A  3,580A  
05/10/2012 22:45 EDT4.70A  9.2A  3,600A  
05/10/2012 23:00 EDT4.70A  9.2A  3,600A  
05/10/2012 23:15 EDT4.71A  9.2A  3,620A  
05/10/2012 23:30 EDT4.73A  9.2A  3,650A  
05/10/2012 23:45 EDT4.76A  9.1A  3,710A  
05/11/2012 00:00 EDT4.75A  9.1A  3,690A  
05/11/2012 00:15 EDT4.77A  9.1A  3,730A  
05/11/2012 00:30 EDT4.78A  9.0A  3,750A  
05/11/2012 00:45 EDT4.80A  9.0A  3,780A  
05/11/2012 01:00 EDT4.80A  9.0A  3,780A  
05/11/2012 01:15 EDT4.82A  9.0A  3,820A  
05/11/2012 01:30 EDT4.83A  8.9A  3,840A  
05/11/2012 01:45 EDT4.84A  8.9A  3,860A  
05/11/2012 02:00 EDT4.85A  8.9A  3,880A  
05/11/2012 02:15 EDT4.86A  8.8A  3,900A  
05/11/2012 02:30 EDT4.87A  8.8A  3,910A  
05/11/2012 02:45 EDT4.88A  8.8A  3,930A  
05/11/2012 03:00 EDT4.89A  8.7A  3,950A  
05/11/2012 03:15 EDT4.89A  8.7A  3,950A  
05/11/2012 03:30 EDT4.90A  8.7A  3,970A  
05/11/2012 03:45 EDT4.90A  8.6A  3,970A  
05/11/2012 04:00 EDT4.92A  8.6A  4,010A  
05/11/2012 04:15 EDT4.92A  8.6A  4,010A  
05/11/2012 04:30 EDT4.93A  8.6A  4,030A  
05/11/2012 04:45 EDT4.95A  8.5A  4,070A  
05/11/2012 05:00 EDT4.94A  8.5A  4,050A  
05/11/2012 05:15 EDT4.94A  8.5A  4,050A  
05/11/2012 05:30 EDT4.97A  8.5A  4,110A  
05/11/2012 05:45 EDT4.96A  8.4A  4,090A  
05/11/2012 06:00 EDT4.97A  8.4A  4,110A  
05/11/2012 06:15 EDT4.97A  8.4A  4,110A  
05/11/2012 06:30 EDT4.96A  8.4A  4,090A  
05/11/2012 06:45 EDT4.98A  8.4A  4,130A  
05/11/2012 07:00 EDT4.98A  8.3A  4,130A  
05/11/2012 07:15 EDT4.99A  8.3A  4,150A  
05/11/2012 07:30 EDT5.00A  8.3A  4,170A  
05/11/2012 07:45 EDT5.00A  8.3A  4,170A  
05/11/2012 08:00 EDT5.00A  8.3A  4,170A  
05/11/2012 08:15 EDT5.01A  8.3A  4,190A  
05/11/2012 08:30 EDT5.02A  8.3A  4,200A  
05/11/2012 08:45 EDT5.01A  8.4A  4,190A  
05/11/2012 09:00 EDT5.02A  8.3A  4,200A  
05/11/2012 09:15 EDT5.03A  8.4A  4,220A  
05/11/2012 09:30 EDT5.02A  8.4A  4,200A  
05/11/2012 09:45 EDT5.02A  8.4A  4,200A  
05/11/2012 10:00 EDT5.02A  8.4A  4,200A  
05/11/2012 10:15 EDT5.02A  8.4A  4,200A  
05/11/2012 10:30 EDT5.03A  8.5A  4,220A  
05/11/2012 10:45 EDT5.03A  8.5A  4,220A  
05/11/2012 11:00 EDT5.04A  8.7A  4,240A  
05/11/2012 11:15 EDT5.03A  8.7A  4,220A  
05/11/2012 11:30 EDT5.04A  8.7A  4,240A  
05/11/2012 11:45 EDT5.03A  8.7A  4,220A  
05/11/2012 12:00 EDT5.03A  8.8A  4,220A  
05/11/2012 12:15 EDT5.04A  8.8A  4,240A  
05/11/2012 12:30 EDT5.05A  8.9A  4,260A  
05/11/2012 12:45 EDT5.05A  8.9A  4,260A  
05/11/2012 13:00 EDT5.04A  9.0A  4,240A  
05/11/2012 13:15 EDT5.05A  9.1A  4,260A  
05/11/2012 13:30 EDT5.06A  9.1A  4,280A  
05/11/2012 13:45 EDT5.04A  9.1A  4,240A  
05/11/2012 14:00 EDT5.05A  9.2A  4,260A  
05/11/2012 14:15 EDT5.05A  9.2A  4,260A  
05/11/2012 14:30 EDT5.05A  9.3A  4,260A  
05/11/2012 14:45 EDT5.05A  9.2A  4,260A  
05/11/2012 15:00 EDT5.06A  9.2A  4,280A  
05/11/2012 15:15 EDT5.06A  9.2A  4,280A  
05/11/2012 15:30 EDT5.06A  9.3A  4,280A  
05/11/2012 15:45 EDT5.06A  9.3A  4,280A  
05/11/2012 16:00 EDT5.05A  9.3A  4,260A  
05/11/2012 16:15 EDT5.04A  9.4A  4,240A  
05/11/2012 16:30 EDT5.06A  9.4A  4,280A  
05/11/2012 16:45 EDT5.04A  9.4A  4,240A  
05/11/2012 17:00 EDT5.04A  9.4A  4,240A  
05/11/2012 17:15 EDT5.05A  9.4A  4,260A  
05/11/2012 17:30 EDT5.05A  9.4A  4,260A  
05/11/2012 17:45 EDT5.04A  9.4A  4,240A  
05/11/2012 18:00 EDT5.03A  9.4A  4,220A  
05/11/2012 18:15 EDT5.04A  9.4A  4,240A  
05/11/2012 18:30 EDT5.04A  9.3A  4,240A  
05/11/2012 18:45 EDT5.05A  9.3A  4,260A  
05/11/2012 19:00 EDT5.04A  9.3A  4,240A  
05/11/2012 19:15 EDT5.04A  9.3A  4,240A  
05/11/2012 19:30 EDT5.05A  9.2A  4,260A  
05/11/2012 19:45 EDT5.04A  9.2A  4,240A  
05/11/2012 20:00 EDT5.03A  9.2A  4,220A  
05/11/2012 20:15 EDT5.04A  9.2A  4,240A  
05/11/2012 20:30 EDT5.04A  9.2A  4,240A  
05/11/2012 20:45 EDT5.03A  9.2A  4,220A  
05/11/2012 21:00 EDT5.03A  9.1A  4,220A  
05/11/2012 21:15 EDT5.03A  9.1A  4,220A  
05/11/2012 21:30 EDT5.03A  9.1A  4,220A  
05/11/2012 21:45 EDT5.02A  9.1A  4,200A  
05/11/2012 22:00 EDT5.03A  9.1A  4,220A  
05/11/2012 22:15 EDT5.02A  9.1A  4,200A  
05/11/2012 22:30 EDT5.03A  9.1A  4,220A  
05/11/2012 22:45 EDT5.01A  9.1A  4,190A  
05/11/2012 23:00 EDT5.02A  9.1A  4,200A  
05/11/2012 23:15 EDT5.01A  9.0A  4,190A  
05/11/2012 23:30 EDT5.01A  9.0A  4,190A  
05/11/2012 23:45 EDT5.02A  9.0A  4,200A  
05/12/2012 00:00 EDT5.02A  9.0A  4,200A  
05/12/2012 00:15 EDT5.02A  9.0A  4,200A  
05/12/2012 00:30 EDT5.01A  8.9A  4,190A  
05/12/2012 00:45 EDT5.00A  8.9A  4,170A  
05/12/2012 01:00 EDT5.01A  8.9A  4,190A  
05/12/2012 01:15 EDT5.00A  8.8A  4,170A  
05/12/2012 01:30 EDT5.00A  8.8A  4,170A  
05/12/2012 01:45 EDT5.01A  8.8A  4,190A  
05/12/2012 02:00 EDT5.00A  8.8A  4,170A  
05/12/2012 02:15 EDT4.99A  8.7A  4,150A  
05/12/2012 02:30 EDT4.99A  8.7A  4,150A  
05/12/2012 02:45 EDT5.00A  8.7A  4,170A  
05/12/2012 03:00 EDT4.99A  8.6A  4,150A  
05/12/2012 03:15 EDT4.99A  8.6A  4,150A  
05/12/2012 03:30 EDT4.99A  8.6A  4,150A  
05/12/2012 03:45 EDT4.98A  8.5A  4,130A  
05/12/2012 04:00 EDT4.99A  8.5A  4,150A  
05/12/2012 04:15 EDT4.98A  8.5A  4,130A  
05/12/2012 04:30 EDT4.98A  8.4A  4,130A  
05/12/2012 04:45 EDT4.98A  8.4A  4,130A  
05/12/2012 05:00 EDT4.97A  8.4A  4,110A  
05/12/2012 05:15 EDT4.97A  8.4A  4,110A  
05/12/2012 05:30 EDT4.98A  8.3A  4,130A  
05/12/2012 05:45 EDT4.97A  8.3A  4,110A  
05/12/2012 06:00 EDT4.96A  8.3A  4,090A  
05/12/2012 06:15 EDT4.96A  8.3A  4,090A  
05/12/2012 06:30 EDT4.96A  8.3A  4,090A  
05/12/2012 06:45 EDT4.95A  8.3A  4,070A  
05/12/2012 07:00 EDT4.96A  8.3A  4,090A  
05/12/2012 07:15 EDT4.95A  8.3A  4,070A  
05/12/2012 07:30 EDT4.95A  8.3A  4,070A  
05/12/2012 07:45 EDT4.95A  8.3A  4,070A  
05/12/2012 08:00 EDT4.94A  8.3A  4,050A  
05/12/2012 08:15 EDT4.94A  8.3A  4,050A  
05/12/2012 08:30 EDT4.95A  8.4A  4,070A  
05/12/2012 08:45 EDT4.94A  8.4A  4,050A  
05/12/2012 09:00 EDT4.94A  8.4A  4,050A  
05/12/2012 09:15 EDT4.93A  8.4A  4,030A  
05/12/2012 09:30 EDT4.95A  8.4A  4,070A  
05/12/2012 09:45 EDT4.95A  8.5A  4,070A  
05/12/2012 10:00 EDT4.95A  8.5A  4,070A  
05/12/2012 10:15 EDT4.93A  8.5A  4,030A  
05/12/2012 10:30 EDT4.93A  8.6A  4,030A  
05/12/2012 10:45 EDT4.93A  8.7A  4,030A  
05/12/2012 11:00 EDT4.93A  8.7A  4,030A  
05/12/2012 11:15 EDT4.93A  8.9A  4,030A  
05/12/2012 11:30 EDT4.92A  8.9A  4,010A  
05/12/2012 11:45 EDT4.92A  9.1A  4,010A  
05/12/2012 12:00 EDT4.93A  9.2A  4,030A  
05/12/2012 12:15 EDT4.90A  9.2A  3,970A  
05/12/2012 12:30 EDT4.92A  9.3A  4,010A  
05/12/2012 12:45 EDT4.92A  9.4A  4,010A  
05/12/2012 13:00 EDT4.90A  9.4A  3,970A  
05/12/2012 13:15 EDT4.91A  9.4A  3,990A  
05/12/2012 13:30 EDT4.92A  9.6A  4,010A  
05/12/2012 13:45 EDT4.90A  9.7A  3,970A  
05/12/2012 14:00 EDT4.90A  9.8A  3,970A  
05/12/2012 14:15 EDT4.89A  9.8A  3,950A  
05/12/2012 14:30 EDT4.90A  9.9A  3,970A  
05/12/2012 14:45 EDT4.90A  10.0A  3,970A  
05/12/2012 15:00 EDT4.89A  10.1A  3,950A  
05/12/2012 15:15 EDT4.90A  10.1A  3,970A  
05/12/2012 15:30 EDT4.88A  10.2A  3,930A  
05/12/2012 15:45 EDT4.88A  10.2A  3,930A  
05/12/2012 16:00 EDT4.89A  10.3A  3,950A  
05/12/2012 16:15 EDT4.88A  10.4A  3,930A  
05/12/2012 16:30 EDT4.89A  10.5A  3,950A  
05/12/2012 16:45 EDT4.88A  10.4A  3,930A  
05/12/2012 17:00 EDT4.88A  10.4A  3,930A  
05/12/2012 17:15 EDT4.87A  10.3A  3,910A  
05/12/2012 17:30 EDT4.88A  10.3A  3,930A  
05/12/2012 17:45 EDT4.88A  10.3A  3,930A  
05/12/2012 18:00 EDT4.87A  10.3A  3,910A  
05/12/2012 18:15 EDT4.87A  10.3A  3,910A  
05/12/2012 18:30 EDT4.87A  10.3A  3,910A  
05/12/2012 18:45 EDT4.87A  10.3A  3,910A  
05/12/2012 19:00 EDT4.87A  10.3A  3,910A  
05/12/2012 19:15 EDT4.87A  10.3A  3,910A  
05/12/2012 19:30 EDT4.86A  10.3A  3,900A  
05/12/2012 19:45 EDT4.86A  10.3A  3,900A  
05/12/2012 20:00 EDT4.87A  10.3A  3,910A  
05/12/2012 20:15 EDT4.85A  10.3A  3,880A  
05/12/2012 20:30 EDT4.86A  10.3A  3,900A  
05/12/2012 20:45 EDT4.85A  10.3A  3,880A  
05/12/2012 21:00 EDT4.85A  10.3A  3,880A  
05/12/2012 21:15 EDT4.84A  10.3A  3,860A  
05/12/2012 21:30 EDT4.84A  10.3A  3,860A  
05/12/2012 21:45 EDT4.83A  10.3A  3,840A  
05/12/2012 22:00 EDT4.84A  10.2A  3,860A  
05/12/2012 22:15 EDT4.83A  10.2A  3,840A  
05/12/2012 22:30 EDT4.82A  10.2A  3,820A  
05/12/2012 22:45 EDT4.83A  10.2A  3,840A  
05/12/2012 23:00 EDT4.82A  10.2A  3,820A  
05/12/2012 23:15 EDT4.83A  10.2A  3,840A  
05/12/2012 23:30 EDT4.83A  10.2A  3,840A  
05/12/2012 23:45 EDT4.82A  10.1A  3,820A  
05/13/2012 00:00 EDT4.82A  10.1A  3,820A  
05/13/2012 00:15 EDT4.82A  10.1A  3,820A  
05/13/2012 00:30 EDT4.81A  10.0A  3,800A  
05/13/2012 00:45 EDT4.81A  10.0A  3,800A  
05/13/2012 01:00 EDT4.82A  10.0A  3,820A  
05/13/2012 01:15 EDT4.80A  9.9A  3,780A  
05/13/2012 01:30 EDT4.81A  9.9A  3,800A  
05/13/2012 01:45 EDT4.81A  9.9A  3,800A  
05/13/2012 02:00 EDT4.80A  9.8A  3,780A  
05/13/2012 02:15 EDT4.79A  9.8A  3,760A  
05/13/2012 02:30 EDT4.80A  9.8A  3,780A  
05/13/2012 02:45 EDT4.79A  9.7A  3,760A  
05/13/2012 03:00 EDT4.80A  9.7A  3,780A  
05/13/2012 03:15 EDT4.79A  9.7A  3,760A  
05/13/2012 03:30 EDT4.80A  9.6A  3,780A  
05/13/2012 03:45 EDT4.78A  9.6A  3,750A  
05/13/2012 04:00 EDT4.78A  9.6A  3,750A  
05/13/2012 04:15 EDT4.78A  9.5A  3,750A  
05/13/2012 04:30 EDT4.78A  9.5A  3,750A  
05/13/2012 04:45 EDT4.78A  9.5A  3,750A  
05/13/2012 05:00 EDT4.77A  9.4A  3,730A  
05/13/2012 05:15 EDT4.77A  9.4A  3,730A  
05/13/2012 05:30 EDT4.77A  9.4A  3,730A  
05/13/2012 05:45 EDT4.77A  9.3A  3,730A  
05/13/2012 06:00 EDT4.76A  9.3A  3,710A  
05/13/2012 06:15 EDT4.76A  9.3A  3,710A  
05/13/2012 06:30 EDT4.77A  9.3A  3,730A  
05/13/2012 06:45 EDT4.75A  9.2A  3,690A  
05/13/2012 07:00 EDT4.77A  9.2A  3,730A  
05/13/2012 07:15 EDT4.76A  9.2A  3,710A  
05/13/2012 07:30 EDT4.75A  9.2A  3,690A  
05/13/2012 07:45 EDT4.75A  9.1A  3,690A  
05/13/2012 08:00 EDT4.75A  9.1A  3,690A  
05/13/2012 08:15 EDT4.74A  9.1A  3,670A  
05/13/2012 08:30 EDT4.75A  9.1A  3,690A  
05/13/2012 08:45 EDT4.75A  9.1A  3,690A  
05/13/2012 09:00 EDT4.75A  9.1A  3,690A  
05/13/2012 09:15 EDT4.75A  9.1A  3,690A  
05/13/2012 09:30 EDT4.75A  9.1A  3,690A  
05/13/2012 09:45 EDT4.74A  9.1A  3,670A  
05/13/2012 10:00 EDT4.73A  9.1A  3,650A  
05/13/2012 10:15 EDT4.74A  9.1A  3,670A  
05/13/2012 10:30 EDT4.74A  9.1A  3,670A  
05/13/2012 10:45 EDT4.74A  9.1A  3,670A  
05/13/2012 11:00 EDT4.73A  9.0A  3,650A  
05/13/2012 11:15 EDT4.73A  9.0A  3,650A  
05/13/2012 11:30 EDT4.72A  9.0A  3,630A  
05/13/2012 11:45 EDT4.73A  9.0A  3,650A  
05/13/2012 12:00 EDT4.71A  9.0A  3,620A  
05/13/2012 12:15 EDT4.72A  9.0A  3,630A  
05/13/2012 12:30 EDT4.71A  9.0A  3,620A  
05/13/2012 12:45 EDT4.72A  9.0A  3,630A  
05/13/2012 13:00 EDT4.70A  9.0A  3,600A  
05/13/2012 13:15 EDT4.71A  9.0A  3,620A  
05/13/2012 13:30 EDT4.71A  9.0A  3,620A  
05/13/2012 13:45 EDT4.70A  9.1A  3,600A  
05/13/2012 14:00 EDT4.71A  9.1A  3,620A  
05/13/2012 14:15 EDT4.71A  9.1A  3,620A  
05/13/2012 14:30 EDT4.69A  9.1A  3,580A  
05/13/2012 14:45 EDT4.69A  9.2A  3,580A  
05/13/2012 15:00 EDT4.69A  9.2A  3,580A  
05/13/2012 15:15 EDT4.70A  9.2A  3,600A  
05/13/2012 15:30 EDT4.68A  9.3A  3,560A  
05/13/2012 15:45 EDT4.68A  9.3A  3,560A  
05/13/2012 16:00 EDT4.68A  9.4A  3,560A  
05/13/2012 16:15 EDT4.68A  9.4A  3,560A  
05/13/2012 16:30 EDT4.68A  9.4A  3,560A  
05/13/2012 16:45 EDT4.68A  9.4A  3,560A  
05/13/2012 17:00 EDT4.68A  9.5A  3,560A  
05/13/2012 17:15 EDT4.67A  9.5A  3,540A  
05/13/2012 17:30 EDT4.68A  9.5A  3,560A  
05/13/2012 17:45 EDT4.68A  9.5A  3,560A  
05/13/2012 18:00 EDT4.67A  9.5A  3,540A  
05/13/2012 18:15 EDT4.66A  9.5A  3,520A  
05/13/2012 18:30 EDT4.67A  9.5A  3,540A  
05/13/2012 18:45 EDT4.67A  9.5A  3,540A  
05/13/2012 19:00 EDT4.65A  9.5A  3,510A  
05/13/2012 19:15 EDT4.67A  9.4A  3,540A  
05/13/2012 19:30 EDT4.67A  9.4A  3,540A  
05/13/2012 19:45 EDT4.65A  9.4A  3,510A  
05/13/2012 20:00 EDT4.66A  9.3A  3,520A  
05/13/2012 20:15 EDT4.66A  9.3A  3,520A  
05/13/2012 20:30 EDT4.65A  9.3A  3,510A  
05/13/2012 20:45 EDT4.65A  9.3A  3,510A  
05/13/2012 21:00 EDT4.65A  9.2A  3,510A  
05/13/2012 21:15 EDT4.65A  9.2A  3,510A  
05/13/2012 21:30 EDT4.65A  9.2A  3,510A  
05/13/2012 21:45 EDT4.64A  9.2A  3,490A  
05/13/2012 22:00 EDT4.64A  9.2A  3,490A  
05/13/2012 22:15 EDT4.64A  9.2A  3,490A  
05/13/2012 22:30 EDT4.65A  9.2A  3,510A  
05/13/2012 22:45 EDT4.64A  9.2A  3,490A  
05/13/2012 23:00 EDT4.63A  9.2A  3,470A  
05/13/2012 23:15 EDT4.64A  9.2A  3,490A  
05/13/2012 23:30 EDT4.64A  9.2A  3,490A  
05/13/2012 23:45 EDT4.62A  9.2A  3,450A  
05/14/2012 00:00 EDT4.62A  9.2A  3,450A  
05/14/2012 00:15 EDT4.62A  9.2A  3,450A  
05/14/2012 00:30 EDT4.62A  9.2A  3,450A  
05/14/2012 00:45 EDT4.62A  9.2A  3,450A  
05/14/2012 01:00 EDT4.62A  9.2A  3,450A  
05/14/2012 01:15 EDT4.61A  9.2A  3,430A  
05/14/2012 01:30 EDT4.61A  9.2A  3,430A  
05/14/2012 01:45 EDT4.61A  9.2A  3,430A  
05/14/2012 02:00 EDT4.61A  9.2A  3,430A  
05/14/2012 02:15 EDT4.61A  9.2A  3,430A  
05/14/2012 02:30 EDT4.61A  9.3A  3,430A  
05/14/2012 02:45 EDT4.62A  9.3A  3,450A  
05/14/2012 03:00 EDT4.61A  9.3A  3,430A  
05/14/2012 03:15 EDT4.60A  9.3A  3,420A  
05/14/2012 03:30 EDT4.61A  9.2A  3,430A  
05/14/2012 03:45 EDT4.60A  9.2A  3,420A  
05/14/2012 04:00 EDT4.60A  9.2A  3,420A  
05/14/2012 04:15 EDT4.59A  9.2A  3,400A  
05/14/2012 04:30 EDT4.60A  9.2A  3,420A  
05/14/2012 04:45 EDT4.60A  9.2A  3,420A  
05/14/2012 05:00 EDT4.58A  9.2A  3,380A  
05/14/2012 05:15 EDT4.59A  9.2A  3,400A  
05/14/2012 05:30 EDT4.59A  9.1A  3,400A  
05/14/2012 05:45 EDT4.59A  9.1A  3,400A  
05/14/2012 06:00 EDT4.59A  9.1A  3,400A  
05/14/2012 06:15 EDT4.58A  9.1A  3,380A  
05/14/2012 06:30 EDT4.58A  9.1A  3,380A  
05/14/2012 06:45 EDT4.57A  9.1A  3,360A  
05/14/2012 07:00 EDT4.58A  9.1A  3,380A  
05/14/2012 07:15 EDT4.58A  9.1A  3,380A  
05/14/2012 07:30 EDT4.57A  9.1A  3,360A  
05/14/2012 07:45 EDT4.57A  9.1A  3,360A  
05/14/2012 08:00 EDT4.57A  9.1A  3,360A  
05/14/2012 08:15 EDT4.58A  9.2A  3,380A  
05/14/2012 08:30 EDT4.56A  9.2A  3,350A  
05/14/2012 08:45 EDT4.56A  9.2A  3,350A  
05/14/2012 09:00 EDT4.56A  9.2A  3,350A  
05/14/2012 09:15 EDT4.56A  9.3A  3,350A  
05/14/2012 09:30 EDT4.57A  9.3A  3,360A  
05/14/2012 09:45 EDT4.55A  9.3A  3,330A  
05/14/2012 10:00 EDT4.55A  9.4A  3,330A  
05/14/2012 10:15 EDT4.55A  9.4A  3,330A  
05/14/2012 10:30 EDT4.56A  9.5A  3,350A  
05/14/2012 10:45 EDT4.55A  9.7A  3,330A  
05/14/2012 11:00 EDT4.55A  9.8A  3,330A  
05/14/2012 11:15 EDT4.54A  10.0A  3,310A  
05/14/2012 11:30 EDT4.53A  10.1A  3,290A  
05/14/2012 11:45 EDT4.55A  10.3A  3,330A  
05/14/2012 12:00 EDT4.54A  10.5A  3,310A  
05/14/2012 12:15 EDT4.53A  10.6A  3,290A  
05/14/2012 12:30 EDT4.54A  10.8A  3,310A  
05/14/2012 12:45 EDT4.53A  10.9A  3,290A  
05/14/2012 13:00 EDT4.53A  11.1A  3,290A  
05/14/2012 13:15 EDT4.53A  11.2A  3,290A  
05/14/2012 13:30 EDT4.52A  11.4A  3,270A  
05/14/2012 13:45 EDT4.52A  11.4A  3,270A  
05/14/2012 14:00 EDT4.51A  11.4A  3,260A  
05/14/2012 14:15 EDT4.52A  11.6A  3,270A  
05/14/2012 14:30 EDT4.52A  11.7A  3,270A  
05/14/2012 14:45 EDT4.51A  11.7A  3,260A  
05/14/2012 15:00 EDT4.52A  11.9A  3,270A  
05/14/2012 15:15 EDT4.52A  12.0A  3,270A  
05/14/2012 15:30 EDT4.51A  12.0A  3,260A  
05/14/2012 15:45 EDT4.50A  12.1A  3,240A  
05/14/2012 16:00 EDT4.51A  12.0A  3,260A  
05/14/2012 16:15 EDT4.51A  12.1A  3,260A  
05/14/2012 16:30 EDT4.51A  12.1A  3,260A  
05/14/2012 16:45 EDT4.51A  12.1A  3,260A  
05/14/2012 17:00 EDT4.50A  12.1A  3,240A  
05/14/2012 17:15 EDT4.49A  12.1A  3,220A  
05/14/2012 17:30 EDT4.50A  12.1A  3,240A  
05/14/2012 17:45 EDT4.49A  12.1A  3,220A  
05/14/2012 18:00 EDT4.49A  12.1A  3,220A  
05/14/2012 18:15 EDT4.49A  12.0A  3,220A  
05/14/2012 18:30 EDT4.49A  12.0A  3,220A  
05/14/2012 18:45 EDT4.47A  12.0A  3,190A  
05/14/2012 19:00 EDT4.48A  12.0A  3,200A  
05/14/2012 19:15 EDT4.48A  12.1A  3,200A  
05/14/2012 19:30 EDT4.47A  12.1A  3,190A  
05/14/2012 19:45 EDT4.46A  12.1A  3,170A  
05/14/2012 20:00 EDT4.48A  12.1A  3,200A  
05/14/2012 20:15 EDT4.47A  12.1A  3,190A  
05/14/2012 20:30 EDT4.46A  12.1A  3,170A  
05/14/2012 20:45 EDT4.47A  12.1A  3,190A  
05/14/2012 21:00 EDT4.47A  12.1A  3,190A  
05/14/2012 21:15 EDT4.46A  12.1A  3,170A  
05/14/2012 21:30 EDT4.46A  12.1A  3,170A  
05/14/2012 21:45 EDT4.47A  12.1A  3,190A  
05/14/2012 22:00 EDT4.46A  12.1A  3,170A  
05/14/2012 22:15 EDT4.46A  12.1A  3,170A  
05/14/2012 22:30 EDT4.46A  12.1A  3,170A  
05/14/2012 22:45 EDT4.46A  12.1A  3,170A  
05/14/2012 23:00 EDT4.45A  12.0A  3,150A  
05/14/2012 23:15 EDT4.45A  12.0A  3,150A  
05/14/2012 23:30 EDT4.45A  12.0A  3,150A  
05/14/2012 23:45 EDT4.46A  12.0A  3,170A  
05/15/2012 00:00 EDT4.44A  12.0A  3,140A  
05/15/2012 00:15 EDT4.44A  12.0A  3,140A  
05/15/2012 00:30 EDT4.44A  11.9A  3,140A  
05/15/2012 00:45 EDT4.45A  11.9A  3,150A  
05/15/2012 01:00 EDT4.44A  11.9A  3,140A  
05/15/2012 01:15 EDT4.44A  11.9A  3,140A  
05/15/2012 01:30 EDT4.44A  11.8A  3,140A  
05/15/2012 01:45 EDT4.43A  11.8A  3,120A  
05/15/2012 02:00 EDT4.44A  11.7A  3,140A  
05/15/2012 02:15 EDT4.44A  11.7A  3,140A  
05/15/2012 02:30 EDT4.44A  11.6A  3,140A  
05/15/2012 02:45 EDT4.43A  11.6A  3,120A  
05/15/2012 03:00 EDT4.44A  11.5A  3,140A  
05/15/2012 03:15 EDT4.43A  11.4A  3,120A  
05/15/2012 03:30 EDT4.44A  11.4A  3,140A  
05/15/2012 03:45 EDT4.42A  11.3A  3,100A  
05/15/2012 04:00 EDT4.43A  11.2A  3,120A  
05/15/2012 04:15 EDT4.43A  11.1A  3,120A  
05/15/2012 04:30 EDT4.42A  11.1A  3,100A  
05/15/2012 04:45 EDT4.42A  11.0A  3,100A  
05/15/2012 05:00 EDT4.41A  10.9A  3,080A  
05/15/2012 05:15 EDT4.42A  10.9A  3,100A  
05/15/2012 05:30 EDT4.42A  10.8A  3,100A  
05/15/2012 05:45 EDT4.42A  10.7A  3,100A  
05/15/2012 06:00 EDT4.42A  10.7A  3,100A  
05/15/2012 06:15 EDT4.42A  10.7A  3,100A  
05/15/2012 06:30 EDT4.41A  10.6A  3,080A  
05/15/2012 06:45 EDT4.41A  10.6A  3,080A  
05/15/2012 07:00 EDT4.41A  10.6A  3,080A  
05/15/2012 07:15 EDT4.41A  10.6A  3,080A  
05/15/2012 07:30 EDT4.40A  10.6A  3,070A  
05/15/2012 07:45 EDT4.40A  10.6A  3,070A  
05/15/2012 08:00 EDT4.39A  10.7A  3,050A  
05/15/2012 08:15 EDT4.40A  10.7A  3,070A  
05/15/2012 08:30 EDT4.39A  10.7A  3,050A  
05/15/2012 08:45 EDT4.40A  10.8A  3,070A  
05/15/2012 09:00 EDT4.39A  10.9A  3,050A  
05/15/2012 09:15 EDT4.39A  11.0A  3,050A  
05/15/2012 09:30 EDT4.38A  11.1A  3,030A  
05/15/2012 09:45 EDT4.38A  11.2A  3,030A  
05/15/2012 10:00 EDT4.39A  11.3A  3,050A  
05/15/2012 10:15 EDT4.38A  11.3A  3,030A  
05/15/2012 10:30 EDT4.39A  11.4A  3,050A  
05/15/2012 10:45 EDT4.38A  11.4A  3,030A  
05/15/2012 11:00 EDT4.38A  11.5A  3,030A  
05/15/2012 11:15 EDT4.38A  11.7A  3,030A  
05/15/2012 11:30 EDT4.37A  11.9A  3,020A  
05/15/2012 11:45 EDT4.38A  12.0A  3,030A  
05/15/2012 12:00 EDT4.37A  12.0A  3,020A  
05/15/2012 12:15 EDT4.36A  12.0A  3,000A  
05/15/2012 12:30 EDT4.38A  12.1A  3,030A  
05/15/2012 12:45 EDT4.37A  12.2A  3,020A  
05/15/2012 13:00 EDT4.38A  12.3A  3,030A  
05/15/2012 13:15 EDT4.38A  12.4A  3,030A  
05/15/2012 13:30 EDT4.37A  12.4A  3,020A  
05/15/2012 13:45 EDT4.37A  12.6A  3,020A  
05/15/2012 14:00 EDT4.37A  12.7A  3,020A  
05/15/2012 14:15 EDT4.37A  12.8A  3,020A  
05/15/2012 14:30 EDT4.36A  12.8A  3,000A  
05/15/2012 14:45 EDT4.36A  12.9A  3,000A  
05/15/2012 15:00 EDT4.36A  12.9A  3,000A  
05/15/2012 15:15 EDT4.36A  12.9A  3,000A  
05/15/2012 15:30 EDT4.36A  12.9A  3,000A  
05/15/2012 15:45 EDT4.35A  13.0A  2,980A  
05/15/2012 16:00 EDT4.34A  13.0A  2,960A  
05/15/2012 16:15 EDT4.36A  13.0A  3,000A  
05/15/2012 16:30 EDT4.36A  13.1A  3,000A  
05/15/2012 16:45 EDT4.36A  13.1A  3,000A  
05/15/2012 17:00 EDT4.34A  13.1A  2,960A  
05/15/2012 17:15 EDT4.35A  13.1A  2,980A  
05/15/2012 17:30 EDT4.33A  13.1A  2,950A  
05/15/2012 17:45 EDT4.33A  13.1A  2,950A  
05/15/2012 18:00 EDT4.34A  13.1A  2,960A  
05/15/2012 18:15 EDT4.34A  13.1A  2,960A  
05/15/2012 18:30 EDT4.33A  13.1A  2,950A  
05/15/2012 18:45 EDT4.32A  13.1A  2,930A  
05/15/2012 19:00 EDT4.33A  13.1A  2,950A  
05/15/2012 19:15 EDT4.33A  13.1A  2,950A  
05/15/2012 19:30 EDT4.33A  13.0A  2,950A  
05/15/2012 19:45 EDT4.33A  13.0A  2,950A  
05/15/2012 20:00 EDT4.33A  13.0A  2,950A  
05/15/2012 20:15 EDT4.32A  13.0A  2,930A  
05/15/2012 20:30 EDT4.33A  13.0A  2,950A  
05/15/2012 20:45 EDT4.33A  13.0A  2,950A  
05/15/2012 21:00 EDT4.34A  12.9A  2,960A  
05/15/2012 21:15 EDT4.34A  12.9A  2,960A  
05/15/2012 21:30 EDT4.34A  12.9A  2,960A  
05/15/2012 21:45 EDT4.33A  12.9A  2,950A  
05/15/2012 22:00 EDT4.35A  12.9A  2,980A  
05/15/2012 22:15 EDT4.33A  12.9A  2,950A  
05/15/2012 22:30 EDT4.35A  12.9A  2,980A  
05/15/2012 22:45 EDT4.33A  12.9A  2,950A  
05/15/2012 23:00 EDT4.34A  12.9A  2,960A  
05/15/2012 23:15 EDT4.34A  12.9A  2,960A  
05/15/2012 23:30 EDT4.33A  12.9A  2,950A  
05/15/2012 23:45 EDT4.33A  12.8A  2,950A  
05/16/2012 00:00 EDT4.33A  12.8A  2,950A  
05/16/2012 00:15 EDT4.33A  12.8A  2,950A  
05/16/2012 00:30 EDT4.33A  12.8A  2,950A  
05/16/2012 00:45 EDT4.34A  12.8A  2,960A  
05/16/2012 01:00 EDT4.33A  12.7A  2,950A  
05/16/2012 01:15 EDT4.33A  12.7A  2,950A  
05/16/2012 01:30 EDT4.33A  12.7A  2,950A  
05/16/2012 01:45 EDT4.32A  12.6A  2,930A  
05/16/2012 02:00 EDT4.33A  12.6A  2,950A  
05/16/2012 02:15 EDT4.32A  12.6A  2,930A  
05/16/2012 02:30 EDT4.33A  12.5A  2,950A  
05/16/2012 02:45 EDT4.34A  12.5A  2,960A  
05/16/2012 03:00 EDT4.33A  12.5A  2,950A  
05/16/2012 03:15 EDT4.33A  12.4A  2,950A  
05/16/2012 03:30 EDT4.33A  12.4A  2,950A  
05/16/2012 03:45 EDT4.34A  12.4A  2,960A  
05/16/2012 04:00 EDT4.34A  12.3A  2,960A  
05/16/2012 04:15 EDT4.33A  12.3A  2,950A  
05/16/2012 04:30 EDT4.33A  12.2A  2,950A  
05/16/2012 04:45 EDT4.33A  12.2A  2,950A  
05/16/2012 05:00 EDT4.34A  12.2A  2,960A  
05/16/2012 05:15 EDT4.34A  12.1A  2,960A  
05/16/2012 05:30 EDT4.34A  12.1A  2,960A  
05/16/2012 05:45 EDT4.34A  12.1A  2,960A  
05/16/2012 06:00 EDT4.34A  12.0A  2,960A  
05/16/2012 06:15 EDT4.34A  12.0A  2,960A  
05/16/2012 06:30 EDT4.34A  12.0A  2,960A  
05/16/2012 06:45 EDT4.34A  12.0A  2,960A  
05/16/2012 07:00 EDT4.34A  12.0A  2,960A  
05/16/2012 07:15 EDT4.34A  12.0A  2,960A  
05/16/2012 07:30 EDT4.34A  12.0A  2,960A  
05/16/2012 07:45 EDT4.34A  12.0A  2,960A  
05/16/2012 08:00 EDT4.35A  12.0A  2,980A  
05/16/2012 08:15 EDT4.34A  12.0A  2,960A  
05/16/2012 08:30 EDT4.35A  12.0A  2,980A  
05/16/2012 08:45 EDT4.35A  12.0A  2,980A  
05/16/2012 09:00 EDT4.35A  12.0A  2,980A  
05/16/2012 09:15 EDT4.35A  12.0A  2,980A  
05/16/2012 09:30 EDT4.36A  12.1A  3,000A  
05/16/2012 09:45 EDT4.36A  12.1A  3,000A  
05/16/2012 10:00 EDT4.35A  12.1A  2,980A  
05/16/2012 10:15 EDT4.36A  12.1A  3,000A  
05/16/2012 10:30 EDT4.36A  12.1A  3,000A  
05/16/2012 10:45 EDT4.37A  12.2A  3,020A  
05/16/2012 11:00 EDT4.37A  12.2A  3,020A  
05/16/2012 11:15 EDT4.37A  12.2A  3,020A  
05/16/2012 11:30 EDT4.36A  12.3A  3,000A  
05/16/2012 11:45 EDT4.36A  12.3A  3,000A  
05/16/2012 12:00 EDT4.37A  12.3A  3,020A  
05/16/2012 12:15 EDT4.36A  12.4A  3,000A  
05/16/2012 12:30 EDT4.38A  12.4A  3,030A  
05/16/2012 12:45 EDT4.37A  12.4A  3,020A  
05/16/2012 13:00 EDT4.37A  12.4A  3,020A  
05/16/2012 13:15 EDT4.38A  12.4A  3,030A  
05/16/2012 13:30 EDT4.37A  12.4A  3,020A  
05/16/2012 13:45 EDT4.38A  12.5A  3,030A  
05/16/2012 14:00 EDT4.37A  12.7A  3,020A  
05/16/2012 14:15 EDT4.38A  12.8A  3,030A  
05/16/2012 14:30 EDT4.37A  12.8A  3,020A  
05/16/2012 14:45 EDT4.39A  12.9A  3,050A  
05/16/2012 15:00 EDT4.39A  13.0A  3,050A  
05/16/2012 15:15 EDT4.38A  13.1A  3,030A  
05/16/2012 15:30 EDT4.38A  13.1A  3,030A  
05/16/2012 15:45 EDT4.37A  13.1A  3,020A  
05/16/2012 16:00 EDT4.39A  13.1A  3,050A  
05/16/2012 16:15 EDT4.38A  13.1A  3,030A  
05/16/2012 16:30 EDT4.39A  13.1A  3,050A  
05/16/2012 16:45 EDT4.39A  13.1A  3,050A  
05/16/2012 17:00 EDT4.40A  13.1A  3,070A  
05/16/2012 17:15 EDT4.39A  13.2A  3,050A  
05/16/2012 17:30 EDT4.39A  13.2A  3,050A  
05/16/2012 17:45 EDT4.39A  13.2A  3,050A  
05/16/2012 18:00 EDT4.40A  13.2A  3,070A  
05/16/2012 18:15 EDT4.38A  13.2A  3,030A  
05/16/2012 18:30 EDT4.39A  13.2A  3,050A  
05/16/2012 18:45 EDT4.39A  13.2A  3,050A  
05/16/2012 19:00 EDT4.40A  13.3A  3,070A  
05/16/2012 19:15 EDT4.40A  13.3A  3,070A  
05/16/2012 19:30 EDT4.40A  13.3A  3,070A  
05/16/2012 19:45 EDT4.39A  13.3A  3,050A  
05/16/2012 20:00 EDT4.40A  13.3A  3,070A  
05/16/2012 20:15 EDT4.40A  13.3A  3,070A  
05/16/2012 20:30 EDT4.39A  13.3A  3,050A  
05/16/2012 20:45 EDT4.41A  13.2A  3,080A  
05/16/2012 21:00 EDT4.41A  13.2A  3,080A  
05/16/2012 21:15 EDT4.41A  13.2A  3,080A  
05/16/2012 21:30 EDT4.40A  13.2A  3,070A  
05/16/2012 21:45 EDT4.41A  13.2A  3,080A  
05/16/2012 22:00 EDT4.42A  13.2A  3,100A  
05/16/2012 22:15 EDT4.41A  13.3A  3,080A  
05/16/2012 22:30 EDT4.42A  13.3A  3,100A  
05/16/2012 22:45 EDT4.42A  13.3A  3,100A  
05/16/2012 23:00 EDT4.43A  13.3A  3,120A  
05/16/2012 23:15 EDT4.43A  13.3A  3,120A  
05/16/2012 23:30 EDT4.43A  13.2A  3,120A  
05/16/2012 23:45 EDT4.43A  13.2A  3,120A  
05/17/2012 00:00 EDT4.42A  13.2A  3,100A  
05/17/2012 00:15 EDT4.43A  13.2A  3,120A  
05/17/2012 00:30 EDT4.43A  13.2A  3,120A  
05/17/2012 00:45 EDT4.44A  13.2A  3,140A  
05/17/2012 01:00 EDT4.43A  13.1A  3,120A  
05/17/2012 01:15 EDT4.43A  13.1A  3,120A  
05/17/2012 01:30 EDT4.44A  13.1A  3,140A  
05/17/2012 01:45 EDT4.44A  13.1A  3,140A  
05/17/2012 02:00 EDT4.44A  13.1A  3,140A  
05/17/2012 02:15 EDT4.43A  13.1A  3,120A  
05/17/2012 02:30 EDT4.44A  13.0A  3,140A  
05/17/2012 02:45 EDT4.44A  13.0A  3,140A  
05/17/2012 03:00 EDT4.44A  13.0A  3,140A  
05/17/2012 03:15 EDT4.45A  13.0A  3,150A  
05/17/2012 03:30 EDT4.44A  12.9A  3,140A  
05/17/2012 03:45 EDT4.45A  12.9A  3,150A  
05/17/2012 04:00 EDT4.45A  12.8A  3,150A  
05/17/2012 04:15 EDT4.45A  12.8A  3,150A  
05/17/2012 04:30 EDT4.46A  12.7A  3,170A  
05/17/2012 04:45 EDT4.46A  12.7A  3,170A  
05/17/2012 05:00 EDT4.46A  12.6A  3,170A  
05/17/2012 05:15 EDT4.46A  12.6A  3,170A  
05/17/2012 05:30 EDT4.47A  12.5A  3,190A  
05/17/2012 05:45 EDT4.46A  12.5A  3,170A  
05/17/2012 06:00 EDT4.47A  12.4A  3,190A  
05/17/2012 06:15 EDT4.49A  12.4A  3,220A  
05/17/2012 06:30 EDT4.48A  12.3A  3,200A  
05/17/2012 06:45 EDT4.48A  12.3A  3,200A  
05/17/2012 07:00 EDT4.49A  12.3A  3,220A  
05/17/2012 07:15 EDT4.49A  12.3A  3,220A  
05/17/2012 07:30 EDT4.48A  12.3A  3,200A  
05/17/2012 07:45 EDT4.50A  12.3A  3,240A  
05/17/2012 08:00 EDT4.50A  12.3A  3,240A  
05/17/2012 08:15 EDT4.51A  12.4A  3,260A  
05/17/2012 08:30 EDT4.51A  12.4A  3,260A  
05/17/2012 08:45 EDT4.49A  12.4A  3,220A  
05/17/2012 09:00 EDT4.51A  12.4A  3,260A  
05/17/2012 09:15 EDT4.49A  12.4A  3,220A  
05/17/2012 09:30 EDT4.51A  12.4A  3,260A  
05/17/2012 09:45 EDT4.51A  12.4A  3,260A  
05/17/2012 10:00 EDT4.51A  12.4A  3,260A  
05/17/2012 10:15 EDT4.53A  12.4A  3,290A  
05/17/2012 10:30 EDT4.52A  12.5A  3,270A  
05/17/2012 10:45 EDT4.51A  12.5A  3,260A  
05/17/2012 11:00 EDT4.53A  12.5A  3,290A  
05/17/2012 11:15 EDT4.53A  12.5A  3,290A  
05/17/2012 11:30 EDT4.54A  12.5A  3,310A  
05/17/2012 11:45 EDT4.54A  12.5A  3,310A  
05/17/2012 12:00 EDT4.53A  12.6A  3,290A  
05/17/2012 12:15 EDT4.54A  12.6A  3,310A  
05/17/2012 12:30 EDT4.54A  12.6A  3,310A  
05/17/2012 12:45 EDT4.54A  12.7A  3,310A  
05/17/2012 13:00 EDT4.55A  12.7A  3,330A  
05/17/2012 13:15 EDT4.54A  12.7A  3,310A  
05/17/2012 13:30 EDT4.55A  12.6A  3,330A  
05/17/2012 13:45 EDT4.54A  12.6A  3,310A  
05/17/2012 14:00 EDT4.56A  12.6A  3,350A  
05/17/2012 14:15 EDT4.54A  12.7A  3,310A  
05/17/2012 14:30 EDT4.56A  12.7A  3,350A  
05/17/2012 14:45 EDT4.55A  12.7A  3,330A  
05/17/2012 15:00 EDT4.56A  12.8A  3,350A  
05/17/2012 15:15 EDT4.56A  12.8A  3,350A  
05/17/2012 15:30 EDT4.57A  12.7A  3,360A  
05/17/2012 15:45 EDT4.56A  12.8A  3,350A  
05/17/2012 16:00 EDT4.58A  12.7A  3,380A  
05/17/2012 16:15 EDT4.58A  12.7A  3,380A  
05/17/2012 16:30 EDT4.58A  12.7A  3,380A  
05/17/2012 16:45 EDT4.59A  12.7A  3,400A  
05/17/2012 17:00 EDT4.58A  12.6A  3,380A  
05/17/2012 17:15 EDT4.57A  12.6A  3,360A  
05/17/2012 17:30 EDT4.59A  12.6A  3,400A  
05/17/2012 17:45 EDT4.57A  12.6A  3,360A  
05/17/2012 18:00 EDT4.57A  12.5A  3,360A  
05/17/2012 18:15 EDT4.59A  12.5A  3,400A  
05/17/2012 18:30 EDT4.59A  12.5A  3,400A  
05/17/2012 18:45 EDT4.59A  12.5A  3,400A  
05/17/2012 19:00 EDT4.59A  12.4A  3,400A  
05/17/2012 19:15 EDT4.60A  12.4A  3,420A  
05/17/2012 19:30 EDT4.60A  12.4A  3,420A  
05/17/2012 19:45 EDT4.60A  12.4A  3,420A  
05/17/2012 20:00 EDT4.59A  12.3A  3,400A  
05/17/2012 20:15 EDT4.60A  12.3A  3,420A  
05/17/2012 20:30 EDT4.59A  12.2A  3,400A  
05/17/2012 20:45 EDT4.60A  12.2A  3,420A  
05/17/2012 21:00 EDT4.59A  12.2A  3,400A  
05/17/2012 21:15 EDT4.60A  12.2A  3,420A  
05/17/2012 21:30 EDT4.60A  12.1A  3,420A  
05/17/2012 21:45 EDT4.59A  12.1A  3,400A  
05/17/2012 22:00 EDT4.60A  12.0A  3,420A  
05/17/2012 22:15 EDT4.59A  12.0A  3,400A  
05/17/2012 22:30 EDT4.60A  11.9A  3,420A  
05/17/2012 22:45 EDT4.60A  11.8A  3,420A  
05/17/2012 23:00 EDT4.60A  11.8A  3,420A  
05/17/2012 23:15 EDT4.60A  11.7A  3,420A  
05/17/2012 23:30 EDT4.60A  11.6A  3,420A  
05/17/2012 23:45 EDT4.60A  11.6A  3,420A  
05/18/2012 00:00 EDT4.59A  11.5A  3,400A  
05/18/2012 00:15 EDT4.60A  11.5A  3,420A  
05/18/2012 00:30 EDT4.60A  11.4A  3,420A  
05/18/2012 00:45 EDT4.59A  11.3A  3,400A  
05/18/2012 01:00 EDT4.59A  11.3A  3,400A  
05/18/2012 01:15 EDT4.60A  11.2A  3,420A  
05/18/2012 01:30 EDT4.59A  11.2A  3,400A  
05/18/2012 01:45 EDT4.60A  11.2A  3,420A  
05/18/2012 02:00 EDT4.59A  11.1A  3,400A  
05/18/2012 02:15 EDT4.60A  11.1A  3,420A  
05/18/2012 02:30 EDT4.60A  11.1A  3,420A  
05/18/2012 02:45 EDT4.60A  11.0A  3,420A  
05/18/2012 03:00 EDT4.60A  11.0A  3,420A  
05/18/2012 03:15 EDT4.59A  10.9A  3,400A  
05/18/2012 03:30 EDT4.59A  10.9A  3,400A  
05/18/2012 03:45 EDT4.60A  10.9A  3,420A  
05/18/2012 04:00 EDT4.59A  10.8A  3,400A  
05/18/2012 04:15 EDT4.58A  10.8A  3,380A  
05/18/2012 04:30 EDT4.58A  10.7A  3,380A  
05/18/2012 04:45 EDT4.58A  10.7A  3,380A  
05/18/2012 05:00 EDT4.59A  10.6A  3,400A  
05/18/2012 05:15 EDT4.59A  10.6A  3,400A  
05/18/2012 05:30 EDT4.59A  10.5A  3,400A  
05/18/2012 05:45 EDT4.58A  10.5A  3,380A  
05/18/2012 06:00 EDT4.59A  10.4A  3,400A  
05/18/2012 06:15 EDT4.57A  10.4A  3,360A  
05/18/2012 06:30 EDT4.58A  10.4A  3,380A  
05/18/2012 06:45 EDT4.58A  10.4A  3,380A  
05/18/2012 07:00 EDT4.58A  10.4A  3,380A  
05/18/2012 07:15 EDT4.57A  10.4A  3,360A  
05/18/2012 07:30 EDT4.57A  10.4A  3,360A  
05/18/2012 07:45 EDT4.57A  10.5A  3,360A  
05/18/2012 08:00 EDT4.57A  10.5A  3,360A  
05/18/2012 08:15 EDT4.57A  10.5A  3,360A  
05/18/2012 08:30 EDT4.56A  10.6A  3,350A  
05/18/2012 08:45 EDT4.56A  10.7A  3,350A  
05/18/2012 09:00 EDT4.56A  10.8A  3,350A  
05/18/2012 09:15 EDT4.55A  10.8A  3,330A  
05/18/2012 09:30 EDT4.56A  10.9A  3,350A  
05/18/2012 09:45 EDT4.57A  11.0A  3,360A  
05/18/2012 10:00 EDT4.55A  11.0A  3,330A  
05/18/2012 10:15 EDT4.56A  11.1A  3,350A  
05/18/2012 10:30 EDT4.56A  11.3A  3,350A  
05/18/2012 10:45 EDT4.55A  11.5A  3,330A  
05/18/2012 11:00 EDT4.56A  11.6A  3,350A  
05/18/2012 11:15 EDT4.54A  11.7A  3,310A  
05/18/2012 11:30 EDT4.54A  11.8A  3,310A  
05/18/2012 11:45 EDT4.54A  11.9A  3,310A  
05/18/2012 12:00 EDT4.54A  12.1A  3,310A  
05/18/2012 12:15 EDT4.53A  12.2A  3,290A  
05/18/2012 12:30 EDT4.53A  12.4A  3,290A  
05/18/2012 12:45 EDT4.53A  12.6A  3,290A  
05/18/2012 13:00 EDT4.53A  12.7A  3,290A  
05/18/2012 13:15 EDT4.53A  12.7A  3,290A  
05/18/2012 13:30 EDT4.53A  12.6A  3,290A  
05/18/2012 13:45 EDT4.53A  12.7A  3,290A  
05/18/2012 14:00 EDT4.53A  12.8A  3,290A  
05/18/2012 14:15 EDT4.51A  13.0A  3,260A  
05/18/2012 14:30 EDT4.51A  13.2A  3,260A  
05/18/2012 14:45 EDT4.51A  13.3A  3,260A  
05/18/2012 15:00 EDT4.52A  13.4A  3,270A  
05/18/2012 15:15 EDT4.52A  13.4A  3,270A  
05/18/2012 15:30 EDT4.50A  13.4A  3,240A  
05/18/2012 15:45 EDT4.51A  13.4A  3,260A  
05/18/2012 16:00 EDT4.50A  13.5A  3,240A  
05/18/2012 16:15 EDT4.51A  13.5A  3,260A  
05/18/2012 16:30 EDT4.50A  13.5A  3,240A  
05/18/2012 16:45 EDT4.50A  13.5A  3,240A  
05/18/2012 17:00 EDT4.51A  13.5A  3,260A  
05/18/2012 17:15 EDT4.49A  13.5A  3,220A  
05/18/2012 17:30 EDT4.48A  13.5A  3,200A  
05/18/2012 17:45 EDT4.48A  13.5A  3,200A  
05/18/2012 18:00 EDT4.49A  13.5A  3,220A  
05/18/2012 18:15 EDT4.48A  13.5A  3,200A  
05/18/2012 18:30 EDT4.49A  13.5A  3,220A  
05/18/2012 18:45 EDT4.48A  13.4A  3,200A  
05/18/2012 19:00 EDT4.47A  13.4A  3,190A  
05/18/2012 19:15 EDT4.48A  13.3A  3,200A  
05/18/2012 19:30 EDT4.48A  13.3A  3,200A  
05/18/2012 19:45 EDT4.47A  13.2A  3,190A  
05/18/2012 20:00 EDT4.47A  13.2A  3,190A  
05/18/2012 20:15 EDT4.47A  13.1A  3,190A  
05/18/2012 20:30 EDT4.48A  13.1A  3,200A  
05/18/2012 20:45 EDT4.47A  13.1A  3,190A  
05/18/2012 21:00 EDT4.47A  13.1A  3,190A  
05/18/2012 21:15 EDT4.47A  13.1A  3,190A  
05/18/2012 21:30 EDT4.46A  13.1A  3,170A  
05/18/2012 21:45 EDT4.47A  13.1A  3,190A  
05/18/2012 22:00 EDT4.46A  13.0A  3,170A  
05/18/2012 22:15 EDT4.46A  13.0A  3,170A  
05/18/2012 22:30 EDT4.45A  13.0A  3,150A  
05/18/2012 22:45 EDT4.46A  13.0A  3,170A  
05/18/2012 23:00 EDT4.45A  13.0A  3,150A  
05/18/2012 23:15 EDT4.46A  12.9A  3,170A  
05/18/2012 23:30 EDT4.45A  12.9A  3,150A  
05/18/2012 23:45 EDT4.45A  12.9A  3,150A  
05/19/2012 00:00 EDT4.45A  12.9A  3,150A  
05/19/2012 00:15 EDT4.45A  12.8A  3,150A  
05/19/2012 00:30 EDT4.45A  12.8A  3,150A  
05/19/2012 00:45 EDT4.45A  12.8A  3,150A  
05/19/2012 01:00 EDT4.45A  12.8A  3,150A  
05/19/2012 01:15 EDT4.44A  12.8A  3,140A  
05/19/2012 01:30 EDT4.44A  12.7A  3,140A  
05/19/2012 01:45 EDT4.44A  12.7A  3,140A  
05/19/2012 02:00 EDT4.45A  12.7A  3,150A  
05/19/2012 02:15 EDT4.44A  12.6A  3,140A  
05/19/2012 02:30 EDT4.44A  12.6A  3,140A  
05/19/2012 02:45 EDT4.44A  12.5A  3,140A  
05/19/2012 03:00 EDT4.44A  12.5A  3,140A  
05/19/2012 03:15 EDT4.44A  12.4A  3,140A  
05/19/2012 03:30 EDT4.44A  12.4A  3,140A  
05/19/2012 03:45 EDT4.43A  12.3A  3,120A  
05/19/2012 04:00 EDT4.44A  12.3A  3,140A  
05/19/2012 04:15 EDT4.43A  12.3A  3,120A  
05/19/2012 04:30 EDT4.43A  12.3A  3,120A  
05/19/2012 04:45 EDT4.43A  12.2A  3,120A  
05/19/2012 05:00 EDT4.43A  12.2A  3,120A  
05/19/2012 05:15 EDT4.43A  12.2A  3,120A  
05/19/2012 05:30 EDT4.42A  12.2A  3,100A  
05/19/2012 05:45 EDT4.42A  12.2A  3,100A  
05/19/2012 06:00 EDT4.42A  12.1A  3,100A  
05/19/2012 06:15 EDT4.42A  12.1A  3,100A  
05/19/2012 06:30 EDT4.42A  12.1A  3,100A  
05/19/2012 06:45 EDT4.41A  12.1A  3,080A  
05/19/2012 07:00 EDT4.42A  12.2A  3,100A  
05/19/2012 07:15 EDT4.42A  12.2A  3,100A  
05/19/2012 07:30 EDT4.42A  12.2A  3,100A  
05/19/2012 07:45 EDT4.42A  12.3A  3,100A  
05/19/2012 08:00 EDT4.41A  12.3A  3,080A  
05/19/2012 08:15 EDT4.41A  12.3A  3,080A  
05/19/2012 08:30 EDT4.40A  12.3A  3,070A  
05/19/2012 08:45 EDT4.41A  12.3A  3,080A  
05/19/2012 09:00 EDT4.40A  12.4A  3,070A  
05/19/2012 09:15 EDT4.41A  12.4A  3,080A  
05/19/2012 09:30 EDT4.41A  12.5A  3,080A  
05/19/2012 09:45 EDT4.40A  12.5A  3,070A  
05/19/2012 10:00 EDT4.40A  12.5A  3,070A  
05/19/2012 10:15 EDT4.39A  12.6A  3,050A  
05/19/2012 10:30 EDT4.39A  12.6A  3,050A  
05/19/2012 10:45 EDT4.39A  12.7A  3,050A  
05/19/2012 11:00 EDT4.39A  12.7A  3,050A  
05/19/2012 11:15 EDT4.40A  12.7A  3,070A  
05/19/2012 11:30 EDT4.39A  12.7A  3,050A  
05/19/2012 11:45 EDT4.38A  12.8A  3,030A  
05/19/2012 12:00 EDT4.39A  12.8A  3,050A  
05/19/2012 12:15 EDT4.38A  12.9A  3,030A  
05/19/2012 12:30 EDT4.38A  13.1A  3,030A  
05/19/2012 12:45 EDT4.39A  13.2A  3,050A  
05/19/2012 13:00 EDT4.39A  13.2A  3,050A  
05/19/2012 13:15 EDT4.38A  13.3A  3,030A  
05/19/2012 13:30 EDT4.37A  13.5A  3,020A  
05/19/2012 13:45 EDT4.38A  13.6A  3,030A  
05/19/2012 14:00 EDT4.38A  13.7A  3,030A  
05/19/2012 14:15 EDT4.37A  13.7A  3,020A  
05/19/2012 14:30 EDT4.38A  13.7A  3,030A  
05/19/2012 14:45 EDT4.37A  13.7A  3,020A  
05/19/2012 15:00 EDT4.37A  13.8A  3,020A  
05/19/2012 15:15 EDT4.37A  13.9A  3,020A  
05/19/2012 15:30 EDT4.37A  14.0A  3,020A  
05/19/2012 15:45 EDT4.37A  14.1A  3,020A  
05/19/2012 16:00 EDT4.36A  14.1A  3,000A  
05/19/2012 16:15 EDT4.37A  14.1A  3,020A  
05/19/2012 16:30 EDT4.36A  14.0A  3,000A  
05/19/2012 16:45 EDT4.35A  14.0A  2,980A  
05/19/2012 17:00 EDT4.35A  14.1A  2,980A  
05/19/2012 17:15 EDT4.35A  14.1A  2,980A  
05/19/2012 17:30 EDT4.35A  14.1A  2,980A  
05/19/2012 17:45 EDT4.35A  14.2A  2,980A  
05/19/2012 18:00 EDT4.35A  14.2A  2,980A  
05/19/2012 18:15 EDT4.35A  14.3A  2,980A  
05/19/2012 18:30 EDT4.34A  14.3A  2,960A  
05/19/2012 18:45 EDT4.34A  14.3A  2,960A  
05/19/2012 19:00 EDT4.34A  14.3A  2,960A  
05/19/2012 19:15 EDT4.33A  14.3A  2,950A  
05/19/2012 19:30 EDT4.34A  14.3A  2,960A  
05/19/2012 19:45 EDT4.35A  14.3A  2,980A  
05/19/2012 20:00 EDT4.34A  14.3A  2,960A  
05/19/2012 20:15 EDT4.34A  14.3A  2,960A  
05/19/2012 20:30 EDT4.33A  14.3A  2,950A  
05/19/2012 20:45 EDT4.33A  14.3A  2,950A  
05/19/2012 21:00 EDT4.32A  14.3A  2,930A  
05/19/2012 21:15 EDT4.33A  14.2A  2,950A  
05/19/2012 21:30 EDT4.31A  14.2A  2,910A  
05/19/2012 21:45 EDT4.33A  14.1A  2,950A  
05/19/2012 22:00 EDT4.33A  14.1A  2,950A  
05/19/2012 22:15 EDT4.32A  14.1A  2,930A  
05/19/2012 22:30 EDT4.32A  14.0A  2,930A  
05/19/2012 22:45 EDT4.32A  14.0A  2,930A  
05/19/2012 23:00 EDT4.32A  14.0A  2,930A  
05/19/2012 23:15 EDT4.32A  14.0A  2,930A  
05/19/2012 23:30 EDT4.32A  14.0A  2,930A  
05/19/2012 23:45 EDT4.32A  14.0A  2,930A  
05/20/2012 00:00 EDT4.31A  14.0A  2,910A  
05/20/2012 00:15 EDT4.31A  13.9A  2,910A  
05/20/2012 00:30 EDT4.31A  13.9A  2,910A  
05/20/2012 00:45 EDT4.31A  13.8A  2,910A  
05/20/2012 01:00 EDT4.31A  13.8A  2,910A  
05/20/2012 01:15 EDT4.31A  13.8A  2,910A  
05/20/2012 01:30 EDT4.31A  13.8A  2,910A  
05/20/2012 01:45 EDT4.31A  13.7A  2,910A  
05/20/2012 02:00 EDT4.30A  13.7A  2,900A  
05/20/2012 02:15 EDT4.30A  13.7A  2,900A  
05/20/2012 02:30 EDT4.31A  13.7A  2,910A  
05/20/2012 02:45 EDT4.30A  13.6A  2,900A  
05/20/2012 03:00 EDT4.30A  13.6A  2,900A  
05/20/2012 03:15 EDT4.30A  13.6A  2,900A  
05/20/2012 03:30 EDT4.29A  13.6A  2,880A  
05/20/2012 03:45 EDT4.29A  13.5A  2,880A  
05/20/2012 04:00 EDT4.29A  13.5A  2,880A  
05/20/2012 04:15 EDT4.29A  13.5A  2,880A  
05/20/2012 04:30 EDT4.28A  13.4A  2,860A  
05/20/2012 04:45 EDT4.29A  13.4A  2,880A  
05/20/2012 05:00 EDT4.29A  13.3A  2,880A  
05/20/2012 05:15 EDT4.29A  13.3A  2,880A  
05/20/2012 05:30 EDT4.28A  13.2A  2,860A  
05/20/2012 05:45 EDT4.29A  13.2A  2,880A  
05/20/2012 06:00 EDT4.29A  13.2A  2,880A  
05/20/2012 06:15 EDT4.29A  13.2A  2,880A  
05/20/2012 06:30 EDT4.28A  13.2A  2,860A  
05/20/2012 06:45 EDT4.29A  13.2A  2,880A  
05/20/2012 07:00 EDT4.28A  13.1A  2,860A  
05/20/2012 07:15 EDT4.28A  13.2A  2,860A  
05/20/2012 07:30 EDT4.28A  13.2A  2,860A  
05/20/2012 07:45 EDT4.28A  13.2A  2,860A  
05/20/2012 08:00 EDT4.27A  13.3A  2,850A  
05/20/2012 08:15 EDT4.27A  13.3A  2,850A  
05/20/2012 08:30 EDT4.27A  13.4A  2,850A  
05/20/2012 08:45 EDT4.27A  13.5A  2,850A  
05/20/2012 09:00 EDT4.27A  13.6A  2,850A  
05/20/2012 09:15 EDT4.27A  13.8A  2,850A  
05/20/2012 09:30 EDT4.27A  13.9A  2,850A  
05/20/2012 09:45 EDT4.28A  14.0A  2,860A  
05/20/2012 10:00 EDT4.27A  14.1A  2,850A  
05/20/2012 10:15 EDT4.27A  14.3A  2,850A  
05/20/2012 10:30 EDT4.27A  14.4A  2,850A  
05/20/2012 10:45 EDT4.26A  14.5A  2,830A  
05/20/2012 11:00 EDT4.26A  14.7A  2,830A  
05/20/2012 11:15 EDT4.26A  14.8A  2,830A  
05/20/2012 11:30 EDT4.25A  15.0A  2,810A  
05/20/2012 11:45 EDT4.26A  15.1A  2,830A  
05/20/2012 12:00 EDT4.26A  15.3A  2,830A  
05/20/2012 12:15 EDT4.26A  15.4A  2,830A  
05/20/2012 12:30 EDT4.25A  15.6A  2,810A  
05/20/2012 12:45 EDT4.25A  15.7A  2,810A  
05/20/2012 13:00 EDT4.25A  15.8A  2,810A  
05/20/2012 13:15 EDT4.25A  15.9A  2,810A  
05/20/2012 13:30 EDT4.25A  16.1A  2,810A  
05/20/2012 13:45 EDT4.25A  16.2A  2,810A  
05/20/2012 14:00 EDT4.24A  16.3A  2,800A  
05/20/2012 14:15 EDT4.25A  16.4A  2,810A  
05/20/2012 14:30 EDT4.23A  16.5A  2,780A  
05/20/2012 14:45 EDT4.23A  16.6A  2,780A  
05/20/2012 15:00 EDT4.24A  16.6A  2,800A  
05/20/2012 15:15 EDT4.24A  16.7A  2,800A  
05/20/2012 15:30 EDT4.24A  16.7A  2,800A  
05/20/2012 15:45 EDT4.24A  16.8A  2,800A  
05/20/2012 16:00 EDT4.23A  16.8A  2,780A  
05/20/2012 16:15 EDT4.23A  16.8A  2,780A  
05/20/2012 16:30 EDT4.24A  16.8A  2,800A  
05/20/2012 16:45 EDT4.22A  16.8A  2,770A  
05/20/2012 17:00 EDT4.23A  16.8A  2,780A  
05/20/2012 17:15 EDT4.22A  16.8A  2,770A  
05/20/2012 17:30 EDT4.22A  16.8A  2,770A  
05/20/2012 17:45 EDT4.22A  16.8A  2,770A  
05/20/2012 18:00 EDT4.21A  16.8A  2,750A  
05/20/2012 18:15 EDT4.22A  16.8A  2,770A  
05/20/2012 18:30 EDT4.22A  16.8A  2,770A  
05/20/2012 18:45 EDT4.21A  16.8A  2,750A  
05/20/2012 19:00 EDT4.20A  16.8A  2,730A  
05/20/2012 19:15 EDT4.20A  16.8A  2,730A  
05/20/2012 19:30 EDT4.21A  16.8A  2,750A  
05/20/2012 19:45 EDT4.20A  16.8A  2,730A  
05/20/2012 20:00 EDT4.20A  16.8A  2,730A  
05/20/2012 20:15 EDT4.21A  16.8A  2,750A  
05/20/2012 20:30 EDT4.20A  16.8A  2,730A  
05/20/2012 20:45 EDT4.20A  16.8A  2,730A  
05/20/2012 21:00 EDT4.19A  16.7A  2,720A  
05/20/2012 21:15 EDT4.20A  16.7A  2,730A  
05/20/2012 21:30 EDT4.20A  16.7A  2,730A  
05/20/2012 21:45 EDT4.19A  16.7A  2,720A  
05/20/2012 22:00 EDT4.19A  16.7A  2,720A  
05/20/2012 22:15 EDT4.19A  16.7A  2,720A  
05/20/2012 22:30 EDT4.17A  16.6A  2,680A  
05/20/2012 22:45 EDT4.18A  16.6A  2,700A  
05/20/2012 23:00 EDT4.19A  16.6A  2,720A  
05/20/2012 23:15 EDT4.18A  16.6A  2,700A  
05/20/2012 23:30 EDT4.18A  16.5A  2,700A  
05/20/2012 23:45 EDT4.18A  16.5A  2,700A  
05/21/2012 00:00 EDT4.17A  16.5A  2,680A  
05/21/2012 00:15 EDT4.18A  16.5A  2,700A  
05/21/2012 00:30 EDT4.18A  16.4A  2,700A  
05/21/2012 00:45 EDT4.17A  16.4A  2,680A  
05/21/2012 01:00 EDT4.16A  16.3A  2,670A  
05/21/2012 01:15 EDT4.16A  16.3A  2,670A  
05/21/2012 01:30 EDT4.17A  16.2A  2,680A  
05/21/2012 01:45 EDT4.16A  16.2A  2,670A  
05/21/2012 02:00 EDT4.16A  16.2A  2,670A  
05/21/2012 02:15 EDT4.17A  16.1A  2,680A  
05/21/2012 02:30 EDT4.16A  16.1A  2,670A  
05/21/2012 02:45 EDT4.17A  16.0A  2,680A  
05/21/2012 03:00 EDT4.15A  16.0A  2,650A  
05/21/2012 03:15 EDT4.15A  15.9A  2,650A  
05/21/2012 03:30 EDT4.15A  15.9A  2,650A  
05/21/2012 03:45 EDT4.15A  15.8A  2,650A  
05/21/2012 04:00 EDT4.15A  15.7A  2,650A  
05/21/2012 04:15 EDT4.15A  15.7A  2,650A  
05/21/2012 04:30 EDT4.14A  15.6A  2,640A  
05/21/2012 04:45 EDT4.13A  15.6A  2,620A  
05/21/2012 05:00 EDT4.13A  15.5A  2,620A  
05/21/2012 05:15 EDT4.13A  15.5A  2,620A  
05/21/2012 05:30 EDT4.13A  15.4A  2,620A  
05/21/2012 05:45 EDT4.12A  15.4A  2,600A  
05/21/2012 06:00 EDT4.13A  15.3A  2,620A  
05/21/2012 06:15 EDT4.12A  15.3A  2,600A  
05/21/2012 06:30 EDT4.13A  15.3A  2,620A  
05/21/2012 06:45 EDT4.11A  15.3A  2,590A  
05/21/2012 07:00 EDT4.12A  15.3A  2,600A  
05/21/2012 07:15 EDT4.13A  15.3A  2,620A  
05/21/2012 07:30 EDT4.12A  15.4A  2,600A  
05/21/2012 07:45 EDT4.12A  15.5A  2,600A  
05/21/2012 08:00 EDT4.10A  15.5A  2,570A  
05/21/2012 08:15 EDT4.10A  15.6A  2,570A  
05/21/2012 08:30 EDT4.10A  15.7A  2,570A  
05/21/2012 08:45 EDT4.11A  15.8A  2,590A  
05/21/2012 09:00 EDT4.10A  15.9A  2,570A  
05/21/2012 09:15 EDT4.11A  16.0A  2,590A  
05/21/2012 09:30 EDT4.10A  16.2A  2,570A  
05/21/2012 09:45 EDT4.09A  16.3A  2,560A  
05/21/2012 10:00 EDT4.09A  16.5A  2,560A  
05/21/2012 10:15 EDT4.10A  16.6A  2,570A  
05/21/2012 10:30 EDT4.09A  16.8A  2,560A  
05/21/2012 10:45 EDT4.10A  17.0A  2,570A  
05/21/2012 11:00 EDT4.08A  17.2A  2,540A  
05/21/2012 11:15 EDT4.08A  17.3A  2,540A  
05/21/2012 11:30 EDT4.08A  17.5A  2,540A  
05/21/2012 11:45 EDT4.08A  17.7A  2,540A  
05/21/2012 12:00 EDT4.08A  17.9A  2,540A  
05/21/2012 12:15 EDT4.09A  18.1A  2,560A  
05/21/2012 12:30 EDT4.07A  18.2A  2,530A  
05/21/2012 12:45 EDT4.06A  18.4A  2,510A  
05/21/2012 13:00 EDT4.06A  18.5A  2,510A  
05/21/2012 13:15 EDT4.07A  18.6A  2,530A  
05/21/2012 13:30 EDT4.06A  18.7A  2,510A  
05/21/2012 13:45 EDT4.06A  18.9A  2,510A  
05/21/2012 14:00 EDT4.06A  19.1A  2,510A  
05/21/2012 14:15 EDT4.06A  19.2A  2,510A  
05/21/2012 14:30 EDT4.05A  19.3A  2,490A  
05/21/2012 14:45 EDT4.05A  19.3A  2,490A  
05/21/2012 15:00 EDT4.05A  19.4A  2,490A  
05/21/2012 15:15 EDT4.04A  19.4A  2,480A  
05/21/2012 15:30 EDT4.04A  19.5A  2,480A  
05/21/2012 15:45 EDT4.05A  19.5A  2,490A  
05/21/2012 16:00 EDT4.04A  19.5A  2,480A  
05/21/2012 16:15 EDT4.03A  19.5A  2,460A  
05/21/2012 16:30 EDT4.04A  19.4A  2,480A  
05/21/2012 16:45 EDT4.04A  19.4A  2,480A  
05/21/2012 17:00 EDT4.04A  19.4A  2,480A  
05/21/2012 17:15 EDT4.04A  19.3A  2,480A  
05/21/2012 17:30 EDT4.04A  19.3A  2,480A  
05/21/2012 17:45 EDT4.04A  19.2A  2,480A  
05/21/2012 18:00 EDT4.04A  19.2A  2,480A  
05/21/2012 18:15 EDT4.02A  19.2A  2,450A  
05/21/2012 18:30 EDT4.03A  19.2A  2,460A  
05/21/2012 18:45 EDT4.03A  19.1A  2,460A  
05/21/2012 19:00 EDT4.02A  19.1A  2,450A  
05/21/2012 19:15 EDT4.03A  19.1A  2,460A  
05/21/2012 19:30 EDT4.02A  19.1A  2,450A  
05/21/2012 19:45 EDT4.02A  19.1A  2,450A  
05/21/2012 20:00 EDT4.02A  19.0A  2,450A  
05/21/2012 20:15 EDT4.01A  19.0A  2,430A  
05/21/2012 20:30 EDT4.01A  19.0A  2,430A  
05/21/2012 20:45 EDT4.02A  18.9A  2,450A  
05/21/2012 21:00 EDT4.01A  18.9A  2,430A  
05/21/2012 21:15 EDT4.01A  18.8A  2,430A  
05/21/2012 21:30 EDT4.01A  18.8A  2,430A  
05/21/2012 21:45 EDT4.00A  18.8A  2,420A  
05/21/2012 22:00 EDT4.00A  18.7A  2,420A  
05/21/2012 22:15 EDT4.01A  18.7A  2,430A  
05/21/2012 22:30 EDT4.01A  18.7A  2,430A  
05/21/2012 22:45 EDT4.00A  18.6A  2,420A  
05/21/2012 23:00 EDT4.00A  18.6A  2,420A  
05/21/2012 23:15 EDT4.00A  18.5A  2,420A  
05/21/2012 23:30 EDT4.00A  18.5A  2,420A  
05/21/2012 23:45 EDT4.00A  18.4A  2,420A  
05/22/2012 00:00 EDT3.99A  18.4A  2,400A  
05/22/2012 00:15 EDT3.99A  18.3A  2,400A  
05/22/2012 00:30 EDT4.00A  18.3A  2,420A  
05/22/2012 00:45 EDT3.99A  18.2A  2,400A  
05/22/2012 01:00 EDT3.98A  18.2A  2,390A  
05/22/2012 01:15 EDT3.98A  18.1A  2,390A  
05/22/2012 01:30 EDT3.99A  18.1A  2,400A  
05/22/2012 01:45 EDT3.98A  18.0A  2,390A  
05/22/2012 02:00 EDT3.97A  18.0A  2,370A  
05/22/2012 02:15 EDT3.98A  17.9A  2,390A  
05/22/2012 02:30 EDT3.97A  17.8A  2,370A  
05/22/2012 02:45 EDT3.97A  17.7A  2,370A  
05/22/2012 03:00 EDT3.96A  17.7A  2,360A  
05/22/2012 03:15 EDT3.97A  17.6A  2,370A  
05/22/2012 03:30 EDT3.96A  17.5A  2,360A  
05/22/2012 03:45 EDT3.96A  17.5A  2,360A  
05/22/2012 04:00 EDT3.96A  17.4A  2,360A  
05/22/2012 04:15 EDT3.96A  17.3A  2,360A  
05/22/2012 04:30 EDT3.96A  17.3A  2,360A  
05/22/2012 04:45 EDT3.96A  17.2A  2,360A  
05/22/2012 05:00 EDT3.96A  17.1A  2,360A  
05/22/2012 05:15 EDT3.95A  17.1A  2,340A  
05/22/2012 05:30 EDT3.95A  17.0A  2,340A  
05/22/2012 05:45 EDT3.95A  17.0A  2,340A  
05/22/2012 06:00 EDT3.95A  16.9A  2,340A  
05/22/2012 06:15 EDT3.94A  16.9A  2,330A  
05/22/2012 06:30 EDT3.95A  16.9A  2,340A  
05/22/2012 06:45 EDT3.94A  16.8A  2,330A  
05/22/2012 07:00 EDT3.94A  16.9A  2,330A  
05/22/2012 07:15 EDT3.95A  16.8A  2,340A  
05/22/2012 07:30 EDT3.93A  16.8A  2,310A  
05/22/2012 07:45 EDT3.93A  16.8A  2,310A  
05/22/2012 08:00 EDT3.93A  16.8A  2,310A  
05/22/2012 08:15 EDT3.93A  16.8A  2,310A  
05/22/2012 08:30 EDT3.93A  16.9A  2,310A  
05/22/2012 08:45 EDT3.93A  17.0A  2,310A  
05/22/2012 09:00 EDT3.93A  17.2A  2,310A  
05/22/2012 09:15 EDT3.92A  17.2A  2,300A  
05/22/2012 09:30 EDT3.92A  17.2A  2,300A  
05/22/2012 09:45 EDT3.92A  17.3A  2,300A  
05/22/2012 10:00 EDT3.93A  17.3A  2,310A  
05/22/2012 10:15 EDT3.91A  17.3A  2,280A  
05/22/2012 10:30 EDT3.91A  17.4A  2,280A  
05/22/2012 10:45 EDT3.91A  17.3A  2,280A  
05/22/2012 11:00 EDT3.91A  17.3A  2,280A  
05/22/2012 11:15 EDT3.91A  17.3A  2,280A  
05/22/2012 11:30 EDT3.91A  17.4A  2,280A  
05/22/2012 11:45 EDT3.91A  17.4A  2,280A  
05/22/2012 12:00 EDT3.91A  17.5A  2,280A  
05/22/2012 12:15 EDT3.91A  17.5A  2,280A  
05/22/2012 12:30 EDT3.90A  17.5A  2,270A  
05/22/2012 12:45 EDT3.91A  17.5A  2,280A  
05/22/2012 13:00 EDT3.90A  17.6A  2,270A  
05/22/2012 13:15 EDT3.90A  17.6A  2,270A  
05/22/2012 13:30 EDT3.90A  17.5A  2,270A  
05/22/2012 13:45 EDT3.90A  17.6A  2,270A  
05/22/2012 14:00 EDT3.90A  17.6A  2,270A  
05/22/2012 14:15 EDT3.91A  17.6A  2,280A  
05/22/2012 14:30 EDT3.91A  17.6A  2,280A  
05/22/2012 14:45 EDT3.91A  17.7A  2,280A  
05/22/2012 15:00 EDT3.90A  17.8A  2,270A  
05/22/2012 15:15 EDT3.90A  17.8A  2,270A  
05/22/2012 15:30 EDT3.89A  17.9A  2,250A  
05/22/2012 15:45 EDT3.89A  17.9A  2,250A  
05/22/2012 16:00 EDT3.88A  18.0A  2,240A  
05/22/2012 16:15 EDT3.90A  18.0A  2,270A  
05/22/2012 16:30 EDT3.88A  17.9A  2,240A  
05/22/2012 16:45 EDT3.89A  18.0A  2,250A  
05/22/2012 17:00 EDT3.88A  18.0A  2,240A  
05/22/2012 17:15 EDT3.88A  17.9A  2,240A  
05/22/2012 17:30 EDT3.88A  17.9A  2,240A  
05/22/2012 17:45 EDT3.88A  17.9A  2,240A  
05/22/2012 18:00 EDT3.89A  17.8A  2,250A  
05/22/2012 18:15 EDT3.89A  17.8A  2,250A  
05/22/2012 18:30 EDT3.88A  17.7A  2,240A  
05/22/2012 18:45 EDT3.88A  17.7A  2,240A  
05/22/2012 19:00 EDT3.89A  17.6A  2,250A  
05/22/2012 19:15 EDT3.89A  17.6A  2,250A  
05/22/2012 19:30 EDT3.88A  17.5A  2,240A  
05/22/2012 19:45 EDT3.89A  17.5A  2,250A  
05/22/2012 20:00 EDT3.88A  17.5A  2,240A  
05/22/2012 20:15 EDT3.88A  17.5A  2,240A  
05/22/2012 20:30 EDT3.88A  17.4A  2,240A  
05/22/2012 20:45 EDT3.88A  17.4A  2,240A  
05/22/2012 21:00 EDT3.88A  17.3A  2,240A  
05/22/2012 21:15 EDT3.88A  17.4A  2,240A  
05/22/2012 21:30 EDT3.87A  17.3A  2,240A  
05/22/2012 21:45 EDT3.87A  17.3A  2,240A  
05/22/2012 22:00 EDT3.87A  17.2A  2,240A  
05/22/2012 22:15 EDT3.87A  17.2A  2,240A  
05/22/2012 22:30 EDT3.87A  17.2A  2,240A  
05/22/2012 22:45 EDT3.87A  17.2A  2,240A  
05/22/2012 23:00 EDT3.88A  17.1A  2,240A  
05/22/2012 23:15 EDT3.88A  17.1A  2,240A  
05/22/2012 23:30 EDT3.87A  17.1A  2,240A  
05/22/2012 23:45 EDT3.88A  17.0A  2,240A  
05/23/2012 00:00 EDT3.88A  17.0A  2,240A  
05/23/2012 00:15 EDT3.89A  16.9A  2,250A  
05/23/2012 00:30 EDT3.90A  16.9A  2,270A  
05/23/2012 00:45 EDT3.91A  16.8A  2,280A  
05/23/2012 01:00 EDT3.91A  16.8A  2,280A  
05/23/2012 01:15 EDT3.93A  16.8A  2,310A  
05/23/2012 01:30 EDT3.92A  16.7A  2,300A  
05/23/2012 01:45 EDT3.93A  16.7A  2,310A  
05/23/2012 02:00 EDT3.93A  16.6A  2,310A  
05/23/2012 02:15 EDT3.94A  16.6A  2,330A  
05/23/2012 02:30 EDT3.94A  16.5A  2,330A  
05/23/2012 02:45 EDT3.94A  16.5A  2,330A  
05/23/2012 03:00 EDT3.95A  16.4A  2,340A  
05/23/2012 03:15 EDT3.97A  16.4A  2,370A  
05/23/2012 03:30 EDT3.98A  16.3A  2,390A  
05/23/2012 03:45 EDT4.00A  16.3A  2,420A  
05/23/2012 04:00 EDT4.02A  16.2A  2,450A  
05/23/2012 04:15 EDT4.02A  16.2A  2,450A  
05/23/2012 04:30 EDT4.03A  16.1A  2,460A  
05/23/2012 04:45 EDT4.04A  16.1A  2,480A  
05/23/2012 05:00 EDT4.05A  16.0A  2,490A  
05/23/2012 05:15 EDT4.07A  16.0A  2,530A  
05/23/2012 05:30 EDT4.08A  15.9A  2,540A  
05/23/2012 05:45 EDT4.09A  15.9A  2,560A  
05/23/2012 06:00 EDT4.08A  15.8A  2,540A  
05/23/2012 06:15 EDT4.10A  15.8A  2,570A  
05/23/2012 06:30 EDT4.11A  15.7A  2,590A  
05/23/2012 06:45 EDT4.12A  15.7A  2,600A  
05/23/2012 07:00 EDT4.13A  15.7A  2,620A  
05/23/2012 07:15 EDT4.13A  15.7A  2,620A  
05/23/2012 07:30 EDT4.14A  15.7A  2,640A  
05/23/2012 07:45 EDT4.15A  15.7A  2,650A  
05/23/2012 08:00 EDT4.16A  15.7A  2,670A  
05/23/2012 08:15 EDT4.18A  15.7A  2,700A  
05/23/2012 08:30 EDT4.19A  15.7A  2,720A  
05/23/2012 08:45 EDT4.21A  15.8A  2,750A  
05/23/2012 09:00 EDT4.23A  15.9A  2,780A  
05/23/2012 09:15 EDT4.24A  15.9A  2,800A  
05/23/2012 09:30 EDT4.24A  16.0A  2,800A  
05/23/2012 09:45 EDT4.26A  16.1A  2,830A  
05/23/2012 10:00 EDT4.27A  16.2A  2,850A  
05/23/2012 10:15 EDT4.29A  16.4A  2,880A  
05/23/2012 10:30 EDT4.31A  16.5A  2,910A  
05/23/2012 10:45 EDT4.33A  16.6A  2,950A  
05/23/2012 11:00 EDT4.34A  16.8A  2,960A  
05/23/2012 11:15 EDT4.36A  16.9A  3,000A  
05/23/2012 11:30 EDT4.36A  17.1A  3,000A  
05/23/2012 11:45 EDT4.38A  17.2A  3,030A  
05/23/2012 12:00 EDT4.39A  17.3A  3,050A  
05/23/2012 12:15 EDT4.41A  17.4A  3,080A  
05/23/2012 12:30 EDT4.43A  17.6A  3,120A  
05/23/2012 12:45 EDT4.43A  17.6A  3,120A  
05/23/2012 13:00 EDT4.45A  17.7A  3,150A  
05/23/2012 13:15 EDT4.46A  17.8A  3,170A  
05/23/2012 13:30 EDT4.48A  17.9A  3,200A  
05/23/2012 13:45 EDT4.49A  18.0A  3,220A  
05/23/2012 14:00 EDT4.51A  18.0A  3,260A  
05/23/2012 14:15 EDT4.51A  18.1A  3,260A  
05/23/2012 14:30 EDT4.53A  18.2A  3,290A  
05/23/2012 14:45 EDT4.54A  18.2A  3,310A  
05/23/2012 15:00 EDT4.55A  18.3A  3,330A  
05/23/2012 15:15 EDT4.56A  18.3A  3,350A  
05/23/2012 15:30 EDT4.58A  18.3A  3,380A  
05/23/2012 15:45 EDT4.58A  18.3A  3,380A  
05/23/2012 16:00 EDT4.59A  18.3A  3,400A  
05/23/2012 16:15 EDT4.61A  18.3A  3,430A  
05/23/2012 16:30 EDT4.61A  18.3A  3,430A  
05/23/2012 16:45 EDT4.62A  18.2A  3,450A  
05/23/2012 17:00 EDT4.63A  18.2A  3,470A  
05/23/2012 17:15 EDT4.63A  18.2A  3,470A  
05/23/2012 17:30 EDT4.64A  18.2A  3,490A  
05/23/2012 17:45 EDT4.65A  18.2A  3,510A  
05/23/2012 18:00 EDT4.64A  18.2A  3,490A  
05/23/2012 18:15 EDT4.66A  18.2A  3,520A  
05/23/2012 18:30 EDT4.67A  18.2A  3,540A  
05/23/2012 18:45 EDT4.67A  18.1A  3,540A  
05/23/2012 19:00 EDT4.67A  18.1A  3,540A  
05/23/2012 19:15 EDT4.68A  18.1A  3,560A  
05/23/2012 19:30 EDT4.69A  18.1A  3,580A  
05/23/2012 19:45 EDT4.69A  18.0A  3,580A  
05/23/2012 20:00 EDT4.70A  18.0A  3,600A  
05/23/2012 20:15 EDT4.70A  17.9A  3,600A  
05/23/2012 20:30 EDT4.70A  17.9A  3,600A  
05/23/2012 20:45 EDT4.69A  17.8A  3,580A  
05/23/2012 21:00 EDT4.70A  17.8A  3,600A  
05/23/2012 21:15 EDT4.71A  17.7A  3,620A  
05/23/2012 21:30 EDT4.70A  17.7A  3,600A  
05/23/2012 21:45 EDT4.72A  17.6A  3,630A  
05/23/2012 22:00 EDT4.71A  17.6A  3,620A  
05/23/2012 22:15 EDT4.72A  17.5A  3,630A  
05/23/2012 22:30 EDT4.72A  17.4A  3,630A  
05/23/2012 22:45 EDT4.72A  17.4A  3,630A  
05/23/2012 23:00 EDT4.71A  17.3A  3,620A  
05/23/2012 23:15 EDT4.71A  17.2A  3,620A  
05/23/2012 23:30 EDT4.72A  17.2A  3,630A  
05/23/2012 23:45 EDT4.72A  17.1A  3,630A  
05/24/2012 00:00 EDT4.72A  17.0A  3,630A  
05/24/2012 00:15 EDT4.72A  16.9A  3,630A  
05/24/2012 00:30 EDT4.72A  16.8A  3,630A  
05/24/2012 00:45 EDT4.71A  16.8A  3,620A  
05/24/2012 01:00 EDT4.72A  16.7A  3,630A  
05/24/2012 01:15 EDT4.71A  16.6A  3,620A  
05/24/2012 01:30 EDT4.71A  16.5A  3,620A  
05/24/2012 01:45 EDT4.72A  16.4A  3,630A  
05/24/2012 02:00 EDT4.71A  16.3A  3,620A  
05/24/2012 02:15 EDT4.71A  16.2A  3,620A  
05/24/2012 02:30 EDT4.71A  16.1A  3,620A  
05/24/2012 02:45 EDT4.71A  16.1A  3,620A  
05/24/2012 03:00 EDT4.71A  16.0A  3,620A  
05/24/2012 03:15 EDT4.70A  15.9A  3,600A  
05/24/2012 03:30 EDT4.70A  15.8A  3,600A  
05/24/2012 03:45 EDT4.70A  15.7A  3,600A  
05/24/2012 04:00 EDT4.70A  15.6A  3,600A  
05/24/2012 04:15 EDT4.70A  15.5A  3,600A  
05/24/2012 04:30 EDT4.69A  15.4A  3,580A  
05/24/2012 04:45 EDT4.69A  15.4A  3,580A  
05/24/2012 05:00 EDT4.68A  15.3A  3,560A  
05/24/2012 05:15 EDT4.68A  15.2A  3,560A  
05/24/2012 05:30 EDT4.68A  15.1A  3,560A  
05/24/2012 05:45 EDT4.68A  15.1A  3,560A  
05/24/2012 06:00 EDT4.68A  15.0A  3,560A  
05/24/2012 06:15 EDT4.67A  15.0A  3,540A  
05/24/2012 06:30 EDT4.67A  14.9A  3,540A  
05/24/2012 06:45 EDT4.67A  14.9A  3,540A  
05/24/2012 07:00 EDT4.65A  14.9A  3,510A  
05/24/2012 07:15 EDT4.66A  14.9A  3,520A  
05/24/2012 07:30 EDT4.66A  14.9A  3,520A  
05/24/2012 07:45 EDT4.66A  14.9A  3,520A  
05/24/2012 08:00 EDT4.65A  14.9A  3,510A  
05/24/2012 08:15 EDT4.65A  15.0A  3,510A  
05/24/2012 08:30 EDT4.63A  15.1A  3,470A  
05/24/2012 08:45 EDT4.64A  15.1A  3,490A  
05/24/2012 09:00 EDT4.63A  15.2A  3,470A  
05/24/2012 09:15 EDT4.62A  15.3A  3,450A  
05/24/2012 09:30 EDT4.62A  15.4A  3,450A  
05/24/2012 09:45 EDT4.61A  15.5A  3,430A  
05/24/2012 10:00 EDT4.62A  15.6A  3,450A  
05/24/2012 10:15 EDT4.61A  15.7A  3,430A  
05/24/2012 10:30 EDT4.61A  15.8A  3,430A  
05/24/2012 10:45 EDT4.61A  15.9A  3,430A  
05/24/2012 11:00 EDT4.60A  16.0A  3,420A  
05/24/2012 11:15 EDT4.60A  16.2A  3,420A  
05/24/2012 11:30 EDT4.59A  16.3A  3,400A  
05/24/2012 11:45 EDT4.58A  16.3A  3,380A  
05/24/2012 12:00 EDT4.58A  16.5A  3,380A  
05/24/2012 12:15 EDT4.58A  16.7A  3,380A  
05/24/2012 12:30 EDT4.58A  16.8A  3,380A  
05/24/2012 12:45 EDT4.58A  16.8A  3,380A  
05/24/2012 13:00 EDT4.57A  16.9A  3,360A  
05/24/2012 13:15 EDT4.57A  16.9A  3,360A  
05/24/2012 13:30 EDT4.56A  16.9A  3,350A  
05/24/2012 13:45 EDT4.56A  17.0A  3,350A  
05/24/2012 14:00 EDT4.56A  17.1A  3,350A  
05/24/2012 14:15 EDT4.55A  17.2A  3,330A  
05/24/2012 14:30 EDT4.55A  17.3A  3,330A  
05/24/2012 14:45 EDT4.54A  17.2A  3,310A  
05/24/2012 15:00 EDT4.54A  17.1A  3,310A  
05/24/2012 15:15 EDT4.53A  17.1A  3,290A  
05/24/2012 15:30 EDT4.52A  17.2A  3,270A  
05/24/2012 15:45 EDT4.52A  17.3A  3,270A  
05/24/2012 16:00 EDT4.52A  17.3A  3,270A  
05/24/2012 16:15 EDT4.52A  17.3A  3,270A  
05/24/2012 16:30 EDT4.52A  17.3A  3,270A  
05/24/2012 16:45 EDT4.51A  17.4A  3,260A  
05/24/2012 17:00 EDT4.51A  17.5A  3,260A  
05/24/2012 17:15 EDT4.50A  17.5A  3,240A  
05/24/2012 17:30 EDT4.50A  17.6A  3,240A  
05/24/2012 17:45 EDT4.49A  17.6A  3,220A  
05/24/2012 18:00 EDT4.48A  17.6A  3,200A  
05/24/2012 18:15 EDT4.48A  17.7A  3,200A  
05/24/2012 18:30 EDT4.48A  17.7A  3,200A  
05/24/2012 18:45 EDT4.48A  17.7A  3,200A  
05/24/2012 19:00 EDT4.47A  17.7A  3,190A  
05/24/2012 19:15 EDT4.47A  17.7A  3,190A  
05/24/2012 19:30 EDT4.46A  17.7A  3,170A  
05/24/2012 19:45 EDT4.45A  17.7A  3,150A  
05/24/2012 20:00 EDT4.46A  17.7A  3,170A  
05/24/2012 20:15 EDT4.46A  17.7A  3,170A  
05/24/2012 20:30 EDT4.45A  17.7A  3,150A  
05/24/2012 20:45 EDT4.44A  17.7A  3,140A  
05/24/2012 21:00 EDT4.44A  17.7A  3,140A  
05/24/2012 21:15 EDT4.44A  17.7A  3,140A  
05/24/2012 21:30 EDT4.44A  17.8A  3,140A  
05/24/2012 21:45 EDT4.43A  17.8A  3,120A  
05/24/2012 22:00 EDT4.43A  17.8A  3,120A  
05/24/2012 22:15 EDT4.42A  17.8A  3,100A  
05/24/2012 22:30 EDT4.42A  17.8A  3,100A  
05/24/2012 22:45 EDT4.41A  17.7A  3,080A  
05/24/2012 23:00 EDT4.41A  17.7A  3,080A  
05/24/2012 23:15 EDT4.42A  17.7A  3,100A  
05/24/2012 23:30 EDT4.40A  17.7A  3,070A  
05/24/2012 23:45 EDT4.40A  17.6A  3,070A  
05/25/2012 00:00 EDT4.40A  17.6A  3,070A  
05/25/2012 00:15 EDT4.40A  17.6A  3,070A  
05/25/2012 00:30 EDT4.39A  17.6A  3,050A  
05/25/2012 00:45 EDT4.39A  17.6A  3,050A  
05/25/2012 01:00 EDT4.38A  17.6A  3,030A  
05/25/2012 01:15 EDT4.37A  17.5A  3,020A  
05/25/2012 01:30 EDT4.37A  17.5A  3,020A  
05/25/2012 01:45 EDT4.37A  17.5A  3,020A  
05/25/2012 02:00 EDT4.36A  17.5A  3,000A  
05/25/2012 02:15 EDT4.36A  17.5A  3,000A  
05/25/2012 02:30 EDT4.36A  17.4A  3,000A  
05/25/2012 02:45 EDT4.36A  17.4A  3,000A  
05/25/2012 03:00 EDT4.36A  17.4A  3,000A  
05/25/2012 03:15 EDT4.34A  17.4A  2,960A  
05/25/2012 03:30 EDT4.34A  17.3A  2,960A  
05/25/2012 03:45 EDT4.35A  17.3A  2,980A  
05/25/2012 04:00 EDT4.34A  17.3A  2,960A  
05/25/2012 04:15 EDT4.34A  17.2A  2,960A  
05/25/2012 04:30 EDT4.33A  17.2A  2,950A  
05/25/2012 04:45 EDT4.33A  17.1A  2,950A  
05/25/2012 05:00 EDT4.32A  17.1A  2,930A  
05/25/2012 05:15 EDT4.32A  17.0A  2,930A  
05/25/2012 05:30 EDT4.31A  17.0A  2,910A  
05/25/2012 05:45 EDT4.31A  17.0A  2,910A  
05/25/2012 06:00 EDT4.31A  17.0A  2,910A  
05/25/2012 06:15 EDT4.31A  16.9A  2,910A  
05/25/2012 06:30 EDT4.30A  16.9A  2,900A  
05/25/2012 06:45 EDT4.30A  16.9A  2,900A  
05/25/2012 07:00 EDT4.29A  17.0A  2,880A  
05/25/2012 07:15 EDT4.29A  17.0A  2,880A  
05/25/2012 07:30 EDT4.28A  17.0A  2,860A  
05/25/2012 07:45 EDT4.28A  17.1A  2,860A  
05/25/2012 08:00 EDT4.28A  17.1A  2,860A  
05/25/2012 08:15 EDT4.28A  17.1A  2,860A  
05/25/2012 08:30 EDT4.27A  17.1A  2,850A  
05/25/2012 08:45 EDT4.27A  17.2A  2,850A  
05/25/2012 09:00 EDT4.27A  17.2A  2,850A  
05/25/2012 09:15 EDT4.27A  17.2A  2,850A  
05/25/2012 09:30 EDT4.26A  17.3A  2,830A  
05/25/2012 09:45 EDT4.26A  17.5A  2,830A  
05/25/2012 10:00 EDT4.25A  17.6A  2,810A  
05/25/2012 10:15 EDT4.25A  17.6A  2,810A  
05/25/2012 10:30 EDT4.25A  17.7A  2,810A  
05/25/2012 10:45 EDT4.24A  17.7A  2,800A  
05/25/2012 11:00 EDT4.24A  17.8A  2,800A  
05/25/2012 11:15 EDT4.24A  18.0A  2,800A  
05/25/2012 11:30 EDT4.23A  18.2A  2,780A  
05/25/2012 11:45 EDT4.23A  18.5A  2,780A  
05/25/2012 12:00 EDT4.23A  18.6A  2,780A  
05/25/2012 12:15 EDT4.22A  18.4A  2,770A  
05/25/2012 12:30 EDT4.23A  18.5A  2,780A  
05/25/2012 12:45 EDT4.22A  18.6A  2,770A  
05/25/2012 13:00 EDT4.22A  18.7A  2,770A  
05/25/2012 13:15 EDT4.20A  18.7A  2,730A  
05/25/2012 13:30 EDT4.22A  19.0A  2,770A  
05/25/2012 13:45 EDT4.21A  19.1A  2,750A  
05/25/2012 14:00 EDT4.20A  19.2A  2,730A  
05/25/2012 14:15 EDT4.20A  19.1A  2,730A  
05/25/2012 14:30 EDT4.19A  19.1A  2,720A  
05/25/2012 14:45 EDT4.19A  19.1A  2,720A  
05/25/2012 15:00 EDT4.19A  19.2A  2,720A  
05/25/2012 15:15 EDT4.18A  19.3A  2,700A  
05/25/2012 15:30 EDT4.19A  19.3A  2,720A  
05/25/2012 15:45 EDT4.17A  19.3A  2,680A  
05/25/2012 16:00 EDT4.18A  19.3A  2,700A  
05/25/2012 16:15 EDT4.18A  19.3A  2,700A  
05/25/2012 16:30 EDT4.18A  19.4A  2,700A  
05/25/2012 16:45 EDT4.17A  19.3A  2,680A  
05/25/2012 17:00 EDT4.17A  19.4A  2,680A  
05/25/2012 17:15 EDT4.17A  19.4A  2,680A  
05/25/2012 17:30 EDT4.16A  19.4A  2,670A  
05/25/2012 17:45 EDT4.15A  19.4A  2,650A  
05/25/2012 18:00 EDT4.16A  19.4A  2,670A  
05/25/2012 18:15 EDT4.15A  19.4A  2,650A  
05/25/2012 18:30 EDT4.14A  19.4A  2,640A  
05/25/2012 18:45 EDT4.14A  19.4A  2,640A  
05/25/2012 19:00 EDT4.12A  19.4A  2,600A  
05/25/2012 19:15 EDT4.13A  19.4A  2,620A  
05/25/2012 19:30 EDT4.12A  19.4A  2,600A  
05/25/2012 19:45 EDT4.13A  19.4A  2,620A  
05/25/2012 20:00 EDT4.12A  19.4A  2,600A  
05/25/2012 20:15 EDT4.12A  19.4A  2,600A  
05/25/2012 20:30 EDT4.11A  19.3A  2,590A  
05/25/2012 20:45 EDT4.12A  19.3A  2,600A  
05/25/2012 21:00 EDT4.12A  19.2A  2,600A  
05/25/2012 21:15 EDT4.11A  19.2A  2,590A  
05/25/2012 21:30 EDT4.11A  19.2A  2,590A  
05/25/2012 21:45 EDT4.10A  19.1A  2,570A  
05/25/2012 22:00 EDT4.09A  19.1A  2,560A  
05/25/2012 22:15 EDT4.09A  19.0A  2,560A  
05/25/2012 22:30 EDT4.10A  19.0A  2,570A  
05/25/2012 22:45 EDT4.10A  19.0A  2,570A  
05/25/2012 23:00 EDT4.08A  19.0A  2,540A  
05/25/2012 23:15 EDT4.09A  19.0A  2,560A  
05/25/2012 23:30 EDT4.09A  19.0A  2,560A  
05/25/2012 23:45 EDT4.07A  19.0A  2,530A  
05/26/2012 00:00 EDT4.08A  19.0A  2,540A  
05/26/2012 00:15 EDT4.08A  18.9A  2,540A  
05/26/2012 00:30 EDT4.08A  19.0A  2,540A  
05/26/2012 00:45 EDT4.08A  18.9A  2,540A  
05/26/2012 01:00 EDT4.07A  18.9A  2,530A  
05/26/2012 01:15 EDT4.07A  18.9A  2,530A  
05/26/2012 01:30 EDT4.06A  18.9A  2,510A  
05/26/2012 01:45 EDT4.07A  18.8A  2,530A  
05/26/2012 02:00 EDT4.07A  18.8A  2,530A  
05/26/2012 02:15 EDT4.05A  18.7A  2,490A  
05/26/2012 02:30 EDT4.06A  18.7A  2,510A  
05/26/2012 02:45 EDT4.05A  18.7A  2,490A  
05/26/2012 03:00 EDT4.05A  18.6A  2,490A  
05/26/2012 03:15 EDT4.03A  18.6A  2,460A  
05/26/2012 03:30 EDT4.04A  18.5A  2,480A  
05/26/2012 03:45 EDT4.05A  18.5A  2,490A  
05/26/2012 04:00 EDT4.04A  18.4A  2,480A  
05/26/2012 04:15 EDT4.04A  18.4A  2,480A  
05/26/2012 04:30 EDT4.04A  18.3A  2,480A  
05/26/2012 04:45 EDT4.03A  18.3A  2,460A  
05/26/2012 05:00 EDT4.02A  18.2A  2,450A  
05/26/2012 05:15 EDT4.03A  18.2A  2,460A  
05/26/2012 05:30 EDT4.01A  18.1A  2,430A  
05/26/2012 05:45 EDT4.02A  18.1A  2,450A  
05/26/2012 06:00 EDT4.02A  18.1A  2,450A  
05/26/2012 06:15 EDT4.00A  18.0A  2,420A  
05/26/2012 06:30 EDT4.00A  18.0A  2,420A  
05/26/2012 06:45 EDT4.00A  18.0A  2,420A  
05/26/2012 07:00 EDT4.00A  18.0A  2,420A  
05/26/2012 07:15 EDT3.99A  18.1A  2,400A  
05/26/2012 07:30 EDT3.99A  18.1A  2,400A  
05/26/2012 07:45 EDT3.99A  18.1A  2,400A  
05/26/2012 08:00 EDT3.98A  18.2A  2,390A  
05/26/2012 08:15 EDT3.99A  18.2A  2,400A  
05/26/2012 08:30 EDT3.98A  18.2A  2,390A  
05/26/2012 08:45 EDT3.98A  18.3A  2,390A  
05/26/2012 09:00 EDT3.98A  18.4A  2,390A  
05/26/2012 09:15 EDT3.98A  18.4A  2,390A  
05/26/2012 09:30 EDT3.97A  18.5A  2,370A  
05/26/2012 09:45 EDT3.97A  18.7A  2,370A  
05/26/2012 10:00 EDT3.97A  18.8A  2,370A  
05/26/2012 10:15 EDT3.97A  18.9A  2,370A  
05/26/2012 10:30 EDT3.96A  19.0A  2,360A  
05/26/2012 10:45 EDT3.96A  19.1A  2,360A  
05/26/2012 11:00 EDT3.96A  19.2A  2,360A  
05/26/2012 11:15 EDT3.96A  19.4A  2,360A  
05/26/2012 11:30 EDT3.94A  19.5A  2,330A  
05/26/2012 11:45 EDT3.95A  19.6A  2,340A  
05/26/2012 12:00 EDT3.95A  19.7A  2,340A  
05/26/2012 12:15 EDT3.94A  19.9A  2,330A  
05/26/2012 12:30 EDT3.94A  20.0A  2,330A  
05/26/2012 12:45 EDT3.95A  20.2A  2,340A  
05/26/2012 13:00 EDT3.94A  20.3A  2,330A  
05/26/2012 13:15 EDT3.94A  20.4A  2,330A  
05/26/2012 13:30 EDT3.93A  20.5A  2,310A  
05/26/2012 13:45 EDT3.94A  20.6A  2,330A  
05/26/2012 14:00 EDT3.93A  20.7A  2,310A  
05/26/2012 14:15 EDT3.92A  20.8A  2,300A  
05/26/2012 14:30 EDT3.92A  20.8A  2,300A  
05/26/2012 14:45 EDT3.92A  20.9A  2,300A  
05/26/2012 15:00 EDT3.91A  20.9A  2,280A  
05/26/2012 15:15 EDT3.91A  20.9A  2,280A  
05/26/2012 15:30 EDT3.91A  20.9A  2,280A  
05/26/2012 15:45 EDT3.91A  20.9A  2,280A  
05/26/2012 16:00 EDT3.91A  20.9A  2,280A  
05/26/2012 16:15 EDT3.90A  20.8A  2,270A  
05/26/2012 16:30 EDT3.89A  20.7A  2,250A  
05/26/2012 16:45 EDT3.89A  20.6A  2,250A  
05/26/2012 17:00 EDT3.88A  20.5A  2,240A  
05/26/2012 17:15 EDT3.88A  20.4A  2,240A  
05/26/2012 17:30 EDT3.87A  20.3A  2,240A  
05/26/2012 17:45 EDT3.87A  20.2A  2,240A  
05/26/2012 18:00 EDT3.87A  20.2A  2,240A  
05/26/2012 18:15 EDT3.86A  20.1A  2,220A  
05/26/2012 18:30 EDT3.86A  20.1A  2,220A  
05/26/2012 18:45 EDT3.85A  20.1A  2,210A  
05/26/2012 19:00 EDT3.85A  20.0A  2,210A  
05/26/2012 19:15 EDT3.85A  20.0A  2,210A  
05/26/2012 19:30 EDT3.86A  19.9A  2,220A  
05/26/2012 19:45 EDT3.84A  19.8A  2,190A  
05/26/2012 20:00 EDT3.86A  19.8A  2,220A  
05/26/2012 20:15 EDT3.83A  19.7A  2,180A  
05/26/2012 20:30 EDT3.84A  19.6A  2,190A  
05/26/2012 20:45 EDT3.83A  19.6A  2,180A  
05/26/2012 21:00 EDT3.83A  19.5A  2,180A  
05/26/2012 21:15 EDT3.82A  19.4A  2,160A  
05/26/2012 21:30 EDT3.82A  19.3A  2,160A  
05/26/2012 21:45 EDT3.82A  19.2A  2,160A  
05/26/2012 22:00 EDT3.81A  19.2A  2,150A  
05/26/2012 22:15 EDT3.81A  19.1A  2,150A  
05/26/2012 22:30 EDT3.80A  19.0A  2,130A  
05/26/2012 22:45 EDT3.80A  18.9A  2,130A  
05/26/2012 23:00 EDT3.80A  18.9A  2,130A  
05/26/2012 23:15 EDT3.80A  18.8A  2,130A  
05/26/2012 23:30 EDT3.80A  18.7A  2,130A  
05/26/2012 23:45 EDT3.79A  18.6A  2,120A  
05/27/2012 00:00 EDT3.79A  18.5A  2,120A  
05/27/2012 00:15 EDT3.78A  18.4A  2,100A  
05/27/2012 00:30 EDT3.78A  18.4A  2,100A  
05/27/2012 00:45 EDT3.78A  18.3A  2,100A  
05/27/2012 01:00 EDT3.77A  18.2A  2,090A  
05/27/2012 01:15 EDT3.77A  18.2A  2,090A  
05/27/2012 01:30 EDT3.77A  18.1A  2,090A  
05/27/2012 01:45 EDT3.76A  18.0A  2,070A  
05/27/2012 02:00 EDT3.76A  17.9A  2,070A  
05/27/2012 02:15 EDT3.76A  17.8A  2,070A  
05/27/2012 02:30 EDT3.76A  17.8A  2,070A  
05/27/2012 02:45 EDT3.75A  17.7A  2,060A  
05/27/2012 03:00 EDT3.75A  17.6A  2,060A  
05/27/2012 03:15 EDT3.75A  17.5A  2,060A  
05/27/2012 03:30 EDT3.75A  17.4A  2,060A  
05/27/2012 03:45 EDT3.74A  17.3A  2,050A  
05/27/2012 04:00 EDT3.74A  17.2A  2,050A  
05/27/2012 04:15 EDT3.73A  17.1A  2,030A  
05/27/2012 04:30 EDT3.73A  17.0A  2,030A  
05/27/2012 04:45 EDT3.73A  16.9A  2,030A  
05/27/2012 05:00 EDT3.73A  16.7A  2,030A  
05/27/2012 05:15 EDT3.73A  16.6A  2,030A  
05/27/2012 05:30 EDT3.73A  16.5A  2,030A  
05/27/2012 05:45 EDT3.72A  16.5A  2,020A  
05/27/2012 06:00 EDT3.72A  16.4A  2,020A  
05/27/2012 06:15 EDT3.72A  16.3A  2,020A  
05/27/2012 06:30 EDT3.72A  16.3A  2,020A  
05/27/2012 06:45 EDT3.71A  16.2A  2,000A  
05/27/2012 07:00 EDT3.71A  16.2A  2,000A  
05/27/2012 07:15 EDT3.70A  16.2A  1,990A  
05/27/2012 07:30 EDT3.70A  16.2A  1,990A  
05/27/2012 07:45 EDT3.70A  16.3A  1,990A  
05/27/2012 08:00 EDT3.70A  16.3A  1,990A  
05/27/2012 08:15 EDT3.70A  16.3A  1,990A  
05/27/2012 08:30 EDT3.69A  16.4A  1,970A  
05/27/2012 08:45 EDT3.69A  16.4A  1,970A  
05/27/2012 09:00 EDT3.69A  16.5A  1,970A  
05/27/2012 09:15 EDT3.68A  16.6A  1,960A  
05/27/2012 09:30 EDT3.68A  16.7A  1,960A  
05/27/2012 09:45 EDT3.67A  16.8A  1,950A  
05/27/2012 10:00 EDT3.67A  16.9A  1,950A  
05/27/2012 10:15 EDT3.67A  17.0A  1,950A  
05/27/2012 10:30 EDT3.67A  17.1A  1,950A  
05/27/2012 10:45 EDT3.67A  17.2A  1,950A  
05/27/2012 11:00 EDT3.66A  17.4A  1,930A  
05/27/2012 11:15 EDT3.66A  17.5A  1,930A  
05/27/2012 11:30 EDT3.66A  17.7A  1,930A  
05/27/2012 11:45 EDT3.66A  17.8A  1,930A  
05/27/2012 12:00 EDT3.66A  17.9A  1,930A  
05/27/2012 12:15 EDT3.66A  18.1A  1,930A  
05/27/2012 12:30 EDT3.64A  18.2A  1,900A  
05/27/2012 12:45 EDT3.64A  18.3A  1,900A  
05/27/2012 13:00 EDT3.64A  18.4A  1,900A  
05/27/2012 13:15 EDT3.64A  18.6A  1,900A  
05/27/2012 13:30 EDT3.65A  18.7A  1,920A  
05/27/2012 13:45 EDT3.64A  18.7A  1,900A  
05/27/2012 14:00 EDT3.64A  18.8A  1,900A  
05/27/2012 14:15 EDT3.63A  18.9A  1,890A  
05/27/2012 14:30 EDT3.63A  19.0A  1,890A  
05/27/2012 14:45 EDT3.63A  19.0A  1,890A  
05/27/2012 15:00 EDT3.62A  19.1A  1,890A  
05/27/2012 15:15 EDT3.63A  19.1A  1,890A  
05/27/2012 15:30 EDT3.62A  19.0A  1,890A  
05/27/2012 15:45 EDT3.62A  19.0A  1,890A  
05/27/2012 16:00 EDT3.62A  18.9A  1,890A  
05/27/2012 16:15 EDT3.62A  18.8A  1,890A  
05/27/2012 16:30 EDT3.61A  18.8A  1,880A  
05/27/2012 16:45 EDT3.61A  18.7A  1,880A  
05/27/2012 17:00 EDT3.61A  18.6A  1,880A  
05/27/2012 17:15 EDT3.61A  18.6A  1,880A  
05/27/2012 17:30 EDT3.61A  18.5A  1,880A  
05/27/2012 17:45 EDT3.61A  18.5A  1,880A  
05/27/2012 18:00 EDT3.61A  18.4A  1,880A  
05/27/2012 18:15 EDT3.60A  18.4A  1,860A  
05/27/2012 18:30 EDT3.61A  18.3A  1,880A  
05/27/2012 18:45 EDT3.60A  18.3A  1,860A  
05/27/2012 19:00 EDT3.60A  18.3A  1,860A  
05/27/2012 19:15 EDT3.59A  18.2A  1,850A  
05/27/2012 19:30 EDT3.59A  18.1A  1,850A  
05/27/2012 19:45 EDT3.59A  18.1A  1,850A  
05/27/2012 20:00 EDT3.59A  18.0A  1,850A  
05/27/2012 20:15 EDT3.58A  18.0A  1,840A  
05/27/2012 20:30 EDT3.58A  17.9A  1,840A  
05/27/2012 20:45 EDT3.58A  17.9A  1,840A  
05/27/2012 21:00 EDT3.58A  17.8A  1,840A  
05/27/2012 21:15 EDT3.58A  17.8A  1,840A  
05/27/2012 21:30 EDT3.58A  17.7A  1,840A  
05/27/2012 21:45 EDT3.57A  17.7A  1,820A  
05/27/2012 22:00 EDT3.57A  17.6A  1,820A  
05/27/2012 22:15 EDT3.57A  17.6A  1,820A  
05/27/2012 22:30 EDT3.57A  17.5A  1,820A  
05/27/2012 22:45 EDT3.57A  17.5A  1,820A  
05/27/2012 23:00 EDT3.57A  17.5A  1,820A  
05/27/2012 23:15 EDT3.56A  17.4A  1,810A  
05/27/2012 23:30 EDT3.56A  17.4A  1,810A  
05/27/2012 23:45 EDT3.56A  17.3A  1,810A  
05/28/2012 00:00 EDT3.56A  17.3A  1,810A  
05/28/2012 00:15 EDT3.55A  17.3A  1,800A  
05/28/2012 00:30 EDT3.55A  17.2A  1,800A  
05/28/2012 00:45 EDT3.55A  17.2A  1,800A  
05/28/2012 01:00 EDT3.55A  17.1A  1,800A  
05/28/2012 01:15 EDT3.55A  17.1A  1,800A  
05/28/2012 01:30 EDT3.55A  17.1A  1,800A  
05/28/2012 01:45 EDT3.55A  17.0A  1,800A  
05/28/2012 02:00 EDT3.55A  17.0A  1,800A  
05/28/2012 02:15 EDT3.54A  16.9A  1,780A  
05/28/2012 02:30 EDT3.54A  16.9A  1,780A  
05/28/2012 02:45 EDT3.54A  16.8A  1,780A  
05/28/2012 03:00 EDT3.54A  16.7A  1,780A  
05/28/2012 03:15 EDT3.54A  16.7A  1,780A  
05/28/2012 03:30 EDT3.54A  16.6A  1,780A  
05/28/2012 03:45 EDT3.53A  16.6A  1,770A  
05/28/2012 04:00 EDT3.53A  16.5A  1,770A  
05/28/2012 04:15 EDT3.54A  16.4A  1,780A  
05/28/2012 04:30 EDT3.53A  16.3A  1,770A  
05/28/2012 04:45 EDT3.53A  16.3A  1,770A  
05/28/2012 05:00 EDT3.52A  16.2A  1,760A  
05/28/2012 05:15 EDT3.52A  16.1A  1,760A  
05/28/2012 05:30 EDT3.52A  16.1A  1,760A  
05/28/2012 05:45 EDT3.52A  16.0A  1,760A  
05/28/2012 06:00 EDT3.52A  16.0A  1,760A  
05/28/2012 06:15 EDT3.52A  15.9A  1,760A  
05/28/2012 06:30 EDT3.52A  15.9A  1,760A  
05/28/2012 06:45 EDT3.51A  15.8A  1,740A  
05/28/2012 07:00 EDT3.51A  15.8A  1,740A  
05/28/2012 07:15 EDT3.51A  15.8A  1,740A  
05/28/2012 07:30 EDT3.51A  15.8A  1,740A  
05/28/2012 07:45 EDT3.50A  15.8A  1,730A  
05/28/2012 08:00 EDT3.50A  15.8A  1,730A  
05/28/2012 08:15 EDT3.50A  15.8A  1,730A  
05/28/2012 08:30 EDT3.50A  15.8A  1,730A  
05/28/2012 08:45 EDT3.49A  15.7A  1,720A  
05/28/2012 09:00 EDT3.49A  15.7A  1,720A  
05/28/2012 09:15 EDT3.49A  15.7A  1,720A  
05/28/2012 09:30 EDT3.49A  15.7A  1,720A  
05/28/2012 09:45 EDT3.49A  15.8A  1,720A  
05/28/2012 10:00 EDT3.49A  15.9A  1,720A  
05/28/2012 10:15 EDT3.48A  15.9A  1,700A  
05/28/2012 10:30 EDT3.48A  15.9A  1,700A  
05/28/2012 10:45 EDT3.48A  16.0A  1,700A  
05/28/2012 11:00 EDT3.48A  16.2A  1,700A  
05/28/2012 11:15 EDT3.48A  16.3A  1,700A  
05/28/2012 11:30 EDT3.48A  16.4A  1,700A  
05/28/2012 11:45 EDT3.47A  16.5A  1,690A  
05/28/2012 12:00 EDT3.47A  16.6A  1,690A  
05/28/2012 12:15 EDT3.47A  16.6A  1,690A  
05/28/2012 12:30 EDT3.47A  16.6A  1,690A  
05/28/2012 12:45 EDT3.47A  16.6A  1,690A  
05/28/2012 13:00 EDT3.47A  16.6A  1,690A  
05/28/2012 13:15 EDT3.47A  16.6A  1,690A  
05/28/2012 13:30 EDT3.47A  16.6A  1,690A  
05/28/2012 13:45 EDT3.46A  16.7A  1,680A  
05/28/2012 14:00 EDT3.46A  16.7A  1,680A  
05/28/2012 14:15 EDT3.46A  16.7A  1,680A  
05/28/2012 14:30 EDT3.46A  16.8A  1,680A  
05/28/2012 14:45 EDT3.46A  16.7A  1,680A  
05/28/2012 15:00 EDT3.46A  16.7A  1,680A  
05/28/2012 15:15 EDT3.46A  16.7A  1,680A  
05/28/2012 15:30 EDT3.46A  16.8A  1,680A  
05/28/2012 15:45 EDT3.45A  16.9A  1,660A  
05/28/2012 16:00 EDT3.45A  17.0A  1,660A  
05/28/2012 16:15 EDT3.45A  17.1A  1,660A  
05/28/2012 16:30 EDT3.45A  17.1A  1,660A  
05/28/2012 16:45 EDT3.45A  17.1A  1,660A  
05/28/2012 17:00 EDT3.45A  17.0A  1,660A  
05/28/2012 17:15 EDT3.44A  17.0A  1,650A  
05/28/2012 17:30 EDT3.44A  16.9A  1,650A  
05/28/2012 17:45 EDT3.45A  16.9A  1,660A  
05/28/2012 18:00 EDT3.44A  16.9A  1,650A  
05/28/2012 18:15 EDT3.44A  16.8A  1,650A  
05/28/2012 18:30 EDT3.44A  16.8A  1,650A  
05/28/2012 18:45 EDT3.44A  16.7A  1,650A  
05/28/2012 19:00 EDT3.43A  16.7A  1,640A  
05/28/2012 19:15 EDT3.43A  16.7A  1,640A  
05/28/2012 19:30 EDT3.43A  16.7A  1,640A  
05/28/2012 19:45 EDT3.43A  16.6A  1,640A  
05/28/2012 20:00 EDT3.43A  16.6A  1,640A  
05/28/2012 20:15 EDT3.42A  16.5A  1,620A  
05/28/2012 20:30 EDT3.42A  16.5A  1,620A  
05/28/2012 20:45 EDT3.43A  16.4A  1,640A  
05/28/2012 21:00 EDT3.42A  16.3A  1,620A  
05/28/2012 21:15 EDT3.42A  16.3A  1,620A  
05/28/2012 21:30 EDT3.42A  16.3A  1,620A  
05/28/2012 21:45 EDT3.42A  16.2A  1,620A  
05/28/2012 22:00 EDT3.41A  16.2A  1,610A  
05/28/2012 22:15 EDT3.43A  16.2A  1,640A  
05/28/2012 22:30 EDT3.41A  16.1A  1,610A  
05/28/2012 22:45 EDT3.41A  16.1A  1,610A  
05/28/2012 23:00 EDT3.42A  16.1A  1,620A  
05/28/2012 23:15 EDT3.41A  16.0A  1,610A  
05/28/2012 23:30 EDT3.41A  16.0A  1,610A  
05/28/2012 23:45 EDT3.41A  15.9A  1,610A  
05/29/2012 00:00 EDT3.41A  15.9A  1,610A  
05/29/2012 00:15 EDT3.40A  15.8A  1,600A  
05/29/2012 00:30 EDT3.40A  15.8A  1,600A  
05/29/2012 00:45 EDT3.40A  15.7A  1,600A  
05/29/2012 01:00 EDT3.40A  15.7A  1,600A  
05/29/2012 01:15 EDT3.39A  15.6A  1,590A  
05/29/2012 01:30 EDT3.40A  15.6A  1,600A  
05/29/2012 01:45 EDT3.40A  15.6A  1,600A  
05/29/2012 02:00 EDT3.41A  15.5A  1,610A  
05/29/2012 02:15 EDT3.40A  15.5A  1,600A  
05/29/2012 02:30 EDT3.40A  15.4A  1,600A  
05/29/2012 02:45 EDT3.40A  15.3A  1,600A  
05/29/2012 03:00 EDT3.40A  15.3A  1,600A  
05/29/2012 03:15 EDT3.41A  15.2A  1,610A  
05/29/2012 03:30 EDT3.41A  15.1A  1,610A  
05/29/2012 03:45 EDT3.41A  15.1A  1,610A  
05/29/2012 04:00 EDT3.41A  15.0A  1,610A  
05/29/2012 04:15 EDT3.40A  15.0A  1,600A  
05/29/2012 04:30 EDT3.40A  14.9A  1,600A  
05/29/2012 04:45 EDT3.40A  14.9A  1,600A  
05/29/2012 05:00 EDT3.40A  14.8A  1,600A  
05/29/2012 05:15 EDT3.39A  14.8A  1,590A  
05/29/2012 05:30 EDT3.39A  14.7A  1,590A  
05/29/2012 05:45 EDT3.39A  14.7A  1,590A  
05/29/2012 06:00 EDT3.39A  14.6A  1,590A  
05/29/2012 06:15 EDT3.39A  14.6A  1,590A  
05/29/2012 06:30 EDT3.39A  14.5A  1,590A  
05/29/2012 06:45 EDT3.38A  14.5A  1,570A  
05/29/2012 07:00 EDT3.38A  14.4A  1,570A  
05/29/2012 07:15 EDT3.38A  14.4A  1,570A  
05/29/2012 07:30 EDT3.38A  14.3A  1,570A  
05/29/2012 07:45 EDT3.38A  14.3A  1,570A  
05/29/2012 08:00 EDT3.39A  14.2A  1,590A  
05/29/2012 08:15 EDT3.40A  14.1A  1,600A  
05/29/2012 08:30 EDT3.39A  14.0A  1,590A  
05/29/2012 08:45 EDT3.39A  14.0A  1,590A  
05/29/2012 09:00 EDT3.39A  14.0A  1,590A  
05/29/2012 09:15 EDT3.39A  13.9A  1,590A  
05/29/2012 09:30 EDT3.38A  13.9A  1,570A  
05/29/2012 09:45 EDT3.38A  13.9A  1,570A  
05/29/2012 10:00 EDT3.37A  13.9A  1,570A  
05/29/2012 10:15 EDT3.38A  13.8A  1,570A  
05/29/2012 10:30 EDT3.37A  13.8A  1,570A  
05/29/2012 10:45 EDT3.38A  13.8A  1,570A  
05/29/2012 11:00 EDT3.38A  13.7A  1,570A  
05/29/2012 11:15 EDT3.38A  13.7A  1,570A  
05/29/2012 11:30 EDT3.38A  13.7A  1,570A  
05/29/2012 11:45 EDT3.38A  13.7A  1,570A  
05/29/2012 12:00 EDT3.39A  13.7A  1,590A  
05/29/2012 12:15 EDT3.38A  13.7A  1,570A  
05/29/2012 12:30 EDT3.38A  13.7A  1,570A  
05/29/2012 12:45 EDT3.39A  13.7A  1,590A  
05/29/2012 13:00 EDT3.39A  13.6A  1,590A  
05/29/2012 13:15 EDT3.39A  13.6A  1,590A  
05/29/2012 13:30 EDT3.39A  13.6A  1,590A  
05/29/2012 13:45 EDT3.38A  13.6A  1,570A  
05/29/2012 14:00 EDT3.39A  13.6A  1,590A  
05/29/2012 14:15 EDT3.38A  13.6A  1,570A  
05/29/2012 14:30 EDT3.38A  13.6A  1,570A  
05/29/2012 14:45 EDT3.39A  13.6A  1,590A  
05/29/2012 15:00 EDT3.39A  13.6A  1,590A  
05/29/2012 15:15 EDT3.38A  13.6A  1,570A  
05/29/2012 15:30 EDT3.39A  13.6A  1,590A  
05/29/2012 15:45 EDT3.38A  13.6A  1,570A  
05/29/2012 16:00 EDT3.39A  13.6A  1,590A  
05/29/2012 16:15 EDT3.39A  13.6A  1,590A  
05/29/2012 16:30 EDT3.39A  13.6A  1,590A  
05/29/2012 16:45 EDT3.38A  13.5A  1,570A  
05/29/2012 17:00 EDT3.39A  13.5A  1,590A  
05/29/2012 17:15 EDT3.38A  13.5A  1,570A  
05/29/2012 17:30 EDT3.39A  13.5A  1,590A  
05/29/2012 17:45 EDT3.39A  13.5A  1,590A  
05/29/2012 18:00 EDT3.39A  13.5A  1,590A  
05/29/2012 18:15 EDT3.39A  13.4A  1,590A  
05/29/2012 18:30 EDT3.38A  13.4A  1,570A  
05/29/2012 18:45 EDT3.39A  13.4A  1,590A  
05/29/2012 19:00 EDT3.39A  13.4A  1,590A  
05/29/2012 19:15 EDT3.39A  13.4A  1,590A  
05/29/2012 19:30 EDT3.39A  13.3A  1,590A  
05/29/2012 19:45 EDT3.40A  13.3A  1,600A  
05/29/2012 20:00 EDT3.40A  13.3A  1,600A  
05/29/2012 20:15 EDT3.40A  13.2A  1,600A  
05/29/2012 20:30 EDT3.41A  13.2A  1,610A  
05/29/2012 20:45 EDT3.41A  13.2A  1,610A  
05/29/2012 21:00 EDT3.40A  13.2A  1,600A  
05/29/2012 21:15 EDT3.41A  13.1A  1,610A  
05/29/2012 21:30 EDT3.41A  13.1A  1,610A  
05/29/2012 21:45 EDT3.42A  13.1A  1,620A  
05/29/2012 22:00 EDT3.42A  13.1A  1,620A  
05/29/2012 22:15 EDT3.42A  13.1A  1,620A  
05/29/2012 22:30 EDT3.42A  13.0A  1,620A  
05/29/2012 22:45 EDT3.42A  13.0A  1,620A  
05/29/2012 23:00 EDT3.42A  13.0A  1,620A  
05/29/2012 23:15 EDT3.42A  13.0A  1,620A  
05/29/2012 23:30 EDT3.43A  13.0A  1,640A  
05/29/2012 23:45 EDT3.43A  13.0A  1,640A  
05/30/2012 00:00 EDT3.43A  13.0A  1,640A  
05/30/2012 00:15 EDT3.44A  12.9A  1,650A  
05/30/2012 00:30 EDT3.44A  12.9A  1,650A  
05/30/2012 00:45 EDT3.44A  12.9A  1,650A  
05/30/2012 01:00 EDT3.45A  12.9A  1,660A  
05/30/2012 01:15 EDT3.45A  12.9A  1,660A  
05/30/2012 01:30 EDT3.45A  12.9A  1,660A  
05/30/2012 01:45 EDT3.45A  12.9A  1,660A  
05/30/2012 02:00 EDT3.46A  12.9A  1,680A  
05/30/2012 02:15 EDT3.46A  12.9A  1,680A  
05/30/2012 02:30 EDT3.46A  12.9A  1,680A  
05/30/2012 02:45 EDT3.46A  12.9A  1,680A  
05/30/2012 03:00 EDT3.47A  12.9A  1,690A  
05/30/2012 03:15 EDT3.48A  12.9A  1,700A  
05/30/2012 03:30 EDT3.48A  12.8A  1,700A  
05/30/2012 03:45 EDT3.49A  12.8A  1,720A  
05/30/2012 04:00 EDT3.49A  12.8A  1,720A  
05/30/2012 04:15 EDT3.50A  12.8A  1,730A  
05/30/2012 04:30 EDT3.50A  12.8A  1,730A  
05/30/2012 04:45 EDT3.51A  12.8A  1,740A  
05/30/2012 05:00 EDT3.51A  12.8A  1,740A  
05/30/2012 05:15 EDT3.52A  12.7A  1,760A  
05/30/2012 05:30 EDT3.52A  12.7A  1,760A  
05/30/2012 05:45 EDT3.52A  12.7A  1,760A  
05/30/2012 06:00 EDT3.53A  12.7A  1,770A  
05/30/2012 06:15 EDT3.53A  12.7A  1,770A  
05/30/2012 06:30 EDT3.53A  12.7A  1,770A  
05/30/2012 06:45 EDT3.54A  12.7A  1,780A  
05/30/2012 07:00 EDT3.54A  12.7A  1,780A  
05/30/2012 07:15 EDT3.54A  12.6A  1,780A  
05/30/2012 07:30 EDT3.54A  12.6A  1,780A  
05/30/2012 07:45 EDT3.55A  12.7A  1,800A  
05/30/2012 08:00 EDT3.56A  12.6A  1,810A  
05/30/2012 08:15 EDT3.57A  12.6A  1,820A  
05/30/2012 08:30 EDT3.57A  12.6A  1,820A  
05/30/2012 08:45 EDT3.57A  12.6A  1,820A  
05/30/2012 09:00 EDT3.57A  12.7A  1,820A  
05/30/2012 09:15 EDT3.58A  12.6A  1,840A  
05/30/2012 09:30 EDT3.59A  12.7A  1,850A  
05/30/2012 09:45 EDT3.59A  12.7A  1,850A  
05/30/2012 10:00 EDT3.59A  12.7A  1,850A  
05/30/2012 10:15 EDT3.60A  12.7A  1,860A  
05/30/2012 10:30 EDT3.60A  12.7A  1,860A  
05/30/2012 10:45 EDT3.60A  12.8A  1,860A  
05/30/2012 11:00 EDT3.61A  12.9A  1,880A  
05/30/2012 11:15 EDT3.62A  13.0A  1,890A  
05/30/2012 11:30 EDT3.62A  13.1A  1,890A  
05/30/2012 11:45 EDT3.62A  13.2A  1,890A  
05/30/2012 12:00 EDT3.63A  13.5A  1,890A  
05/30/2012 12:15 EDT3.63A  13.8A  1,890A  
05/30/2012 12:30 EDT3.64A  14.0A  1,900A  
05/30/2012 12:45 EDT3.64A  14.2A  1,900A  
05/30/2012 13:00 EDT3.65A  14.4A  1,920A  
05/30/2012 13:15 EDT3.65A  14.7A  1,920A  
05/30/2012 13:30 EDT3.65A  15.0A  1,920A  
05/30/2012 13:45 EDT3.67A  15.2A  1,950A  
05/30/2012 14:00 EDT3.66A  15.4A  1,930A  
05/30/2012 14:15 EDT3.66A  15.5A  1,930A  
05/30/2012 14:30 EDT3.67A  15.7A  1,950A  
05/30/2012 14:45 EDT3.68A  15.8A  1,960A  
05/30/2012 15:00 EDT3.68A  15.9A  1,960A  
05/30/2012 15:15 EDT3.68A  16.0A  1,960A  
05/30/2012 15:30 EDT3.69A  16.1A  1,970A  
05/30/2012 15:45 EDT3.68A  16.1A  1,960A  
05/30/2012 16:00 EDT3.69A  16.1A  1,970A  
05/30/2012 16:15 EDT3.70A  16.1A  1,990A  
05/30/2012 16:30 EDT3.70A  16.1A  1,990A  
05/30/2012 16:45 EDT3.71A  16.1A  2,000A  
05/30/2012 17:00 EDT3.71A  16.1A  2,000A  
05/30/2012 17:15 EDT3.71A  16.1A  2,000A  
05/30/2012 17:30 EDT3.73A  16.2A  2,030A  
05/30/2012 17:45 EDT3.72A  16.2A  2,020A  
05/30/2012 18:00 EDT3.73A  16.2A  2,030A  
05/30/2012 18:15 EDT3.73A  16.3A  2,030A  
05/30/2012 18:30 EDT3.74A  16.3A  2,050A  
05/30/2012 18:45 EDT3.74A  16.3A  2,050A  
05/30/2012 19:00 EDT3.75A  16.4A  2,060A  
05/30/2012 19:15 EDT3.75A  16.4A  2,060A  
05/30/2012 19:30 EDT3.75A  16.4A  2,060A  
05/30/2012 19:45 EDT3.76A  16.4A  2,070A  
05/30/2012 20:00 EDT3.76A  16.4A  2,070A  
05/30/2012 20:15 EDT3.76A  16.3A  2,070A  
05/30/2012 20:30 EDT3.78A  16.3A  2,100A  
05/30/2012 20:45 EDT3.78A  16.3A  2,100A  
05/30/2012 21:00 EDT3.77A  16.2A  2,090A  
05/30/2012 21:15 EDT3.78A  16.2A  2,100A  
05/30/2012 21:30 EDT3.78A  16.2A  2,100A  
05/30/2012 21:45 EDT3.78A  16.2A  2,100A  
05/30/2012 22:00 EDT3.78A  16.2A  2,100A  
05/30/2012 22:15 EDT3.79A  16.3A  2,120A  
05/30/2012 22:30 EDT3.80A  16.3A  2,130A  
05/30/2012 22:45 EDT3.80A  16.3A  2,130A  
05/30/2012 23:00 EDT3.79A  16.3A  2,120A  
05/30/2012 23:15 EDT3.80A  16.3A  2,130A  
05/30/2012 23:30 EDT3.80A  16.4A  2,130A  
05/30/2012 23:45 EDT3.80A  16.4A  2,130A  
05/31/2012 00:00 EDT3.80A  16.4A  2,130A  
05/31/2012 00:15 EDT3.81A  16.4A  2,150A  
05/31/2012 00:30 EDT3.81A  16.4A  2,150A  
05/31/2012 00:45 EDT3.81A  16.4A  2,150A  
05/31/2012 01:00 EDT3.81A  16.4A  2,150A  
05/31/2012 01:15 EDT3.81A  16.3A  2,150A  
05/31/2012 01:30 EDT3.81A  16.3A  2,150A  
05/31/2012 01:45 EDT3.81A  16.3A  2,150A  
05/31/2012 02:00 EDT3.82A  16.3A  2,160A  
05/31/2012 02:15 EDT3.82A  16.3A  2,160A  
05/31/2012 02:30 EDT3.82A  16.3A  2,160A  
05/31/2012 02:45 EDT3.82A  16.3A  2,160A  
05/31/2012 03:00 EDT3.83A  16.3A  2,180A  
05/31/2012 03:15 EDT3.83A  16.3A  2,180A  
05/31/2012 03:30 EDT3.83A  16.2A  2,180A  
05/31/2012 03:45 EDT3.83A  16.2A  2,180A  
05/31/2012 04:00 EDT3.83A  16.2A  2,180A  
05/31/2012 04:15 EDT3.82A  16.1A  2,160A  
05/31/2012 04:30 EDT3.83A  16.1A  2,180A  
05/31/2012 04:45 EDT3.83A  16.0A  2,180A  
05/31/2012 05:00 EDT3.82A  16.0A  2,160A  
05/31/2012 05:15 EDT3.83A  15.9A  2,180A  
05/31/2012 05:30 EDT3.82A  15.9A  2,160A  
05/31/2012 05:45 EDT3.83A  15.8A  2,180A  
05/31/2012 06:00 EDT3.82A  15.8A  2,160A  
05/31/2012 06:15 EDT3.82A  15.7A  2,160A  
05/31/2012 06:30 EDT3.82A  15.7A  2,160A  
05/31/2012 06:45 EDT3.82A  15.6A  2,160A  
05/31/2012 07:00 EDT3.83A  15.6A  2,180A  
05/31/2012 07:15 EDT3.82A  15.5A  2,160A  
05/31/2012 07:30 EDT3.82A  15.5A  2,160A  
05/31/2012 07:45 EDT3.82A  15.4A  2,160A  
05/31/2012 08:00 EDT3.82A  15.4A  2,160A  
05/31/2012 08:15 EDT3.82A  15.4A  2,160A  
05/31/2012 08:30 EDT3.82A  15.3A  2,160A  
05/31/2012 08:45 EDT3.82A  15.3A  2,160A  
05/31/2012 09:00 EDT3.82A  15.3A  2,160A  
05/31/2012 09:15 EDT3.82A  15.2A  2,160A  
05/31/2012 09:30 EDT3.82A  15.2A  2,160A  
05/31/2012 09:45 EDT3.82A  15.3A  2,160A  
05/31/2012 10:00 EDT3.82A  15.3A  2,160A  
05/31/2012 10:15 EDT3.81A  15.3A  2,150A  
05/31/2012 10:30 EDT3.81A  15.3A  2,150A  
05/31/2012 10:45 EDT3.81A  15.3A  2,150A  
05/31/2012 11:00 EDT3.81A  15.4A  2,150A  
05/31/2012 11:15 EDT3.81A  15.4A  2,150A  
05/31/2012 11:30 EDT3.81A  15.5A  2,150A  
05/31/2012 11:45 EDT3.82A  15.5A  2,160A  
05/31/2012 12:00 EDT3.81A  15.6A  2,150A  
05/31/2012 12:15 EDT3.81A  15.7A  2,150A  
05/31/2012 12:30 EDT3.81A  15.8A  2,150A  
05/31/2012 12:45 EDT3.81A  15.9A  2,150A  
05/31/2012 13:00 EDT3.80A  16.0A  2,130A  
05/31/2012 13:15 EDT3.80A  16.0A  2,130A  
05/31/2012 13:30 EDT3.81A  16.1A  2,150A  
05/31/2012 13:45 EDT3.80A  16.1A  2,130A  
05/31/2012 14:00 EDT3.81A  16.2A  2,150A  
05/31/2012 14:15 EDT3.80A  16.2A  2,130A  
05/31/2012 14:30 EDT3.80A  16.3A  2,130A  
05/31/2012 14:45 EDT3.80A  16.4A  2,130A  
05/31/2012 15:00 EDT3.80A  16.5A  2,130A  
05/31/2012 15:15 EDT3.81A  16.6A  2,150A  
05/31/2012 15:30 EDT3.80A  16.7A  2,130A  
05/31/2012 15:45 EDT3.80A  16.8A  2,130A  
05/31/2012 16:00 EDT3.80A  16.8A  2,130A  
05/31/2012 16:15 EDT3.79A  16.8A  2,120A  
05/31/2012 16:30 EDT3.79A  16.8A  2,120A  
05/31/2012 16:45 EDT3.79A  16.8A  2,120A  
05/31/2012 17:00 EDT3.79A  16.8A  2,120A  
05/31/2012 17:15 EDT3.79A  16.8A  2,120A  
05/31/2012 17:30 EDT3.79A  16.8A  2,120A  
05/31/2012 17:45 EDT3.79A  16.8A  2,120A  
05/31/2012 18:00 EDT3.78A  16.8A  2,100A  
05/31/2012 18:15 EDT3.78A  16.7A  2,100A  
05/31/2012 18:30 EDT3.78A  16.6A  2,100A  
05/31/2012 18:45 EDT3.78A  16.5A  2,100A  
05/31/2012 19:00 EDT3.78A  16.4A  2,100A  
05/31/2012 19:15 EDT3.78A  16.3A  2,100A  
05/31/2012 19:30 EDT3.77A  16.3A  2,090A  
05/31/2012 19:45 EDT3.78A  16.2A  2,100A  
05/31/2012 20:00 EDT3.78A  16.1A  2,100A  
05/31/2012 20:15 EDT3.78A  16.1A  2,100A  
05/31/2012 20:30 EDT3.77A  16.0A  2,090A  
05/31/2012 20:45 EDT3.77A  15.9A  2,090A  
05/31/2012 21:00 EDT3.77A  15.8A  2,090A  
05/31/2012 21:15 EDT3.77A  15.8A  2,090A  
05/31/2012 21:30 EDT3.77A  15.7A  2,090A  
05/31/2012 21:45 EDT3.77A  15.6A  2,090A  
05/31/2012 22:00 EDT3.76A  15.6A  2,070A  
05/31/2012 22:15 EDT3.76A  15.5A  2,070A  
05/31/2012 22:30 EDT3.76A  15.4A  2,070A  
05/31/2012 22:45 EDT3.75A  15.4A  2,060A  
05/31/2012 23:00 EDT3.76A  15.4A  2,070A  
05/31/2012 23:15 EDT3.75A  15.3A  2,060A  
05/31/2012 23:30 EDT3.75A  15.3A  2,060A  
05/31/2012 23:45 EDT3.75A  15.3A  2,060A  
06/01/2012 00:00 EDT3.74A  15.2A  2,050A  
06/01/2012 00:15 EDT3.74A  15.2A  2,050A  
06/01/2012 00:30 EDT3.74A  15.2A  2,050A  
06/01/2012 00:45 EDT3.74A  15.2A  2,050A  
06/01/2012 01:00 EDT3.74A  15.1A  2,050A  
06/01/2012 01:15 EDT3.74A  15.1A  2,050A  
06/01/2012 01:30 EDT3.74A  15.1A  2,050A  
06/01/2012 01:45 EDT3.73A  15.0A  2,030A  
06/01/2012 02:00 EDT3.74A  15.0A  2,050A  
06/01/2012 02:15 EDT3.73A  14.9A  2,030A  
06/01/2012 02:30 EDT3.73A  14.9A  2,030A  
06/01/2012 02:45 EDT3.73A  14.9A  2,030A  
06/01/2012 03:00 EDT3.73A  14.8A  2,030A  
06/01/2012 03:15 EDT3.73A  14.7A  2,030A  
06/01/2012 03:30 EDT3.73A  14.7A  2,030A  
06/01/2012 03:45 EDT3.73A  14.6A  2,030A  
06/01/2012 04:00 EDT3.72A  14.6A  2,020A  
06/01/2012 04:15 EDT3.72A  14.5A  2,020A  
06/01/2012 04:30 EDT3.71A  14.4A  2,000A  
06/01/2012 04:45 EDT3.72A  14.4A  2,020A  
06/01/2012 05:00 EDT3.71A  14.3A  2,000A  
06/01/2012 05:15 EDT3.71A  14.3A  2,000A  
06/01/2012 05:30 EDT3.71A  14.2A  2,000A  
06/01/2012 05:45 EDT3.70A  14.1A  1,990A  
06/01/2012 06:00 EDT3.71A  14.1A  2,000A  
06/01/2012 06:15 EDT3.71A  14.1A  2,000A  
06/01/2012 06:30 EDT3.70A  14.0A  1,990A  
06/01/2012 06:45 EDT3.70A  14.0A  1,990A  
06/01/2012 07:00 EDT3.70A  14.0A  1,990A  
06/01/2012 07:15 EDT3.69A  14.1A  1,970A  
06/01/2012 07:30 EDT3.69A  14.1A  1,970A  
06/01/2012 07:45 EDT3.69A  14.2A  1,970A  
06/01/2012 08:00 EDT3.69A  14.3A  1,970A  
06/01/2012 08:15 EDT3.69A  14.4A  1,970A  
06/01/2012 08:30 EDT3.68A  14.5A  1,960A  
06/01/2012 08:45 EDT3.69A  14.6A  1,970A  
06/01/2012 09:00 EDT3.69A  14.7A  1,970A  
06/01/2012 09:15 EDT3.67A  14.8A  1,950A  
06/01/2012 09:30 EDT3.68A  14.9A  1,960A  
06/01/2012 09:45 EDT3.67A  15.0A  1,950A  
06/01/2012 10:00 EDT3.67A  15.1A  1,950A  
06/01/2012 10:15 EDT3.67A  15.2A  1,950A  
06/01/2012 10:30 EDT3.67A  15.4A  1,950A  
06/01/2012 10:45 EDT3.66A  15.6A  1,930A  
06/01/2012 11:00 EDT3.67A  15.7A  1,950A  
06/01/2012 11:15 EDT3.66A  15.8A  1,930A  
06/01/2012 11:30 EDT3.66A  16.0A  1,930A  
06/01/2012 11:45 EDT3.66A  16.1A  1,930A  
06/01/2012 12:00 EDT3.66A  16.3A  1,930A  
06/01/2012 12:15 EDT3.66A  16.4A  1,930A  
06/01/2012 12:30 EDT3.66A  16.6A  1,930A  
06/01/2012 12:45 EDT3.65A  16.8A  1,920A  
06/01/2012 13:00 EDT3.65A  16.9A  1,920A  
06/01/2012 13:15 EDT3.65A  17.1A  1,920A  
06/01/2012 13:30 EDT3.64A  17.2A  1,900A  
06/01/2012 13:45 EDT3.65A  17.4A  1,920A  
06/01/2012 14:00 EDT3.64A  17.5A  1,900A  
06/01/2012 14:15 EDT3.64A  17.7A  1,900A  
06/01/2012 14:30 EDT3.64A  17.7A  1,900A  
06/01/2012 14:45 EDT3.63A  17.8A  1,890A  
06/01/2012 15:00 EDT3.63A  17.9A  1,890A  
06/01/2012 15:15 EDT3.63A  18.0A  1,890A  
06/01/2012 15:30 EDT3.64A  18.0A  1,900A  
06/01/2012 15:45 EDT3.63A  18.0A  1,890A  
06/01/2012 16:00 EDT3.62A  18.1A  1,890A  
06/01/2012 16:15 EDT3.62A  18.0A  1,890A  
06/01/2012 16:30 EDT3.62A  18.0A  1,890A  
06/01/2012 16:45 EDT3.62A  18.0A  1,890A  
06/01/2012 17:00 EDT3.61A  17.9A  1,880A  
06/01/2012 17:15 EDT3.62A  17.9A  1,890A  
06/01/2012 17:30 EDT3.62A  17.8A  1,890A  
06/01/2012 17:45 EDT3.62A  17.8A  1,890A  
06/01/2012 18:00 EDT3.61A  17.8A  1,880A  
06/01/2012 18:15 EDT3.61A  17.8A  1,880A  
06/01/2012 18:30 EDT3.60A  17.8A  1,860A  
06/01/2012 18:45 EDT3.61A  17.8A  1,880A  
06/01/2012 19:00 EDT3.60A  17.8A  1,860A  
06/01/2012 19:15 EDT3.60A  17.7A  1,860A  
06/01/2012 19:30 EDT3.60A  17.7A  1,860A  
06/01/2012 19:45 EDT3.60A  17.7A  1,860A  
06/01/2012 20:00 EDT3.59A  17.7A  1,850A  
06/01/2012 20:15 EDT3.59A  17.6A  1,850A  
06/01/2012 20:30 EDT3.59A  17.6A  1,850A  
06/01/2012 20:45 EDT3.59A  17.5A  1,850A  
06/01/2012 21:00 EDT3.59A  17.4A  1,850A  
06/01/2012 21:15 EDT3.60A  17.4A  1,860A  
06/01/2012 21:30 EDT3.59A  17.3A  1,850A  
06/01/2012 21:45 EDT3.58A  17.3A  1,840A  
06/01/2012 22:00 EDT3.58A  17.2A  1,840A  
06/01/2012 22:15 EDT3.58A  17.1A  1,840A  
06/01/2012 22:30 EDT3.58A  17.1A  1,840A  
06/01/2012 22:45 EDT3.58A  17.0A  1,840A  
06/01/2012 23:00 EDT3.57A  17.0A  1,820A  
06/01/2012 23:15 EDT3.57A  16.9A  1,820A  
06/01/2012 23:30 EDT3.57A  16.9A  1,820A  
06/01/2012 23:45 EDT3.57A  16.8A  1,820A  

Explanation
  A  Approved for publication -- Processing and review completed.